Provisional Data: Baldwin Creek near Lowman, NY


Please select a monitoring station.
Please select start date.
Please select start date.

Toggle Unit: C/F Toggle Unit: C/F
Sample Time Temperature (C) Temperature (F) Specific Conductivity (mS/cm) pH   Turbidity (NTU+) DO (mg/L)
6/22/2021 12:00:00 AM 22.12 71.816 0.217 7.56 4.19 6.66
6/22/2021 12:15:00 AM 22.05 71.69 0.217 7.56 4.02 6.68
6/22/2021 12:30:00 AM 21.99 71.582 0.218 7.56 4.43 6.68
6/22/2021 12:45:00 AM 21.92 71.456 0.218 7.54 3.73 6.71
6/22/2021 1:00:00 AM 21.85 71.33 0.218 7.55 3.83 6.72
6/22/2021 1:15:00 AM 21.77 71.186 0.218 7.55 3.71 6.75
6/22/2021 1:30:00 AM 21.71 71.078 0.218 7.55 3.86 6.75
6/22/2021 1:45:00 AM 21.64 70.952 0.218 7.54 4 6.75
6/22/2021 2:00:00 AM 21.57 70.826 0.218 7.54 3.78 6.78
6/22/2021 2:15:00 AM 21.49 70.682 0.218 7.53 4.15 6.81
6/22/2021 2:30:00 AM 21.42 70.556 0.218 7.53 4.03 6.83
6/22/2021 2:45:00 AM 21.34 70.412 0.218 7.52 3.84 6.81
6/22/2021 3:00:00 AM 21.27 70.286 0.218 7.53 4.19 6.87
6/22/2021 3:15:00 AM 21.21 70.17799 0.218 7.53 3.83 6.88
6/22/2021 3:30:00 AM 21.14 70.052 0.218 7.53 3.91 6.9
6/22/2021 3:45:00 AM 21.06 69.908 0.219 7.53 4.08 6.93
6/22/2021 4:00:00 AM 20.99 69.782 0.219 7.53 3.89 6.97
6/22/2021 4:15:00 AM 20.91 69.638 0.219 7.53 3.64 6.99
6/22/2021 4:30:00 AM 20.83 69.494 0.219 7.52 3.69 7.06
6/22/2021 4:45:00 AM 20.76 69.368 0.219 7.53 3.57 7.08
6/22/2021 5:00:00 AM 20.69 69.242 0.219 7.53 3.67 7.1
6/22/2021 5:15:00 AM 20.62 69.116 0.219 7.53 3.99 7.14
6/22/2021 5:30:00 AM 20.54 68.972 0.219 7.53 3.54 7.17
6/22/2021 5:45:00 AM 20.47 68.846 0.219 7.53 3.44 7.21
6/22/2021 6:00:00 AM 20.41 68.738 0.219 7.53 3.36 7.22
6/22/2021 6:15:00 AM 20.34 68.612 0.22 7.53 3.49 7.26
6/22/2021 6:30:00 AM 20.28 68.504 0.22 7.54 3.24 7.3
6/22/2021 6:45:00 AM 20.22 68.396 0.219 7.51 3.31 7.33
6/22/2021 7:00:00 AM 20.17 68.306 0.219 7.54 3.7 7.39
6/22/2021 7:15:00 AM 20.13 68.234 0.22 7.53 3.32 7.43
6/22/2021 7:30:00 AM 20.07 68.126 0.22 7.55 3.45 7.5
6/22/2021 7:45:00 AM 20.02 68.036 0.22 7.56 3.3 7.56
6/22/2021 8:00:00 AM 19.97 67.946 0.219 7.57 3.61 7.61
6/22/2021 8:15:00 AM 19.92 67.856 0.219 7.57 3.64 7.69
6/22/2021 8:30:00 AM 19.89 67.802 0.219 7.58 3.75 7.76
6/22/2021 8:45:00 AM 19.87 67.766 0.219 7.6 3.26 7.89
6/22/2021 9:00:00 AM 19.86 67.748 0.219 7.63 3.76 8.03
6/22/2021 9:15:00 AM 19.83 67.694 0.219 7.65 3.48 8.13
6/22/2021 9:30:00 AM 19.83 67.694 0.219 7.68 3.47 8.28
6/22/2021 9:45:00 AM 19.82 67.676 0.219 7.71 3.82 8.43
6/22/2021 10:00:00 AM 19.83 67.694 0.219 7.74 4.1 8.54
6/22/2021 10:15:00 AM 19.86 67.748 0.219 7.76 4.27 8.68
6/22/2021 10:30:00 AM 19.93 67.874 0.219 7.84 3.67 8.83
6/22/2021 10:45:00 AM 20 68 0.219 7.89 3.32 8.98
6/22/2021 11:00:00 AM 20.05 68.09 0.219 7.93 3.24 9.08
6/22/2021 11:15:00 AM 20.07 68.126 0.219 7.94 3.27 9.16
6/22/2021 11:30:00 AM 20.08 68.144 0.219 8 3.38 9.22
6/22/2021 11:45:00 AM 20.09 68.162 0.219 8.02 3.2 9.29
6/22/2021 12:00:00 PM 20.09 68.162 0.219 8.05 3.13 9.32
6/22/2021 12:15:00 PM 20.12 68.216 0.22 8.09 3.15 9.36
6/22/2021 12:30:00 PM 20.13 68.234 0.22 8.13 3.13 9.38
6/22/2021 12:45:00 PM 20.08 68.144 0.22 8.11 3.21 9.34
6/22/2021 1:00:00 PM 20.03 68.054 0.22 8.09 3.33 9.28
6/22/2021 1:15:00 PM 19.98 67.964 0.22 8.08 3.37 9.27
6/22/2021 1:30:00 PM 19.93 67.874 0.22 8.07 3.31 9.23
6/22/2021 1:45:00 PM 19.87 67.766 0.22 8.04 3.45 9.17
6/22/2021 2:00:00 PM 19.82 67.676 0.221 7.99 3.32 9.07
6/22/2021 2:15:00 PM 19.76 67.568 0.221 7.97 3.34 9.03
6/22/2021 2:30:00 PM 19.77 67.586 0.221 7.98 3.46 9.05
6/22/2021 2:45:00 PM 19.78 67.604 0.221 8.01 3.46 9.11
6/22/2021 3:00:00 PM 19.75 67.55 0.221 8 3.5 9.1
6/22/2021 3:15:00 PM 19.68 67.424 0.221 7.96 3.14 9.06
6/22/2021 3:30:00 PM 19.63 67.334 0.221 7.96 3.07 9.08
6/22/2021 3:45:00 PM 19.62 67.316 0.221 7.96 3.04 9.1
6/22/2021 4:00:00 PM 19.61 67.298 0.221 7.99 2.87 9.17
6/22/2021 4:15:00 PM 19.62 67.316 0.221 8.03 2.84 9.24
6/22/2021 4:30:00 PM 19.59 67.262 0.221 8.04 2.93 9.27
6/22/2021 4:45:00 PM 19.56 67.208 0.221 8.03 3.01 9.26
6/22/2021 5:00:00 PM 19.54 67.172 0.221 8.03 2.88 9.27
6/22/2021 5:15:00 PM 19.57 67.226 0.221 8.08 2.89 9.37
6/22/2021 5:30:00 PM 19.57 67.226 0.221 8.11 2.92 9.39
6/22/2021 5:45:00 PM 19.55 67.19 0.221 8.09 2.81 9.36
6/22/2021 6:00:00 PM 19.49 67.082 0.221 8.07 2.84 9.31
6/22/2021 6:15:00 PM 19.46 67.028 0.221 8.04 2.87 9.26
6/22/2021 6:30:00 PM 19.43 66.974 0.221 8.04 2.8 9.25
6/22/2021 6:45:00 PM 19.4 66.92 0.221 8.05 2.78 9.22
6/22/2021 7:00:00 PM 19.35 66.83 0.222 8.01 2.97 9.16
6/22/2021 7:15:00 PM 19.3 66.74 0.222 7.98 2.97 9.07
6/22/2021 7:30:00 PM 19.22 66.596 0.222 7.94 3.02 9
6/22/2021 7:45:00 PM 19.16 66.488 0.222 7.89 2.91 8.91
6/22/2021 8:00:00 PM 19.08 66.344 0.222 7.85 2.89 8.82
6/22/2021 8:15:00 PM 18.98 66.164 0.222 7.8 3.12 8.74
6/22/2021 8:30:00 PM 18.9 66.02 0.222 7.76 3 8.66
6/22/2021 8:45:00 PM 18.82 65.876 0.223 7.73 2.95 8.57
6/22/2021 9:00:00 PM 18.72 65.696 0.223 7.68 2.96 8.48
6/22/2021 9:15:00 PM 18.62 65.516 0.223 7.66 3.13 8.38
6/22/2021 9:30:00 PM 18.5 65.3 0.223 7.63 3.1 8.31
6/22/2021 9:45:00 PM 18.4 65.12 0.223 7.59 3.1 8.22
6/22/2021 10:00:00 PM 18.28 64.904 0.223 7.56 2.92 8.16
6/22/2021 10:15:00 PM 18.16 64.688 0.224 7.54 3.14 8.1
6/22/2021 10:30:00 PM 18.04 64.472 0.224 7.51 3.25 8.05
6/22/2021 10:45:00 PM 17.92 64.256 0.224 7.5 3.05 8.03
6/22/2021 11:00:00 PM 17.8 64.04 0.224 7.48 3.18 8.01
6/22/2021 11:15:00 PM 17.69 63.842 0.224 7.47 3.16 8.01
6/22/2021 11:30:00 PM 17.59 63.662 0.224 7.46 3.36 7.99
6/22/2021 11:45:00 PM 17.48 63.464 0.224 7.45 3.14 8
6/23/2021 12:00:00 AM 17.37 63.266 0.224 7.44 3.11 8.02
6/23/2021 12:15:00 AM 17.27 63.086 0.224 7.43 3.14 8.03
6/23/2021 12:30:00 AM 17.17 62.906 0.224 7.43 3.1 8.05
6/23/2021 12:45:00 AM 17.06 62.708 0.224 7.42 3.04 8.07
6/23/2021 1:00:00 AM 16.95 62.51 0.224 7.41 3.02 8.09
6/23/2021 1:15:00 AM 16.85 62.33 0.225 7.41 3.6 8.1
6/23/2021 1:30:00 AM 16.75 62.15 0.225 7.41 3.27 8.11
6/23/2021 1:45:00 AM 16.64 61.952 0.224 7.4 3.83 8.12
6/23/2021 2:00:00 AM 16.54 61.772 0.225 7.4 3.18 8.16
6/23/2021 2:15:00 AM 16.44 61.592 0.225 7.38 3.19 8.18
6/23/2021 2:30:00 AM 16.34 61.412 0.225 7.39 3.08 8.2
6/23/2021 2:45:00 AM 16.25 61.25 0.225 7.38 3.31 8.19
6/23/2021 3:00:00 AM 16.14 61.052 0.225 7.38 3.08 8.21
6/23/2021 3:15:00 AM 16.05 60.89 0.225 7.38 3.43 8.23
6/23/2021 3:30:00 AM 15.96 60.728 0.225 7.37 3.53 8.26
6/23/2021 3:45:00 AM 15.86 60.548 0.225 7.37 3.17 8.29
6/23/2021 4:00:00 AM 15.78 60.404 0.225 7.37 3.41 8.31
6/23/2021 4:15:00 AM 15.67 60.206 0.225 7.37 3.37 8.34
6/23/2021 4:30:00 AM 15.58 60.044 0.226 7.37 3.45 8.35
6/23/2021 4:45:00 AM 15.49 59.882 0.226 7.36 3.16 8.38
6/23/2021 5:00:00 AM 15.4 59.72 0.226 7.36 3.49 8.41
6/23/2021 5:15:00 AM 15.31 59.558 0.226 7.35 3.33 8.44
6/23/2021 5:30:00 AM 15.22 59.396 0.226 7.36 3.2 8.48
6/23/2021 5:45:00 AM 15.15 59.27 0.226 7.36 3.08 8.49
6/23/2021 6:00:00 AM 15.08 59.144 0.226 7.37 3.06 8.53
6/23/2021 6:15:00 AM 15 59 0.226 7.37 2.93 8.58
6/23/2021 6:30:00 AM 14.93 58.874 0.226 7.38 2.99 8.64
6/23/2021 6:45:00 AM 14.88 58.784 0.226 7.39 3.12 8.71
6/23/2021 7:00:00 AM 14.84 58.712 0.226 7.4 2.76 8.79
6/23/2021 7:15:00 AM 14.82 58.676 0.226 7.42 2.82 8.86
6/23/2021 7:30:00 AM 14.82 58.676 0.226 7.44 2.73 8.96
6/23/2021 7:45:00 AM 14.84 58.712 0.226 7.45 2.72 9.06
6/23/2021 8:00:00 AM 14.88 58.784 0.226 7.5 2.85 9.17
6/23/2021 8:15:00 AM 14.92 58.856 0.226 7.52 2.84 9.27
6/23/2021 8:30:00 AM 14.94 58.892 0.226 7.54 2.72 9.37
6/23/2021 8:45:00 AM 15.03 59.054 0.226 7.58 2.68 9.46
6/23/2021 9:00:00 AM 15.23 59.414 0.226 7.63 2.76 9.56
6/23/2021 9:15:00 AM 15.42 59.756 0.226 7.66 2.79 9.67
6/23/2021 9:30:00 AM 15.55 59.99 0.225 7.69 2.75 9.74
6/23/2021 9:45:00 AM 15.75 60.35 0.225 7.72 2.75 9.83
6/23/2021 10:00:00 AM 16.01 60.818 0.225 7.76 2.78 9.89
6/23/2021 10:15:00 AM 16.27 61.286 0.225 7.8 2.79 9.95
6/23/2021 10:30:00 AM 16.53 61.754 0.225 7.84 2.71 10
6/23/2021 10:45:00 AM 16.86 62.348 0.225 7.88 2.58 10.05
6/23/2021 11:00:00 AM 17.18 62.924 0.225 7.91 2.93 10.07
6/23/2021 11:15:00 AM 17.42 63.356 0.225 7.94 2.77 10.06
6/23/2021 11:30:00 AM 17.67 63.806 0.225 7.98 2.7 10.06
6/23/2021 11:45:00 AM 17.82 64.076 0.225 7.98 2.76 10.04
6/23/2021 12:00:00 PM 18.05 64.49 0.225 8 2.79 10.04
6/23/2021 12:15:00 PM 18.36 65.048 0.225 8.05 2.67 10.06
6/23/2021 12:30:00 PM 18.63 65.534 0.225 8.08 2.68 10.05
6/23/2021 12:45:00 PM 18.81 65.858 0.224 8.13 2.7 10.04
6/23/2021 1:00:00 PM 18.94 66.092 0.224 8.13 2.66 10.03
6/23/2021 1:15:00 PM 19.13 66.434 0.224 8.15 2.78 10.01
6/23/2021 1:30:00 PM 19.34 66.812 0.224 8.18 2.78 10
6/23/2021 1:45:00 PM 19.58 67.244 0.224 8.22 2.67 9.98
6/23/2021 2:00:00 PM 19.98 67.964 0.224 8.28 2.79 9.97
6/23/2021 2:15:00 PM 20.17 68.306 0.224 8.31 2.65 9.93
6/23/2021 2:30:00 PM 20.5 68.9 0.224 8.35 2.55 9.9
6/23/2021 2:45:00 PM 20.68 69.224 0.224 8.38 2.59 9.87
6/23/2021 3:00:00 PM 20.85 69.53 0.224 8.37 2.62 9.82
6/23/2021 3:15:00 PM 20.96 69.728 0.224 8.4 2.62 9.79
6/23/2021 3:30:00 PM 21.13 70.034 0.224 8.41 2.71 9.77
6/23/2021 3:45:00 PM 21.29 70.32201 0.224 8.45 2.64 9.75
6/23/2021 4:00:00 PM 21.4 70.52 0.224 8.46 2.72 9.73
6/23/2021 4:15:00 PM 21.49 70.682 0.225 8.46 2.54 9.67
6/23/2021 4:30:00 PM 21.59 70.862 0.225 8.48 2.9 9.62
6/23/2021 4:45:00 PM 21.56 70.808 0.225 8.46 2.65 9.59
6/23/2021 5:00:00 PM 21.5 70.7 0.225 8.44 2.62 9.57
6/23/2021 5:15:00 PM 21.35 70.43 0.225 8.36 2.58 9.48
6/23/2021 5:30:00 PM 21.23 70.214 0.225 8.32 2.76 9.42
6/23/2021 5:45:00 PM 21.12 70.016 0.225 8.26 2.71 9.37
6/23/2021 6:00:00 PM 21.02 69.836 0.225 8.23 2.78 9.29
6/23/2021 6:15:00 PM 20.93 69.674 0.225 8.2 2.76 9.21
6/23/2021 6:30:00 PM 20.84 69.512 0.225 8.14 2.7 9.11
6/23/2021 6:45:00 PM 20.74 69.332 0.225 8.07 2.89 9
6/23/2021 7:00:00 PM 20.61 69.098 0.225 8.01 2.88 8.89
6/23/2021 7:15:00 PM 20.49 68.882 0.225 7.95 2.63 8.8
6/23/2021 7:30:00 PM 20.38 68.684 0.225 7.9 2.71 8.71
6/23/2021 7:45:00 PM 20.24 68.432 0.225 7.84 2.82 8.63
6/23/2021 8:00:00 PM 20.08 68.144 0.225 7.79 2.62 8.54
6/23/2021 8:15:00 PM 19.94 67.892 0.226 7.74 2.66 8.45
6/23/2021 8:30:00 PM 19.79 67.622 0.226 7.7 2.69 8.38
6/23/2021 8:45:00 PM 19.63 67.334 0.226 7.66 2.79 8.31
6/23/2021 9:00:00 PM 19.48 67.064 0.226 7.63 2.88 8.24
6/23/2021 9:15:00 PM 19.33 66.794 0.226 7.59 2.83 8.16
6/23/2021 9:30:00 PM 19.17 66.506 0.226 7.57 2.92 8.09
6/23/2021 9:45:00 PM 19.05 66.29 0.226 7.55 3.02 8.03
6/23/2021 10:00:00 PM 18.89 66.002 0.226 7.51 2.96 8
6/23/2021 10:15:00 PM 18.77 65.786 0.226 7.51 3.46 7.95
6/23/2021 10:30:00 PM 18.65 65.57 0.226 7.5 3.1 7.92
6/23/2021 10:45:00 PM 18.53 65.354 0.226 7.48 3.3 7.88
6/23/2021 11:00:00 PM 18.42 65.156 0.226 7.47 3.36 7.85
6/23/2021 11:15:00 PM 18.31 64.958 0.226 7.45 3.11 7.83
6/23/2021 11:30:00 PM 18.2 64.76 0.227 7.44 3.45 7.82
6/23/2021 11:45:00 PM 18.09 64.562 0.226 7.43 3.44 7.79
6/24/2021 12:00:00 AM 17.97 64.346 0.226 7.43 3.29 7.81
6/24/2021 12:15:00 AM 17.88 64.184 0.226 7.41 3.24 7.8
6/24/2021 12:30:00 AM 17.76 63.968 0.226 7.41 3.37 7.81
6/24/2021 12:45:00 AM 17.65 63.77 0.226 7.4 3.75 7.83
6/24/2021 1:00:00 AM 17.53 63.554 0.226 7.39 5.99 7.85
6/24/2021 1:15:00 AM 17.42 63.356 0.226 7.39 4.35 7.87
6/24/2021 1:30:00 AM 17.32 63.176 0.226 7.38 3.69 7.87
6/24/2021 1:45:00 AM 17.2 62.96 0.226 7.38 3.27 7.9
6/24/2021 2:00:00 AM 17.09 62.762 0.226 7.37 3.33 7.92
6/24/2021 2:15:00 AM 16.97 62.546 0.226 7.37 4.94 7.95
6/24/2021 2:30:00 AM 16.87 62.366 0.226 7.36 4.08 7.98
6/24/2021 2:45:00 AM 16.78 62.204 0.227 7.36 3.58 7.99
6/24/2021 3:00:00 AM 16.67 62.006 0.226 7.36 3.4 8.02
6/24/2021 3:15:00 AM 16.56 61.808 0.226 7.36 3.33 8.05
6/24/2021 3:30:00 AM 16.47 61.646 0.226 7.36 3.29 8.07
6/24/2021 3:45:00 AM 16.38 61.484 0.226 7.35 3.45 8.08
6/24/2021 4:00:00 AM 16.28 61.304 0.226 7.35 5.05 8.1
6/24/2021 4:15:00 AM 16.19 61.142 0.226 7.33 3.68 8.12
6/24/2021 4:30:00 AM 16.09 60.962 0.226 7.35 3.43 8.14
6/24/2021 4:45:00 AM 16.01 60.818 0.226 7.35 3.07 8.18
6/24/2021 5:00:00 AM 15.92 60.656 0.226 7.35 3.24 8.21
6/24/2021 5:15:00 AM 15.84 60.512 0.226 7.34 2.98 8.2
6/24/2021 5:30:00 AM 15.74 60.332 0.226 7.34 3.21 8.26
6/24/2021 5:45:00 AM 15.65 60.17 0.226 7.34 3.11 8.26
6/24/2021 6:00:00 AM 15.57 60.026 0.226 7.34 2.96 8.31
6/24/2021 6:15:00 AM 15.49 59.882 0.226 7.33 2.96 8.36
6/24/2021 6:30:00 AM 15.43 59.774 0.226 7.35 2.83 8.4
6/24/2021 6:45:00 AM 15.36 59.648 0.226 7.36 2.71 8.49
6/24/2021 7:00:00 AM 15.33 59.594 0.226 7.37 2.72 8.56
6/24/2021 7:15:00 AM 15.32 59.576 0.226 7.39 2.82 8.72
6/24/2021 7:30:00 AM 15.32 59.576 0.226 7.41 2.83 8.83
6/24/2021 7:45:00 AM 15.33 59.594 0.226 7.45 2.69 8.98
6/24/2021 8:00:00 AM 15.33 59.594 0.226 7.47 2.76 9.09
6/24/2021 8:15:00 AM 15.36 59.648 0.225 7.5 2.69 9.2
6/24/2021 8:30:00 AM 15.45 59.81 0.225 7.53 2.71 9.34
6/24/2021 8:45:00 AM 15.61 60.098 0.225 7.56 2.59 9.45
6/24/2021 9:00:00 AM 15.8 60.44 0.225 7.64 2.6 9.61
6/24/2021 9:15:00 AM 16.01 60.818 0.225 7.67 2.62 9.7
6/24/2021 9:30:00 AM 16.19 61.142 0.224 7.7 2.57 9.79
6/24/2021 9:45:00 AM 16.39 61.502 0.225 7.73 2.52 9.83
6/24/2021 10:00:00 AM 16.6 61.88 0.224 7.76 2.7 9.9
6/24/2021 10:15:00 AM 16.82 62.276 0.224 7.79 2.73 9.92
6/24/2021 10:30:00 AM 17.04 62.672 0.224 7.81 2.63 9.95
6/24/2021 10:45:00 AM 17.32 63.176 0.224 7.84 2.66 9.98
6/24/2021 11:00:00 AM 17.61 63.698 0.224 7.88 2.61 10.01
6/24/2021 11:15:00 AM 17.95 64.31 0.224 7.92 2.59 10.05
6/24/2021 11:30:00 AM 18.3 64.94 0.224 7.97 2.55 10.09
6/24/2021 11:45:00 AM 18.7 65.66 0.224 8.01 2.56 10.11
6/24/2021 12:00:00 PM 19.06 66.308 0.224 8.05 2.65 10.14
6/24/2021 12:15:00 PM 19.44 66.992 0.224 8.1 2.62 10.15
6/24/2021 12:30:00 PM 19.78 67.604 0.224 8.11 2.63 10.13
6/24/2021 12:45:00 PM 20.14 68.252 0.224 8.18 2.66 10.12
6/24/2021 1:00:00 PM 20.5 68.9 0.224 8.22 2.59 10.11
6/24/2021 1:15:00 PM 20.88 69.584 0.223 8.27 2.57 10.1
6/24/2021 1:30:00 PM 21.28 70.304 0.223 8.32 2.55 10.07
6/24/2021 1:45:00 PM 21.67 71.006 0.223 8.37 2.5 10.03
6/24/2021 2:00:00 PM 22.03 71.654 0.223 8.42 2.63 9.98
6/24/2021 2:15:00 PM 22.34 72.212 0.223 8.44 2.48 9.91
6/24/2021 2:30:00 PM 22.69 72.842 0.223 8.5 2.46 9.84
6/24/2021 2:45:00 PM 22.96 73.328 0.223 8.54 2.55 9.76
6/24/2021 3:00:00 PM 23.21 73.778 0.223 8.56 2.53 9.72
6/24/2021 3:15:00 PM 23.43 74.174 0.223 8.59 2.48 9.64
6/24/2021 3:30:00 PM 23.58 74.444 0.223 8.6 2.59 9.55
6/24/2021 3:45:00 PM 23.7 74.66 0.223 8.61 2.58 9.47
6/24/2021 4:00:00 PM 23.79 74.82201 0.223 8.6 2.54 9.39
6/24/2021 4:15:00 PM 23.81 74.858 0.224 8.59 2.47 9.29
6/24/2021 4:30:00 PM 23.75 74.75 0.224 8.55 2.53 9.2
6/24/2021 4:45:00 PM 23.67 74.606 0.224 8.5 2.51 9.11
6/24/2021 5:00:00 PM 23.56 74.408 0.224 8.43 2.74 9.01
6/24/2021 5:15:00 PM 23.39 74.102 0.224 8.36 2.6 8.9
6/24/2021 5:30:00 PM 23.22 73.796 0.224 8.27 2.74 8.8
6/24/2021 5:45:00 PM 23.03 73.454 0.224 8.21 2.75 8.73
6/24/2021 6:00:00 PM 22.86 73.148 0.224 8.14 2.59 8.63
6/24/2021 6:15:00 PM 22.68 72.824 0.224 8.09 2.61 8.56
6/24/2021 6:30:00 PM 22.52 72.536 0.224 8.03 2.59 8.5
6/24/2021 6:45:00 PM 22.37 72.266 0.225 7.99 2.62 8.44
6/24/2021 7:00:00 PM 22.19 71.942 0.225 7.94 2.68 8.35
6/24/2021 7:15:00 PM 22.04 71.672 0.225 7.9 2.83 8.28
6/24/2021 7:30:00 PM 21.91 71.438 0.225 7.87 2.83 8.23
6/24/2021 7:45:00 PM 21.74 71.132 0.225 7.82 2.64 8.16
6/24/2021 8:00:00 PM 21.61 70.898 0.225 7.79 2.73 8.08
6/24/2021 8:15:00 PM 21.44 70.592 0.225 7.75 2.69 8.04
6/24/2021 8:30:00 PM 21.32 70.376 0.225 7.73 2.72 7.97
6/24/2021 8:45:00 PM 21.17 70.106 0.225 7.7 2.67 7.92
6/24/2021 9:00:00 PM 21.02 69.836 0.226 7.66 2.72 7.82
6/24/2021 9:15:00 PM 20.86 69.548 0.226 7.63 2.83 7.75
6/24/2021 9:30:00 PM 20.71 69.278 0.226 7.6 2.86 7.69
6/24/2021 9:45:00 PM 20.57 69.026 0.226 7.58 3.93 7.6
6/24/2021 10:00:00 PM 20.43 68.774 0.226 7.56 3.18 7.56
6/24/2021 10:15:00 PM 20.27 68.486 0.226 7.54 3.05 7.52
6/24/2021 10:30:00 PM 20.15 68.27 0.226 7.52 3.01 7.48
6/24/2021 10:45:00 PM 20.01 68.018 0.226 7.5 3.06 7.44
6/24/2021 11:00:00 PM 19.89 67.802 0.226 7.49 3.21 7.4
6/24/2021 11:15:00 PM 19.75 67.55 0.226 7.47 3.39 7.38
6/24/2021 11:30:00 PM 19.63 67.334 0.226 7.46 3.17 7.37
6/24/2021 11:45:00 PM 19.52 67.136 0.226 7.45 3.06 7.32
6/25/2021 12:00:00 AM 19.39 66.902 0.226 7.45 3.16 7.31
6/25/2021 12:15:00 AM 19.3 66.74 0.226 7.43 2.98 7.31
6/25/2021 12:30:00 AM 19.2 66.56 0.226 7.42 3.17 7.31
6/25/2021 12:45:00 AM 19.1 66.38 0.226 7.42 3.47 7.31
6/25/2021 1:00:00 AM 18.99 66.182 0.226 7.42 3.21 7.32
6/25/2021 1:15:00 AM 18.9 66.02 0.226 7.41 3.21 7.33
6/25/2021 1:30:00 AM 18.8 65.84 0.226 7.41 3.23 7.34
6/25/2021 1:45:00 AM 18.71 65.67799 0.226 7.4 3.18 7.36
6/25/2021 2:00:00 AM 18.61 65.498 0.226 7.4 3.4 7.38
6/25/2021 2:15:00 AM 18.54 65.372 0.226 7.4 3.61 7.38
6/25/2021 2:30:00 AM 18.45 65.21 0.226 7.39 3.28 7.39
6/25/2021 2:45:00 AM 18.35 65.03 0.226 7.39 3.46 7.43
6/25/2021 3:00:00 AM 18.26 64.868 0.226 7.39 3.28 7.45
6/25/2021 3:15:00 AM 18.19 64.742 0.226 7.39 3.42 7.45
6/25/2021 3:30:00 AM 18.1 64.58 0.226 7.39 3.44 7.48
6/25/2021 3:45:00 AM 18.02 64.436 0.226 7.38 3.48 7.48
6/25/2021 4:00:00 AM 17.93 64.274 0.226 7.37 3.1 7.51
6/25/2021 4:15:00 AM 17.83 64.094 0.226 7.37 3.33 7.54
6/25/2021 4:30:00 AM 17.76 63.968 0.226 7.37 3.64 7.55
6/25/2021 4:45:00 AM 17.68 63.824 0.226 7.37 3.22 7.57
6/25/2021 5:00:00 AM 17.6 63.68 0.226 7.37 3.25 7.59
6/25/2021 5:15:00 AM 17.52 63.536 0.226 7.36 3.14 7.59
6/25/2021 5:30:00 AM 17.46 63.428 0.226 7.37 3.28 7.59
6/25/2021 5:45:00 AM 17.37 63.266 0.226 7.35 3.21 7.62
6/25/2021 6:00:00 AM 17.29 63.122 0.226 7.36 3.07 7.62
6/25/2021 6:15:00 AM 17.22 62.996 0.226 7.36 3.07 7.66
6/25/2021 6:30:00 AM 17.15 62.87 0.226 7.36 2.9 7.75
6/25/2021 6:45:00 AM 17.1 62.78 0.226 7.35 2.84 7.81
6/25/2021 7:00:00 AM 17.06 62.708 0.226 7.38 3.14 7.92
6/25/2021 7:15:00 AM 17.04 62.672 0.226 7.4 2.86 8.04
6/25/2021 7:30:00 AM 17.03 62.654 0.226 7.42 2.77 8.16
6/25/2021 7:45:00 AM 17.03 62.654 0.226 7.44 2.94 8.31
6/25/2021 8:00:00 AM 17.05 62.69 0.226 7.47 2.71 8.42
6/25/2021 8:15:00 AM 17.08 62.744 0.226 7.48 2.73 8.57
6/25/2021 8:30:00 AM 17.16 62.888 0.226 7.54 2.72 8.71
6/25/2021 8:45:00 AM 17.25 63.05 0.225 7.58 2.69 8.89
6/25/2021 9:00:00 AM 17.37 63.266 0.225 7.63 2.75 9.04
6/25/2021 9:15:00 AM 17.51 63.518 0.225 7.66 2.68 9.2
6/25/2021 9:30:00 AM 17.67 63.806 0.225 7.68 2.65 9.34
6/25/2021 9:45:00 AM 17.83 64.094 0.225 7.74 2.64 9.46
6/25/2021 10:00:00 AM 18 64.4 0.225 7.76 2.76 9.55
6/25/2021 10:15:00 AM 18.19 64.742 0.225 7.81 2.78 9.66
6/25/2021 10:30:00 AM 18.44 65.192 0.224 7.85 2.71 9.77
6/25/2021 10:45:00 AM 18.65 65.57 0.224 7.89 2.71 9.87
6/25/2021 11:00:00 AM 18.95 66.11 0.224 7.96 2.72 9.99
6/25/2021 11:15:00 AM 19.24 66.632 0.224 8.03 2.69 10.07
6/25/2021 11:30:00 AM 19.51 67.118 0.224 8.1 2.72 10.16
6/25/2021 11:45:00 AM 19.8 67.64 0.223 8.15 2.71 10.21
6/25/2021 12:00:00 PM 20.13 68.234 0.223 8.23 2.59 10.26
6/25/2021 12:15:00 PM 20.47 68.846 0.223 8.31 2.69 10.29
6/25/2021 12:30:00 PM 20.76 69.368 0.223 8.39 2.58 10.36
6/25/2021 12:45:00 PM 21.1 69.98 0.223 8.44 2.57 10.35
6/25/2021 1:00:00 PM 21.43 70.574 0.223 8.51 2.65 10.37
6/25/2021 1:15:00 PM 21.71 71.078 0.223 8.59 2.6 10.35
6/25/2021 1:30:00 PM 21.96 71.528 0.222 8.65 2.6 10.33
6/25/2021 1:45:00 PM 22.24 72.032 0.222 8.7 2.54 10.33
6/25/2021 2:00:00 PM 22.49 72.482 0.222 8.75 2.65 10.32
6/25/2021 2:15:00 PM 22.73 72.914 0.222 8.81 2.63 10.29
6/25/2021 2:30:00 PM 23 73.4 0.222 8.87 2.65 10.27
6/25/2021 2:45:00 PM 23.2 73.76 0.222 8.9 2.54 10.24
6/25/2021 3:00:00 PM 23.38 74.084 0.222 8.93 2.6 10.18
6/25/2021 3:15:00 PM 23.59 74.462 0.222 8.97 2.51 10.15
6/25/2021 3:30:00 PM 23.69 74.642 0.222 8.97 2.62 10.09
6/25/2021 3:45:00 PM 23.8 74.84 0.222 9 2.46 10.03
6/25/2021 4:00:00 PM 23.9 75.02 0.222 9.02 2.6 9.98
6/25/2021 4:15:00 PM 23.92 75.056 0.222 9.02 2.56 9.92
6/25/2021 4:30:00 PM 23.9 75.02 0.222 9.02 2.55 9.84
6/25/2021 4:45:00 PM 23.87 74.966 0.222 8.99 2.62 9.72
6/25/2021 5:00:00 PM 23.79 74.82201 0.222 8.95 2.57 9.6
6/25/2021 5:15:00 PM 23.71 74.67799 0.222 8.9 2.63 9.47
6/25/2021 5:30:00 PM 23.61 74.498 0.222 8.87 2.62 9.38
6/25/2021 5:45:00 PM 23.51 74.318 0.222 8.82 2.61 9.28
6/25/2021 6:00:00 PM 23.41 74.138 0.222 8.78 2.59 9.21
6/25/2021 6:15:00 PM 23.29 73.922 0.222 8.73 2.6 9.13
6/25/2021 6:30:00 PM 23.2 73.76 0.223 8.68 2.64 9.06
6/25/2021 6:45:00 PM 23.1 73.58 0.222 8.64 2.77 9
6/25/2021 7:00:00 PM 23.01 73.418 0.223 8.58 2.75 8.9
6/25/2021 7:15:00 PM 22.9 73.22 0.223 8.51 2.71 8.82
6/25/2021 7:30:00 PM 22.79 73.022 0.223 8.43 2.74 8.75
6/25/2021 7:45:00 PM 22.68 72.824 0.224 8.36 2.65 8.69
6/25/2021 8:00:00 PM 22.56 72.608 0.224 8.28 2.77 8.62
6/25/2021 8:15:00 PM 22.44 72.392 0.224 8.19 2.82 8.5
6/25/2021 8:30:00 PM 22.29 72.122 0.224 8.12 2.78 8.43
6/25/2021 8:45:00 PM 22.17 71.906 0.225 8.04 2.72 8.31
6/25/2021 9:00:00 PM 22.04 71.672 0.225 7.98 2.72 8.17
6/25/2021 9:15:00 PM 21.92 71.456 0.225 7.92 2.75 8.06
6/25/2021 9:30:00 PM 21.8 71.24 0.225 7.86 2.89 7.95
6/25/2021 9:45:00 PM 21.68 71.024 0.225 7.82 3.19 7.85
6/25/2021 10:00:00 PM 21.56 70.808 0.225 7.76 3.3 7.73
6/25/2021 10:15:00 PM 21.44 70.592 0.225 7.73 3.03 7.61
6/25/2021 10:30:00 PM 21.31 70.358 0.226 7.69 3.22 7.5
6/25/2021 10:45:00 PM 21.19 70.142 0.226 7.66 3.21 7.43
6/25/2021 11:00:00 PM 21.05 69.89 0.226 7.62 3.31 7.33
6/25/2021 11:15:00 PM 20.94 69.692 0.226 7.6 3.12 7.24
6/25/2021 11:30:00 PM 20.83 69.494 0.226 7.57 3.23 7.15
6/25/2021 11:45:00 PM 20.71 69.278 0.227 7.55 3.43 7.09
6/26/2021 12:00:00 AM 20.6 69.08 0.227 7.53 3.32 7.01
6/26/2021 12:15:00 AM 20.51 68.918 0.227 7.52 3.29 6.98
6/26/2021 12:30:00 AM 20.42 68.756 0.227 7.51 3.31 6.95
6/26/2021 12:45:00 AM 20.32 68.576 0.227 7.49 3.31 6.92
6/26/2021 1:00:00 AM 20.24 68.432 0.227 7.49 3.39 6.91
6/26/2021 1:15:00 AM 20.16 68.288 0.227 7.48 3.26 6.9
6/26/2021 1:30:00 AM 20.09 68.162 0.227 7.46 4.38 6.88
6/26/2021 1:45:00 AM 19.99 67.982 0.227 7.47 3.2 6.88
6/26/2021 2:00:00 AM 19.91 67.838 0.227 7.45 3.36 6.9
6/26/2021 2:15:00 AM 19.83 67.694 0.227 7.45 3.23 6.89
6/26/2021 2:30:00 AM 19.76 67.568 0.227 7.45 3.32 6.91
6/26/2021 2:45:00 AM 19.71 67.478 0.227 7.45 3.42 6.9
6/26/2021 3:00:00 AM 19.64 67.352 0.227 7.44 3.44 6.94
6/26/2021 3:15:00 AM 19.59 67.262 0.227 7.44 3.18 6.94
6/26/2021 3:30:00 AM 19.55 67.19 0.227 7.44 3.3 6.92
6/26/2021 3:45:00 AM 19.49 67.082 0.227 7.43 3.46 6.95
6/26/2021 4:00:00 AM 19.47 67.046 0.228 7.44 3.47 6.94
6/26/2021 4:15:00 AM 19.41 66.938 0.227 7.44 3.34 6.97
6/26/2021 4:30:00 AM 19.37 66.866 0.227 7.43 3.33 6.98
6/26/2021 4:45:00 AM 19.33 66.794 0.227 7.44 3.59 6.97
6/26/2021 5:00:00 AM 19.3 66.74 0.227 7.43 3.44 6.99
6/26/2021 5:15:00 AM 19.26 66.668 0.227 7.43 3.33 7
6/26/2021 5:30:00 AM 19.24 66.632 0.227 7.43 3.34 6.98
6/26/2021 5:45:00 AM 19.22 66.596 0.227 7.43 3.18 7.02
6/26/2021 6:00:00 AM 19.2 66.56 0.228 7.44 3.69 7.02
6/26/2021 6:15:00 AM 19.18 66.524 0.228 7.44 3.62 7.04
6/26/2021 6:30:00 AM 19.17 66.506 0.228 7.44 3.36 7.04
6/26/2021 6:45:00 AM 19.16 66.488 0.228 7.44 3.27 7.08
6/26/2021 7:00:00 AM 19.17 66.506 0.228 7.46 3.02 7.17
6/26/2021 7:15:00 AM 19.18 66.524 0.228 7.47 3.08 7.29
6/26/2021 7:30:00 AM 19.2 66.56 0.227 7.48 2.88 7.4
6/26/2021 7:45:00 AM 19.23 66.614 0.227 7.5 2.74 7.51
6/26/2021 8:00:00 AM 19.24 66.632 0.227 7.52 2.79 7.62
6/26/2021 8:15:00 AM 19.26 66.668 0.227 7.53 3.1 7.71
6/26/2021 8:30:00 AM 19.28 66.704 0.227 7.55 2.96 7.76
6/26/2021 8:45:00 AM 19.31 66.758 0.227 7.55 2.87 7.84
6/26/2021 9:00:00 AM 19.37 66.866 0.227 7.57 2.75 7.96
6/26/2021 9:15:00 AM 19.43 66.974 0.227 7.59 2.81 8.05
6/26/2021 9:30:00 AM 19.5 67.1 0.227 7.64 3 8.31
6/26/2021 9:45:00 AM 19.63 67.334 0.226 7.68 2.82 8.5
6/26/2021 10:00:00 AM 19.78 67.604 0.226 7.74 2.99 8.66
6/26/2021 10:15:00 AM 19.98 67.964 0.226 7.78 2.9 8.81
6/26/2021 10:30:00 AM 20.27 68.486 0.226 7.84 2.68 8.98
6/26/2021 10:45:00 AM 20.55 68.99 0.226 7.9 2.66 9.21
6/26/2021 11:00:00 AM 20.74 69.332 0.226 7.93 2.67 9.28
6/26/2021 11:15:00 AM 20.95 69.71 0.226 7.98 2.77 9.42
6/26/2021 11:30:00 AM 21.17 70.106 0.226 8.03 2.76 9.58
6/26/2021 11:45:00 AM 21.39 70.502 0.225 8.12 2.74 9.71
6/26/2021 12:00:00 PM 21.64 70.952 0.225 8.17 2.7 9.8
6/26/2021 12:15:00 PM 21.9 71.42 0.225 8.28 2.72 9.91
6/26/2021 12:30:00 PM 22.25 72.05 0.225 8.37 2.64 9.97
6/26/2021 12:45:00 PM 22.63 72.734 0.225 8.45 2.79 10.05
6/26/2021 1:00:00 PM 22.94 73.292 0.224 8.57 2.69 10.09
6/26/2021 1:15:00 PM 23.19 73.742 0.224 8.63 2.61 10.11
6/26/2021 1:30:00 PM 23.41 74.138 0.224 8.7 2.64 10.09
6/26/2021 1:45:00 PM 23.65 74.57 0.224 8.77 2.55 10.09
6/26/2021 2:00:00 PM 23.9 75.02 0.223 8.86 2.61 10.07
6/26/2021 2:15:00 PM 24.1 75.38 0.223 8.89 2.79 10.03
6/26/2021 2:30:00 PM 24.33 75.794 0.223 8.95 2.66 9.98
6/26/2021 2:45:00 PM 24.45 76.01 0.223 8.97 2.6 9.92
6/26/2021 3:00:00 PM 24.57 76.226 0.223 8.99 2.64 9.84
6/26/2021 3:15:00 PM 24.71 76.478 0.223 9.04 2.7 9.82
6/26/2021 3:30:00 PM 24.86 76.748 0.223 9.05 2.62 9.79
6/26/2021 3:45:00 PM 24.92 76.856 0.223 9.07 2.55 9.74
6/26/2021 4:00:00 PM 24.96 76.92799 0.223 9.06 2.69 9.65
6/26/2021 4:15:00 PM 25.05 77.09 0.222 9.08 2.61 9.61
6/26/2021 4:30:00 PM 25.06 77.108 0.223 9.09 2.66 9.55
6/26/2021 4:45:00 PM 25.04 77.07201 0.223 9.08 2.59 9.5
6/26/2021 5:00:00 PM 25.01 77.018 0.223 9.06 2.71 9.43
6/26/2021 5:15:00 PM 25.01 77.018 0.223 9.07 2.74 9.41
6/26/2021 5:30:00 PM 24.97 76.946 0.223 9.06 2.7 9.36
6/26/2021 5:45:00 PM 24.91 76.838 0.223 9.03 2.8 9.29
6/26/2021 6:00:00 PM 24.85 76.73 0.223 9.02 2.81 9.24
6/26/2021 6:15:00 PM 24.77 76.586 0.223 8.98 2.77 9.16
6/26/2021 6:30:00 PM 24.7 76.46 0.223 8.95 2.67 9.11
6/26/2021 6:45:00 PM 24.6 76.28 0.223 8.91 2.75 9.01
6/26/2021 7:00:00 PM 24.52 76.136 0.223 8.86 2.75 8.89
6/26/2021 7:15:00 PM 24.43 75.974 0.223 8.82 2.87 8.78
6/26/2021 7:30:00 PM 24.36 75.848 0.223 8.78 2.75 8.69
6/26/2021 7:45:00 PM 24.27 75.686 0.224 8.7 2.87 8.56
6/26/2021 8:00:00 PM 24.18 75.524 0.224 8.62 2.74 8.45
6/26/2021 8:15:00 PM 24.07 75.326 0.224 8.54 2.74 8.36
6/26/2021 8:30:00 PM 23.97 75.146 0.224 8.45 2.69 8.21
6/26/2021 8:45:00 PM 23.87 74.966 0.225 8.36 2.78 8.07
6/26/2021 9:00:00 PM 23.76 74.768 0.225 8.26 2.88 7.94
6/26/2021 9:15:00 PM 23.65 74.57 0.225 8.18 3.34 7.81
6/26/2021 9:30:00 PM 23.52 74.336 0.226 8.07 2.88 7.65
6/26/2021 9:45:00 PM 23.4 74.12 0.226 7.99 3.11 7.49
6/26/2021 10:00:00 PM 23.28 73.904 0.227 7.92 3.34 7.36
6/26/2021 10:15:00 PM 23.16 73.688 0.227 7.86 3.49 7.22
6/26/2021 10:30:00 PM 23.04 73.472 0.227 7.81 3.29 7.12
6/26/2021 10:45:00 PM 22.92 73.256 0.227 7.76 3.55 7
6/26/2021 11:00:00 PM 22.83 73.094 0.227 7.75 3.13 6.93
6/26/2021 11:15:00 PM 22.72 72.896 0.228 7.7 3.45 6.83
6/26/2021 11:30:00 PM 22.62 72.716 0.228 7.68 3.5 6.74
6/26/2021 11:45:00 PM 22.52 72.536 0.228 7.66 3.5 6.63
6/27/2021 12:00:00 AM 22.42 72.356 0.228 7.64 3.34 6.59
6/27/2021 12:15:00 AM 22.33 72.194 0.229 7.61 3.53 6.51
6/27/2021 12:30:00 AM 22.25 72.05 0.229 7.6 3.59 6.48
6/27/2021 12:45:00 AM 22.16 71.888 0.229 7.59 3.36 6.44
6/27/2021 1:00:00 AM 22.08 71.744 0.229 7.57 3.21 6.38
6/27/2021 1:15:00 AM 22 71.6 0.229 7.56 3.23 6.37
6/27/2021 1:30:00 AM 21.91 71.438 0.229 7.55 3.5 6.37
6/27/2021 1:45:00 AM 21.83 71.294 0.229 7.54 3.41 6.31
6/27/2021 2:00:00 AM 21.76 71.168 0.229 7.53 3.4 6.33
6/27/2021 2:15:00 AM 21.67 71.006 0.229 7.52 3.63 6.33
6/27/2021 2:30:00 AM 21.6 70.88 0.229 7.5 3.62 6.33
6/27/2021 2:45:00 AM 21.52 70.736 0.229 7.51 3.52 6.3
6/27/2021 3:00:00 AM 21.45 70.61 0.229 7.51 3.59 6.33
6/27/2021 3:15:00 AM 21.38 70.484 0.229 7.5 3.7 6.3
6/27/2021 3:30:00 AM 21.31 70.358 0.229 7.5 4 6.36
6/27/2021 3:45:00 AM 21.24 70.232 0.229 7.49 3.82 6.35
6/27/2021 4:00:00 AM 21.16 70.088 0.229 7.46 3.35 6.33
6/27/2021 4:15:00 AM 21.11 69.998 0.23 7.49 3.82 6.33
6/27/2021 4:30:00 AM 21.04 69.872 0.229 7.48 3.95 6.37
6/27/2021 4:45:00 AM 20.98 69.764 0.229 7.48 3.73 6.36
6/27/2021 5:00:00 AM 20.89 69.602 0.229 7.47 3.49 6.41
6/27/2021 5:15:00 AM 20.84 69.512 0.23 7.47 3.38 6.4
6/27/2021 5:30:00 AM 20.78 69.404 0.229 7.47 4.18 6.39
6/27/2021 5:45:00 AM 20.74 69.332 0.23 7.46 3.85 6.4
6/27/2021 6:00:00 AM 20.67 69.206 0.229 7.46 3.64 6.44
6/27/2021 6:15:00 AM 20.62 69.116 0.23 7.46 3.61 6.42
6/27/2021 6:30:00 AM 20.56 69.008 0.229 7.46 3.51 6.47
6/27/2021 6:45:00 AM 20.52 68.936 0.23 7.46 3.44 6.52
6/27/2021 7:00:00 AM 20.47 68.846 0.229 7.46 3.51 6.61
6/27/2021 7:15:00 AM 20.43 68.774 0.229 7.47 3.4 6.74
6/27/2021 7:30:00 AM 20.42 68.756 0.23 7.48 3.4 6.74
6/27/2021 7:45:00 AM 20.43 68.774 0.229 7.5 3.43 6.88
6/27/2021 8:00:00 AM 20.48 68.864 0.229 7.53 3.16 7.04
6/27/2021 8:15:00 AM 20.57 69.026 0.229 7.58 3.09 7.23
6/27/2021 8:30:00 AM 20.65 69.17 0.229 7.6 3.18 7.36
6/27/2021 8:45:00 AM 20.78 69.404 0.229 7.64 3.16 7.51
6/27/2021 9:00:00 AM 20.97 69.746 0.229 7.68 3.17 7.71
6/27/2021 9:15:00 AM 21.11 69.998 0.229 7.71 3.09 7.85
6/27/2021 9:30:00 AM 21.34 70.412 0.229 7.75 3.3 8.02
6/27/2021 9:45:00 AM 21.48 70.664 0.229 7.78 2.95 8.16
6/27/2021 10:00:00 AM 21.58 70.844 0.229 7.79 2.92 8.28
6/27/2021 10:15:00 AM 21.67 71.006 0.229 7.8 2.89 8.4
6/27/2021 10:30:00 AM 21.82 71.276 0.229 7.84 3.05 8.57
6/27/2021 10:45:00 AM 21.95 71.51 0.229 7.87 3.05 8.65
6/27/2021 11:00:00 AM 22.08 71.744 0.228 7.9 2.92 8.84
6/27/2021 11:15:00 AM 22.36 72.248 0.228 7.96 3.03 8.92
6/27/2021 11:30:00 AM 22.56 72.608 0.228 8.02 3.1 9.06
6/27/2021 11:45:00 AM 22.99 73.382 0.227 8.11 2.8 9.22
6/27/2021 12:00:00 PM 23.31 73.958 0.227 8.17 2.8 9.31
6/27/2021 12:15:00 PM 23.69 74.642 0.227 8.24 2.77 9.42
6/27/2021 12:30:00 PM 24.06 75.308 0.227 8.33 2.78 9.5
6/27/2021 12:45:00 PM 24.34 75.812 0.227 8.38 2.86 9.53
6/27/2021 1:00:00 PM 24.62 76.316 0.227 8.43 2.71 9.53
6/27/2021 1:15:00 PM 24.95 76.91 0.226 8.5 2.82 9.52
6/27/2021 1:30:00 PM 25.29 77.522 0.226 8.61 2.71 9.53
6/27/2021 1:45:00 PM 25.6 78.08 0.226 8.67 2.7 9.51
6/27/2021 2:00:00 PM 25.92 78.656 0.226 8.74 2.75 9.47
6/27/2021 2:15:00 PM 26.24 79.232 0.226 8.8 2.77 9.39
6/27/2021 2:30:00 PM 26.45 79.61 0.225 8.85 2.72 9.35
6/27/2021 2:45:00 PM 26.74 80.132 0.225 8.89 2.68 9.26
6/27/2021 3:00:00 PM 26.99 80.582 0.225 8.96 2.63 9.21
6/27/2021 3:15:00 PM 27.13 80.834 0.225 8.98 2.57 9.16
6/27/2021 3:30:00 PM 27.3 81.14 0.225 9.01 2.61 9.08
6/27/2021 3:45:00 PM 27.45 81.41 0.225 9.03 2.65 9
6/27/2021 4:00:00 PM 27.49 81.482 0.225 9.04 2.62 8.89
6/27/2021 4:15:00 PM 27.53 81.554 0.225 9.04 2.6 8.85
6/27/2021 4:30:00 PM 27.54 81.57201 0.225 9.04 2.67 8.74
6/27/2021 4:45:00 PM 27.49 81.482 0.225 9.02 3.05 8.67
6/27/2021 5:00:00 PM 27.43 81.374 0.225 8.97 3.04 8.59
6/27/2021 5:15:00 PM 27.33 81.194 0.226 8.92 3.74 8.51
6/27/2021 5:30:00 PM 27.2 80.96 0.226 8.86 3.45 8.43
6/27/2021 5:45:00 PM 27.06 80.708 0.226 8.79 2.98 8.34
6/27/2021 6:00:00 PM 26.96 80.528 0.226 8.74 2.88 8.24
6/27/2021 6:15:00 PM 26.86 80.348 0.226 8.71 2.95 8.16
6/27/2021 6:30:00 PM 26.76 80.168 0.226 8.66 2.84 8.07
6/27/2021 6:45:00 PM 26.65 79.97 0.226 8.62 2.71 7.98
6/27/2021 7:00:00 PM 26.55 79.79 0.227 8.56 2.88 7.9
6/27/2021 7:15:00 PM 26.43 79.574 0.227 8.48 2.66 7.81
6/27/2021 7:30:00 PM 26.34 79.412 0.227 8.43 2.73 7.7
6/27/2021 7:45:00 PM 26.23 79.214 0.227 8.38 2.88 7.64
6/27/2021 8:00:00 PM 26.13 79.034 0.227 8.33 2.86 7.54
6/27/2021 8:15:00 PM 26.01 78.818 0.228 8.28 2.82 7.45
6/27/2021 8:30:00 PM 25.88 78.584 0.228 8.21 2.85 7.35
6/27/2021 8:45:00 PM 25.74 78.332 0.228 8.15 3.08 7.23
6/27/2021 9:00:00 PM 25.61 78.098 0.228 8.09 2.98 7.1
6/27/2021 9:15:00 PM 25.49 77.882 0.229 8.05 3.14 7
6/27/2021 9:30:00 PM 25.35 77.63 0.229 7.97 2.97 6.86
6/27/2021 9:45:00 PM 25.23 77.414 0.229 7.96 3.08 6.77
6/27/2021 10:00:00 PM 25.1 77.18 0.229 7.92 3.14 6.66
6/27/2021 10:15:00 PM 25 77 0.23 7.89 3.33 6.58
6/27/2021 10:30:00 PM 24.86 76.748 0.23 7.86 3.02 6.5
6/27/2021 10:45:00 PM 24.75 76.55 0.23 7.83 3.14 6.43
6/27/2021 11:00:00 PM 24.63 76.334 0.23 7.8 3.28 6.36
6/27/2021 11:15:00 PM 24.51 76.118 0.231 7.78 3.18 6.3
6/27/2021 11:30:00 PM 24.4 75.92 0.231 7.76 3.51 6.2
6/27/2021 11:45:00 PM 24.27 75.686 0.231 7.74 3.3 6.13
6/28/2021 12:00:00 AM 24.16 75.488 0.231 7.72 3.25 6.09
6/28/2021 12:15:00 AM 24.07 75.326 0.231 7.71 3.42 6.05
6/28/2021 12:30:00 AM 23.97 75.146 0.231 7.69 3.67 5.98
6/28/2021 12:45:00 AM 23.84 74.912 0.231 7.67 3.74 5.96
6/28/2021 1:00:00 AM 23.74 74.732 0.232 7.66 3.36 5.91
6/28/2021 1:15:00 AM 23.64 74.552 0.232 7.63 3.44 5.93
6/28/2021 1:30:00 AM 23.54 74.372 0.232 7.63 3.4 5.86
6/28/2021 1:45:00 AM 23.46 74.228 0.232 7.62 3.58 5.82
6/28/2021 2:00:00 AM 23.36 74.048 0.232 7.61 3.9 5.83
6/28/2021 2:15:00 AM 23.28 73.904 0.232 7.6 3.91 5.84
6/28/2021 2:30:00 AM 23.19 73.742 0.232 7.59 3.6 5.82
6/28/2021 2:45:00 AM 23.1 73.58 0.232 7.59 3.38 5.84
6/28/2021 3:00:00 AM 23.03 73.454 0.232 7.58 3.83 5.82
6/28/2021 3:15:00 AM 22.94 73.292 0.233 7.57 3.34 5.82
6/28/2021 3:30:00 AM 22.86 73.148 0.233 7.57 4.13 5.82
6/28/2021 3:45:00 AM 22.77 72.986 0.233 7.56 3.54 5.83
6/28/2021 4:00:00 AM 22.7 72.86 0.233 7.55 3.75 5.81
6/28/2021 4:15:00 AM 22.63 72.734 0.233 7.55 3.6 5.81
6/28/2021 4:30:00 AM 22.55 72.59 0.233 7.52 3.76 5.8
6/28/2021 4:45:00 AM 22.47 72.446 0.233 7.53 3.6 5.82
6/28/2021 5:00:00 AM 22.41 72.338 0.233 7.53 3.32 5.84
6/28/2021 5:15:00 AM 22.34 72.212 0.233 7.53 3.83 5.84
6/28/2021 5:30:00 AM 22.25 72.05 0.233 7.53 4.55 5.86
6/28/2021 5:45:00 AM 22.17 71.906 0.233 7.52 3.9 5.89
6/28/2021 6:00:00 AM 22.11 71.798 0.232 7.51 3.77 5.9
6/28/2021 6:15:00 AM 22.04 71.672 0.232 7.51 3.52 5.9
6/28/2021 6:30:00 AM 21.98 71.564 0.232 7.51 3.71 5.97
6/28/2021 6:45:00 AM 21.92 71.456 0.232 7.51 4.02 6.02
6/28/2021 7:00:00 AM 21.89 71.402 0.232 7.51 3.56 5.98
6/28/2021 7:15:00 AM 21.83 71.294 0.232 7.52 3.32 6.11
6/28/2021 7:30:00 AM 21.8 71.24 0.232 7.53 3.26 6.22
6/28/2021 7:45:00 AM 21.79 71.222 0.232 7.54 3.04 6.28
6/28/2021 8:00:00 AM 21.82 71.276 0.232 7.56 2.95 6.46
6/28/2021 8:15:00 AM 21.88 71.384 0.232 7.58 3.11 6.54
6/28/2021 8:30:00 AM 21.98 71.564 0.231 7.63 3.23 6.74
6/28/2021 8:45:00 AM 22.08 71.744 0.231 7.67 3.09 6.91
6/28/2021 9:00:00 AM 22.24 72.032 0.231 7.71 3.02 7.1
6/28/2021 9:15:00 AM 22.44 72.392 0.231 7.75 3.02 7.3
6/28/2021 9:30:00 AM 22.61 72.698 0.231 7.77 3.06 7.37
6/28/2021 9:45:00 AM 22.8 73.04 0.231 7.8 2.94 7.54
6/28/2021 10:00:00 AM 23.02 73.436 0.231 7.83 2.96 7.64
6/28/2021 10:15:00 AM 23.24 73.832 0.232 7.86 2.91 7.78
6/28/2021 10:30:00 AM 23.46 74.228 0.231 7.9 3.11 7.98
6/28/2021 10:45:00 AM 23.66 74.588 0.231 7.93 3.18 8.1
6/28/2021 11:00:00 AM 23.9 75.02 0.231 7.97 3.03 8.24
6/28/2021 11:15:00 AM 24.07 75.326 0.231 8.01 2.9 8.37
6/28/2021 11:30:00 AM 24.25 75.65 0.231 8.03 3.01 8.49
6/28/2021 11:45:00 AM 24.43 75.974 0.23 8.07 2.93 8.58
6/28/2021 12:00:00 PM 24.77 76.586 0.23 8.1 2.93 8.61
6/28/2021 12:15:00 PM 25.23 77.414 0.23 8.19 2.7 8.72
6/28/2021 12:30:00 PM 25.46 77.828 0.23 8.22 2.85 8.78
6/28/2021 12:45:00 PM 25.81 78.458 0.23 8.27 2.79 8.83
6/28/2021 1:00:00 PM 26.14 79.052 0.23 8.35 2.8 8.88
6/28/2021 1:15:00 PM 26.41 79.538 0.23 8.39 2.81 8.88
6/28/2021 1:30:00 PM 26.66 79.988 0.229 8.44 2.64 8.91
6/28/2021 1:45:00 PM 26.89 80.402 0.229 8.5 2.77 8.89
6/28/2021 2:00:00 PM 27.21 80.978 0.229 8.54 2.74 8.91
6/28/2021 2:15:00 PM 27.35 81.23 0.229 8.58 2.61 8.9
6/28/2021 2:30:00 PM 27.47 81.446 0.229 8.61 2.63 8.84
6/28/2021 2:45:00 PM 27.72 81.896 0.228 8.64 2.63 8.81
6/28/2021 3:00:00 PM 27.89 82.202 0.228 8.71 2.68 8.77
6/28/2021 3:15:00 PM 28.01 82.418 0.228 8.71 2.59 8.73
6/28/2021 3:30:00 PM 28.16 82.688 0.228 8.75 2.65 8.57
6/28/2021 3:45:00 PM 28.28 82.904 0.228 8.76 2.57 8.67
6/28/2021 4:00:00 PM 28.35 83.03 0.228 8.79 2.44 8.56
6/28/2021 4:15:00 PM 28.38 83.084 0.228 8.81 2.59 8.54
6/28/2021 4:30:00 PM 28.34 83.012 0.228 8.82 2.7 8.44
6/28/2021 4:45:00 PM 28.21 82.778 0.228 8.79 2.75 8.34
6/28/2021 5:00:00 PM 28.01 82.418 0.227 8.71 2.98 8.21
6/28/2021 5:15:00 PM 27.84 82.112 0.227 8.62 3.24 8.09
6/28/2021 5:30:00 PM 27.68 81.824 0.227 8.55 2.98 8.01
6/28/2021 5:45:00 PM 27.58 81.644 0.226 8.51 3.4 7.97
6/28/2021 6:00:00 PM 27.5 81.5 0.226 8.51 3.33 7.93
6/28/2021 6:15:00 PM 27.42 81.356 0.226 8.52 3.29 7.93
6/28/2021 6:30:00 PM 27.36 81.248 0.226 8.5 3.08 7.82
6/28/2021 6:45:00 PM 27.3 81.14 0.226 8.5 2.89 7.84
6/28/2021 7:00:00 PM 27.24 81.032 0.227 8.48 3.1 7.72
6/28/2021 7:15:00 PM 27.14 80.852 0.227 8.44 2.98 7.62
6/28/2021 7:30:00 PM 27.08 80.744 0.227 8.4 3 7.51
6/28/2021 7:45:00 PM 26.97 80.546 0.227 8.35 2.83 7.48
6/28/2021 8:00:00 PM 26.86 80.348 0.228 8.28 3.17 7.33
6/28/2021 8:15:00 PM 26.75 80.15 0.228 8.22 2.82 7.27
6/28/2021 8:30:00 PM 26.61 79.898 0.228 8.18 3.2 7.21
6/28/2021 8:45:00 PM 26.49 79.682 0.228 8.12 2.98 7.11
6/28/2021 9:00:00 PM 26.33 79.394 0.228 8.09 3.04 6.99
6/28/2021 9:15:00 PM 26.18 79.124 0.229 8.02 3.08 6.89
6/28/2021 9:30:00 PM 26.04 78.872 0.229 7.99 3.28 6.78
6/28/2021 9:45:00 PM 25.89 78.602 0.229 7.96 3.05 6.67
6/28/2021 10:00:00 PM 25.74 78.332 0.229 7.92 2.99 6.57
6/28/2021 10:15:00 PM 25.6 78.08 0.229 7.89 3.24 6.5
6/28/2021 10:30:00 PM 25.48 77.864 0.23 7.85 3.27 6.4
6/28/2021 10:45:00 PM 25.36 77.648 0.23 7.85 3.13 6.31
6/28/2021 11:00:00 PM 25.26 77.468 0.23 7.83 3.11 6.24
6/28/2021 11:15:00 PM 25.13 77.234 0.23 7.8 3.24 6.17
6/28/2021 11:30:00 PM 25.01 77.018 0.231 7.78 3.23 6.11
6/28/2021 11:45:00 PM 24.89 76.802 0.231 7.76 3.41 6.04
6/29/2021 12:00:00 AM 24.78 76.604 0.231 7.74 3.29 5.98
6/29/2021 12:15:00 AM 24.69 76.442 0.232 7.72 3.32 5.91
6/29/2021 12:30:00 AM 24.57 76.226 0.232 7.71 3.22 5.87
6/29/2021 12:45:00 AM 24.47 76.046 0.232 7.68 3.31 5.82
6/29/2021 1:00:00 AM 24.37 75.866 0.232 7.68 3.33 5.79
6/29/2021 1:15:00 AM 24.26 75.668 0.233 7.67 3.55 5.75
6/29/2021 1:30:00 AM 24.17 75.506 0.233 7.66 3.5 5.74
6/29/2021 1:45:00 AM 24.08 75.344 0.233 7.63 3.17 5.7
6/29/2021 2:00:00 AM 23.98 75.164 0.233 7.63 3.57 5.71
6/29/2021 2:15:00 AM 23.9 75.02 0.234 7.63 3.57 5.66
6/29/2021 2:30:00 AM 23.81 74.858 0.234 7.62 3.85 5.63
6/29/2021 2:45:00 AM 23.72 74.696 0.234 7.6 3.54 5.65
6/29/2021 3:00:00 AM 23.65 74.57 0.234 7.6 3.56 5.63
6/29/2021 3:15:00 AM 23.57 74.426 0.234 7.6 3.46 5.63
6/29/2021 3:30:00 AM 23.5 74.3 0.234 7.59 4.12 5.66
6/29/2021 3:45:00 AM 23.44 74.192 0.234 7.58 3.77 5.62
6/29/2021 4:00:00 AM 23.36 74.048 0.234 7.57 3.72 5.66
6/29/2021 4:15:00 AM 23.28 73.904 0.234 7.58 3.94 5.68
6/29/2021 4:30:00 AM 23.23 73.814 0.234 7.57 3.59 5.64
6/29/2021 4:45:00 AM 23.17 73.706 0.234 7.57 4.07 5.65
6/29/2021 5:00:00 AM 23.1 73.58 0.234 7.56 4.27 5.67
6/29/2021 5:15:00 AM 23.03 73.454 0.234 7.56 4.01 5.67
6/29/2021 5:30:00 AM 22.96 73.328 0.234 7.56 4.1 5.72
6/29/2021 5:45:00 AM 22.9 73.22 0.234 7.55 3.6 5.71
6/29/2021 6:00:00 AM 22.86 73.148 0.234 7.55 3.62 5.71
6/29/2021 6:15:00 AM 22.81 73.058 0.234 7.55 3.44 5.76
6/29/2021 6:30:00 AM 22.74 72.932 0.234 7.55 3.78 5.84
6/29/2021 6:45:00 AM 22.71 72.878 0.234 7.55 3.55 5.81
6/29/2021 7:00:00 AM 22.68 72.824 0.234 7.54 3.27 5.81
6/29/2021 7:15:00 AM 22.66 72.788 0.233 7.57 3.29 5.98
6/29/2021 7:30:00 AM 22.64 72.752 0.233 7.57 2.97 6.06
6/29/2021 7:45:00 AM 22.63 72.734 0.233 7.58 3.1 6.16
6/29/2021 8:00:00 AM 22.65 72.77 0.233 7.59 3.1 6.35
6/29/2021 8:15:00 AM 22.67 72.806 0.233 7.62 3.1 6.52
6/29/2021 8:30:00 AM 22.75 72.95 0.233 7.65 3.05 6.74
6/29/2021 8:45:00 AM 22.85 73.13 0.233 7.69 2.98 6.9
6/29/2021 9:00:00 AM 22.99 73.382 0.233 7.73 3.07 7.02
6/29/2021 9:15:00 AM 23.17 73.706 0.233 7.78 3.15 7.24
6/29/2021 9:30:00 AM 23.38 74.084 0.233 7.82 3.01 7.37
6/29/2021 9:45:00 AM 23.55 74.39 0.233 7.85 2.85 7.51
6/29/2021 10:00:00 AM 23.77 74.786 0.233 7.87 3.1 7.65
6/29/2021 10:15:00 AM 23.99 75.182 0.233 7.91 2.9 7.77
6/29/2021 10:30:00 AM 24.19 75.542 0.233 7.94 3.04 7.9
6/29/2021 10:45:00 AM 24.42 75.956 0.233 7.99 2.98 8.08
6/29/2021 11:00:00 AM 24.83 76.694 0.233 8.01 3.22 8.17
6/29/2021 11:15:00 AM 24.92 76.856 0.232 8.07 2.95 8.31
6/29/2021 11:30:00 AM 25.1 77.18 0.232 8.07 2.9 8.39
6/29/2021 11:45:00 AM 25.41 77.738 0.232 8.12 3.05 8.51
6/29/2021 12:00:00 PM 25.79 78.422 0.232 8.19 2.96 8.56
6/29/2021 12:15:00 PM 26.03 78.854 0.232 8.23 2.87 8.63
6/29/2021 12:30:00 PM 26.32 79.376 0.232 8.28 3.14 8.69
6/29/2021 12:45:00 PM 26.57 79.826 0.231 8.32 2.76 8.72
6/29/2021 1:00:00 PM 26.75 80.15 0.231 8.35 2.88 8.75
6/29/2021 1:15:00 PM 26.97 80.546 0.231 8.38 2.8 8.75
6/29/2021 1:30:00 PM 27.36 81.248 0.231 8.45 3.17 8.77
6/29/2021 1:45:00 PM 27.72 81.896 0.231 8.5 2.91 8.79
6/29/2021 2:00:00 PM 27.89 82.202 0.231 8.53 2.85 8.75
6/29/2021 2:15:00 PM 28.27 82.886 0.231 8.62 2.8 8.74
6/29/2021 2:30:00 PM 28.54 83.372 0.23 8.66 2.76 8.69
6/29/2021 2:45:00 PM 28.69 83.642 0.23 8.69 2.7 8.65
6/29/2021 3:00:00 PM 28.93 84.074 0.23 8.73 2.73 8.59
6/29/2021 3:15:00 PM 28.98 84.164 0.23 8.72 2.61 8.49
6/29/2021 3:30:00 PM 29.07 84.326 0.23 8.73 2.79 8.41
6/29/2021 3:45:00 PM 29.16 84.488 0.23 8.76 2.52 8.38
6/29/2021 4:00:00 PM 29.12 84.416 0.23 8.77 2.56 8.32
6/29/2021 4:15:00 PM 29.09 84.362 0.23 8.76 2.48 8.26
6/29/2021 4:30:00 PM 29.09 84.362 0.23 8.74 2.56 8.17
6/29/2021 4:45:00 PM 29.09 84.362 0.23 8.74 2.74 8.08
6/29/2021 5:00:00 PM 29.06 84.308 0.23 8.7 2.65 8.01
6/29/2021 5:15:00 PM 28.98 84.164 0.23 8.67 2.64 7.92
6/29/2021 5:30:00 PM 28.91 84.038 0.23 8.63 2.93 7.85
6/29/2021 5:45:00 PM 28.83 83.894 0.23 8.6 2.64 7.76
6/29/2021 6:00:00 PM 28.72 83.696 0.23 8.55 2.8 7.73
6/29/2021 6:15:00 PM 28.59 83.462 0.231 8.5 2.87 7.62
6/29/2021 6:30:00 PM 28.47 83.24599 0.231 8.45 2.82 7.55
6/29/2021 6:45:00 PM 28.36 83.048 0.231 8.42 3.03 7.5
6/29/2021 7:00:00 PM 28.26 82.868 0.231 8.39 2.76 7.39
6/29/2021 7:15:00 PM 28.15 82.67 0.231 8.36 3.09 7.3
6/29/2021 7:30:00 PM 28.02 82.436 0.231 8.33 2.85 7.22
6/29/2021 7:45:00 PM 27.82 82.076 0.231 8.26 3.06 7.06
6/29/2021 8:00:00 PM 27.64 81.752 0.232 8.2 3.3 6.96
6/29/2021 8:15:00 PM 27.45 81.41 0.232 8.16 3.01 6.84
6/29/2021 8:30:00 PM 27.31 81.158 0.232 8.11 3.45 6.75
6/29/2021 8:45:00 PM 27.17 80.906 0.232 8.09 3.25 6.67
6/29/2021 9:00:00 PM 27.04 80.672 0.231 8.06 3.42 6.59
6/29/2021 9:15:00 PM 26.91 80.438 0.231 8.02 3.25 6.49
6/29/2021 9:30:00 PM 26.8 80.24 0.231 8 3.41 6.4
6/29/2021 9:45:00 PM 26.69 80.042 0.231 7.97 3.29 6.32
6/29/2021 10:00:00 PM 26.54 79.772 0.232 7.94 3.47 6.22
6/29/2021 10:15:00 PM 26.41 79.538 0.232 7.9 3.45 6.11
6/29/2021 10:30:00 PM 26.29 79.32201 0.232 7.88 3.46 6.06
6/29/2021 10:45:00 PM 26.19 79.142 0.233 7.84 3.57 5.98
6/29/2021 11:00:00 PM 26.06 78.908 0.233 7.83 3.63 5.9
6/29/2021 11:15:00 PM 25.94 78.692 0.233 7.81 3.56 5.84
6/29/2021 11:30:00 PM 25.81 78.458 0.233 7.79 3.68 5.8
6/29/2021 11:45:00 PM 25.69 78.242 0.233 7.77 3.66 5.72
6/30/2021 12:00:00 AM 25.58 78.044 0.233 7.75 3.31 5.67
6/30/2021 12:15:00 AM 25.48 77.864 0.233 7.73 3.59 5.61
6/30/2021 12:30:00 AM 25.36 77.648 0.233 7.71 3.38 5.56
6/30/2021 12:45:00 AM 25.26 77.468 0.233 7.7 3.61 5.52
6/30/2021 1:00:00 AM 25.18 77.324 0.233 7.69 3.69 5.48
6/30/2021 1:15:00 AM 25.08 77.144 0.233 7.68 3.36 5.49
6/30/2021 1:30:00 AM 24.98 76.964 0.233 7.67 3.61 5.45
6/30/2021 1:45:00 AM 24.88 76.784 0.233 7.66 3.91 5.43
6/30/2021 2:00:00 AM 24.79 76.622 0.233 7.64 3.77 5.41
6/30/2021 2:15:00 AM 24.71 76.478 0.233 7.63 3.6 5.41
6/30/2021 2:30:00 AM 24.63 76.334 0.233 7.63 3.7 5.39
6/30/2021 2:45:00 AM 24.56 76.208 0.233 7.61 5.32 5.37
6/30/2021 3:00:00 AM 24.47 76.046 0.234 7.61 4.1 5.36
6/30/2021 3:15:00 AM 24.38 75.884 0.234 7.6 3.68 5.34
6/30/2021 3:30:00 AM 24.28 75.704 0.235 7.6 4.02 5.34
6/30/2021 3:45:00 AM 24.19 75.542 0.235 7.58 3.74 5.33
6/30/2021 4:00:00 AM 24.1 75.38 0.235 7.57 3.9 5.38
6/30/2021 4:15:00 AM 24.02 75.236 0.235 7.57 3.42 5.36
6/30/2021 4:30:00 AM 23.96 75.128 0.235 7.56 4.14 5.34
6/30/2021 4:45:00 AM 23.86 74.948 0.234 7.56 3.93 5.39
6/30/2021 5:00:00 AM 23.79 74.82201 0.234 7.56 3.86 5.36
6/30/2021 5:15:00 AM 23.73 74.714 0.234 7.52 4.17 5.33
6/30/2021 5:30:00 AM 23.67 74.606 0.234 7.54 4.08 5.34
6/30/2021 5:45:00 AM 23.62 74.516 0.234 7.54 3.71 5.34
6/30/2021 6:00:00 AM 23.55 74.39 0.234 7.54 3.85 5.36
6/30/2021 6:15:00 AM 23.49 74.282 0.234 7.54 3.82 5.38
6/30/2021 6:30:00 AM 23.43 74.174 0.234 7.53 3.61 5.41
6/30/2021 6:45:00 AM 23.38 74.084 0.233 7.53 3.61 5.48
6/30/2021 7:00:00 AM 23.34 74.012 0.234 7.54 3.49 5.53
6/30/2021 7:15:00 AM 23.29 73.922 0.233 7.53 3.39 5.68
6/30/2021 7:30:00 AM 23.27 73.886 0.234 7.56 3.2 5.78
6/30/2021 7:45:00 AM 23.25 73.85 0.234 7.56 3.19 5.86
6/30/2021 8:00:00 AM 23.23 73.814 0.234 7.58 3.38 5.97
6/30/2021 8:15:00 AM 23.27 73.886 0.233 7.6 3.3 6.18
6/30/2021 8:30:00 AM 23.37 74.066 0.233 7.65 3.25 6.41
6/30/2021 8:45:00 AM 23.47 74.246 0.233 7.67 3.44 6.53
6/30/2021 9:00:00 AM 23.64 74.552 0.233 7.75 3.56 6.73
6/30/2021 9:15:00 AM 23.77 74.786 0.233 7.77 3.23 6.91
6/30/2021 9:30:00 AM 23.83 74.894 0.233 7.77 3.12 7.07
6/30/2021 9:45:00 AM 23.87 74.966 0.233 7.78 3.48 7.19
6/30/2021 10:00:00 AM 23.88 74.984 0.233 7.78 4.06 7.18
6/30/2021 10:15:00 AM 23.87 74.966 0.233 7.78 4.19 7.33
6/30/2021 10:30:00 AM 23.91 75.038 0.233 7.79 3.32 7.41
6/30/2021 10:45:00 AM 24.04 75.272 0.233 7.84 3.28 7.64
6/30/2021 11:00:00 AM 24.21 75.578 0.232 7.9 3.3 7.82
6/30/2021 11:15:00 AM 24.44 75.992 0.232 7.95 3.05 8
6/30/2021 11:30:00 AM 24.74 76.532 0.232 8 3.39 8.19
6/30/2021 11:45:00 AM 25.1 77.18 0.232 8.07 3.07 8.35
6/30/2021 12:00:00 PM 25.5 77.9 0.232 8.13 3.01 8.5
6/30/2021 12:15:00 PM 25.86 78.548 0.232 8.2 3.06 8.62
6/30/2021 12:30:00 PM 26.14 79.052 0.232 8.26 2.98 8.75
6/30/2021 12:45:00 PM 26.38 79.484 0.231 8.31 3.04 8.83
6/30/2021 1:00:00 PM 26.65 79.97 0.231 8.37 2.97 8.87
6/30/2021 1:15:00 PM 26.88 80.384 0.231 8.41 3.09 8.91
6/30/2021 1:30:00 PM 27.11 80.798 0.231 8.47 3 8.94
6/30/2021 1:45:00 PM 27.5 81.5 0.231 8.58 3.16 8.93
6/30/2021 2:00:00 PM 27.84 82.112 0.23 8.67 2.85 8.96
6/30/2021 2:15:00 PM 28.08 82.544 0.23 8.7 2.82 8.91
6/30/2021 2:30:00 PM 28.3 82.94 0.23 8.75 2.75 8.86
6/30/2021 2:45:00 PM 28.56 83.408 0.23 8.83 2.74 8.83
6/30/2021 3:00:00 PM 28.76 83.768 0.23 8.81 2.83 8.77
6/30/2021 3:15:00 PM 28.95 84.11 0.23 8.86 2.85 8.7
6/30/2021 3:30:00 PM 29.1 84.38 0.23 8.86 2.71 8.65
6/30/2021 3:45:00 PM 29.19 84.542 0.23 8.89 2.6 8.62
6/30/2021 4:00:00 PM 29.24 84.632 0.23 8.92 2.79 8.56
6/30/2021 4:15:00 PM 29.25 84.65 0.23 8.95 2.7 8.44
6/30/2021 4:30:00 PM 29.17 84.506 0.23 9.01 2.89 8.41
6/30/2021 4:45:00 PM 29.07 84.326 0.23 9.04 3.12 8.34
6/30/2021 5:00:00 PM 28.91 84.038 0.23 9.02 2.97 8.28
6/30/2021 5:15:00 PM 28.76 83.768 0.23 9 3.23 8.18
6/30/2021 5:30:00 PM 28.63 83.534 0.231 8.94 3.02 8.12
6/30/2021 5:45:00 PM 28.48 83.264 0.231 8.86 3.24 8
6/30/2021 6:00:00 PM 28.29 82.922 0.231 8.76 3.29 7.87
6/30/2021 6:15:00 PM 28.12 82.616 0.232 8.65 3.35 7.75
6/30/2021 6:30:00 PM 27.93 82.274 0.233 8.54 3 7.67
6/30/2021 6:45:00 PM 27.76 81.968 0.233 8.45 3.13 7.52
6/30/2021 7:00:00 PM 27.6 81.68 0.233 8.37 3.12 7.37
6/30/2021 7:15:00 PM 27.42 81.356 0.234 8.28 3.02 7.24
6/30/2021 7:30:00 PM 27.24 81.032 0.234 8.21 2.84 7.12
6/30/2021 7:45:00 PM 27.06 80.708 0.234 8.15 2.85 7.01
6/30/2021 8:00:00 PM 26.88 80.384 0.234 8.09 2.9 6.92
6/30/2021 8:15:00 PM 26.72 80.096 0.235 8.03 3.05 6.83
6/30/2021 8:30:00 PM 26.51 79.718 0.235 8 3.09 6.74
6/30/2021 8:45:00 PM 26.35 79.43 0.235 7.96 3.04 6.64
6/30/2021 9:00:00 PM 26.2 79.16 0.235 7.94 3.46 6.53
6/30/2021 9:15:00 PM 26.01 78.818 0.236 7.9 3.11 6.49
6/30/2021 9:30:00 PM 25.87 78.566 0.236 7.88 3.03 6.45
6/30/2021 9:45:00 PM 25.71 78.278 0.236 7.86 3.26 6.42
6/30/2021 10:00:00 PM 25.58 78.044 0.236 7.85 3.18 6.37
6/30/2021 10:15:00 PM 25.44 77.792 0.236 7.83 3.21 6.37
6/30/2021 10:30:00 PM 25.32 77.576 0.236 7.81 3.2 6.34
6/30/2021 10:45:00 PM 25.18 77.324 0.236 7.81 4.02 6.32
6/30/2021 11:00:00 PM 25.06 77.108 0.236 7.79 3.62 6.32
6/30/2021 11:15:00 PM 24.96 76.92799 0.236 7.79 3.34 6.31
6/30/2021 11:30:00 PM 24.87 76.766 0.236 7.78 3.65 6.27
6/30/2021 11:45:00 PM 24.75 76.55 0.236 7.76 3.77 6.29
7/1/2021 12:00:00 AM 24.66 76.388 0.236 7.76 3.46 6.3
7/1/2021 12:15:00 AM 24.57 76.226 0.236 7.76 3.89 6.28
7/1/2021 12:30:00 AM 24.47 76.046 0.236 7.75 3.38 6.3
7/1/2021 12:45:00 AM 24.4 75.92 0.236 7.74 3.62 6.28
7/1/2021 1:00:00 AM 24.31 75.758 0.236 7.74 3.73 6.3
7/1/2021 1:15:00 AM 24.24 75.632 0.236 7.74 3.62 6.27
7/1/2021 1:30:00 AM 24.17 75.506 0.236 7.71 3.73 6.28
7/1/2021 1:45:00 AM 24.1 75.38 0.236 7.73 3.72 6.29
7/1/2021 2:00:00 AM 24.04 75.272 0.236 7.72 3.57 6.31
7/1/2021 2:15:00 AM 23.97 75.146 0.236 7.72 3.57 6.32
7/1/2021 2:30:00 AM 23.92 75.056 0.236 7.72 3.46 6.33
7/1/2021 2:45:00 AM 23.86 74.948 0.236 7.72 3.73 6.33
7/1/2021 3:00:00 AM 23.8 74.84 0.236 7.69 3.92 6.34
7/1/2021 3:15:00 AM 23.75 74.75 0.235 7.72 3.5 6.36
7/1/2021 3:30:00 AM 23.69 74.642 0.235 7.72 3.67 6.37
7/1/2021 3:45:00 AM 23.64 74.552 0.235 7.71 4.33 6.38
7/1/2021 4:00:00 AM 23.59 74.462 0.234 7.71 3.52 6.38
7/1/2021 4:15:00 AM 23.55 74.39 0.235 7.71 3.23 6.39
7/1/2021 4:30:00 AM 23.5 74.3 0.234 7.71 3.81 6.39
7/1/2021 4:45:00 AM 23.45 74.21 0.234 7.71 3.82 6.39
7/1/2021 5:00:00 AM 23.4 74.12 0.234 7.71 3.65 6.42
7/1/2021 5:15:00 AM 23.34 74.012 0.233 7.7 3.95 6.43
7/1/2021 5:30:00 AM 23.29 73.922 0.233 7.69 3.39 6.43
7/1/2021 5:45:00 AM 23.24 73.832 0.233 7.69 3.89 6.42
7/1/2021 6:00:00 AM 23.19 73.742 0.232 7.68 3.71 6.42
7/1/2021 6:15:00 AM 23.15 73.67 0.232 7.69 3.83 6.44
7/1/2021 6:30:00 AM 23.1 73.58 0.232 7.69 3.26 6.44
7/1/2021 6:45:00 AM 23.06 73.508 0.232 7.68 3.24 6.45
7/1/2021 7:00:00 AM 23.02 73.436 0.232 7.68 3.26 6.47
7/1/2021 7:15:00 AM 22.97 73.346 0.232 7.68 3.12 6.51
7/1/2021 7:30:00 AM 22.95 73.31 0.231 7.69 3.31 6.56
7/1/2021 7:45:00 AM 22.92 73.256 0.231 7.7 3.07 6.63
7/1/2021 8:00:00 AM 22.9 73.22 0.231 7.7 3.32 6.68
7/1/2021 8:15:00 AM 22.89 73.202 0.231 7.71 3.56 6.78
7/1/2021 8:30:00 AM 22.89 73.202 0.231 7.72 3.22 6.88
7/1/2021 8:45:00 AM 22.89 73.202 0.231 7.74 3.3 6.99
7/1/2021 9:00:00 AM 22.9 73.22 0.231 7.76 3.21 7.12
7/1/2021 9:15:00 AM 22.92 73.256 0.231 7.79 3.28 7.24
7/1/2021 9:30:00 AM 22.93 73.274 0.231 7.79 3.18 7.32
7/1/2021 9:45:00 AM 22.96 73.328 0.23 7.83 3.16 7.49
7/1/2021 10:00:00 AM 22.98 73.364 0.23 7.84 3.22 7.59
7/1/2021 10:15:00 AM 23.02 73.436 0.23 7.85 3.15 7.75
7/1/2021 10:30:00 AM 23.09 73.562 0.23 7.92 2.94 7.89
7/1/2021 10:45:00 AM 23.14 73.652 0.23 7.94 2.99 8.03
7/1/2021 11:00:00 AM 23.19 73.742 0.23 7.98 3.16 8.14
7/1/2021 11:15:00 AM 23.23 73.814 0.23 8 3.02 8.23
7/1/2021 11:30:00 AM 23.26 73.868 0.23 8.02 3.12 8.33
7/1/2021 11:45:00 AM 23.31 73.958 0.23 8.05 3.19 8.39
7/1/2021 12:00:00 PM 23.37 74.066 0.23 8.08 3.19 8.47
7/1/2021 12:15:00 PM 23.46 74.228 0.229 8.13 3.29 8.61
7/1/2021 12:30:00 PM 23.51 74.318 0.229 8.17 3.31 8.69
7/1/2021 12:45:00 PM 23.53 74.354 0.229 8.2 3.4 8.72
7/1/2021 1:00:00 PM 23.52 74.336 0.228 8.21 3.38 8.66
7/1/2021 1:15:00 PM 23.5 74.3 0.227 8.22 2.91 8.66
7/1/2021 1:30:00 PM 23.48 74.264 0.226 8.22 2.99 8.64
7/1/2021 1:45:00 PM 23.48 74.264 0.226 8.23 3.16 8.62
7/1/2021 2:00:00 PM 23.5 74.3 0.226 8.24 3.16 8.62
7/1/2021 2:15:00 PM 23.54 74.372 0.226 8.29 3.02 8.68
7/1/2021 2:30:00 PM 23.57 74.426 0.225 8.33 3.04 8.71
7/1/2021 2:45:00 PM 23.6 74.48 0.225 8.34 3.22 8.72
7/1/2021 3:00:00 PM 23.62 74.516 0.225 8.35 3.23 8.76
7/1/2021 3:15:00 PM 23.67 74.606 0.224 8.37 3.09 8.78
7/1/2021 3:30:00 PM 23.7 74.66 0.224 8.39 3.1 8.81
7/1/2021 3:45:00 PM 23.77 74.786 0.224 8.41 3.07 8.86
7/1/2021 4:00:00 PM 23.83 74.894 0.223 8.43 3.22 8.93
7/1/2021 4:15:00 PM 23.88 74.984 0.223 8.46 3.3 9
7/1/2021 4:30:00 PM 23.93 75.074 0.223 8.49 3.19 9.07
7/1/2021 4:45:00 PM 23.99 75.182 0.223 8.54 3.28 9.13
7/1/2021 5:00:00 PM 24.01 75.218 0.223 8.58 3.36 9.14
7/1/2021 5:15:00 PM 23.99 75.182 0.223 8.59 3.14 9.13
7/1/2021 5:30:00 PM 23.88 74.984 0.221 8.57 3.49 9
7/1/2021 5:45:00 PM 23.84 74.912 0.221 8.56 5.58 8.91
7/1/2021 6:00:00 PM 23.75 74.75 0.22 8.54 4.35 8.75
7/1/2021 6:15:00 PM 23.74 74.732 0.22 8.56 3.87 8.69
7/1/2021 6:30:00 PM 23.7 74.66 0.221 8.56 3.26 8.57
7/1/2021 6:45:00 PM 23.62 74.516 0.22 8.51 3.35 8.41
7/1/2021 7:00:00 PM 23.53 74.354 0.219 8.42 3.58 8.26
7/1/2021 7:15:00 PM 23.43 74.174 0.217 8.32 3.29 8.11
7/1/2021 7:30:00 PM 23.33 73.994 0.216 8.2 4.69 7.94
7/1/2021 7:45:00 PM 23.22 73.796 0.215 8.07 5.46 7.78
7/1/2021 8:00:00 PM 23.13 73.634 0.215 7.99 6.06 7.66
7/1/2021 8:15:00 PM 23.07 73.526 0.216 7.95 5.71 7.55
7/1/2021 8:30:00 PM 23.02 73.436 0.217 7.91 4.95 7.46
7/1/2021 8:45:00 PM 22.96 73.328 0.217 7.88 4.85 7.38
7/1/2021 9:00:00 PM 22.91 73.238 0.217 7.85 4.8 7.31
7/1/2021 9:15:00 PM 22.85 73.13 0.217 7.83 4.49 7.24
7/1/2021 9:30:00 PM 22.78 73.004 0.218 7.8 4.41 7.16
7/1/2021 9:45:00 PM 22.71 72.878 0.219 7.78 4.13 7.12
7/1/2021 10:00:00 PM 22.65 72.77 0.22 7.76 3.94 7.05
7/1/2021 10:15:00 PM 22.58 72.644 0.221 7.74 3.84 7
7/1/2021 10:30:00 PM 22.52 72.536 0.222 7.73 3.51 6.96
7/1/2021 10:45:00 PM 22.47 72.446 0.223 7.72 3.54 6.91
7/1/2021 11:00:00 PM 22.41 72.338 0.224 7.71 4.06 6.88
7/1/2021 11:15:00 PM 22.37 72.266 0.224 7.67 3.83 6.87
7/1/2021 11:30:00 PM 22.31 72.158 0.224 7.69 4 6.87
7/1/2021 11:45:00 PM 22.1 71.78 0.218 7.7 4.68 7.11
7/2/2021 12:00:00 AM 21.86 71.348 0.21 7.65 13.12 7.29
7/2/2021 12:15:00 AM 21.74 71.132 0.209 7.65 8.6 7.37
7/2/2021 12:30:00 AM 21.66 70.988 0.208 7.69 9.97 7.42
7/2/2021 12:45:00 AM 21.44 70.592 0.199 7.66 15.33 7.5
7/2/2021 1:00:00 AM 21.19 70.142 0.186 7.59 37.71 7.55
7/2/2021 1:15:00 AM 20.88 69.584 0.179 7.52 62.44 7.57
7/2/2021 1:30:00 AM 20.83 69.494 0.182 7.51 46.38 7.52
7/2/2021 1:45:00 AM 20.89 69.602 0.186 7.57 25.9 7.53
7/2/2021 2:00:00 AM 21.1 69.98 0.202 7.69 20.49 7.59
7/2/2021 2:15:00 AM 21.12 70.016 0.196 7.68 22.74 7.6
7/2/2021 2:30:00 AM 21.14 70.052 0.2 7.66 20.22 7.65
7/2/2021 2:45:00 AM 21.19 70.142 0.207 7.72 14.67 7.69
7/2/2021 3:00:00 AM 21.18 70.124 0.211 7.73 13.95 7.72
7/2/2021 3:15:00 AM 21.11 69.998 0.212 7.72 20.95 7.76
7/2/2021 3:30:00 AM 20.99 69.782 0.207 7.69 29.32 7.78
7/2/2021 3:45:00 AM 20.87 69.566 0.201 7.65 36.61 7.81
7/2/2021 4:00:00 AM 20.76 69.368 0.196 7.64 33.95 7.83
7/2/2021 4:15:00 AM 20.67 69.206 0.193 7.59 35.26 7.85
7/2/2021 4:30:00 AM 20.58 69.044 0.189 7.6 43.14 7.86
7/2/2021 4:45:00 AM 20.47 68.846 0.186 7.58 69.16 7.87
7/2/2021 5:00:00 AM 20.35 68.63 0.185 7.56 52.53 7.89
7/2/2021 5:15:00 AM 20.25 68.45 0.186 7.53 54.71 7.89
7/2/2021 5:30:00 AM 20.16 68.288 0.189 7.55 41.44 7.91
7/2/2021 5:45:00 AM 20.08 68.144 0.191 7.56 65.56 7.93
7/2/2021 6:00:00 AM 20.03 68.054 0.193 7.56 41.31 7.94
7/2/2021 6:15:00 AM 19.98 67.964 0.193 7.55 35.83 7.96
7/2/2021 6:30:00 AM 19.95 67.91 0.193 7.57 32.13 7.98
7/2/2021 6:45:00 AM 19.92 67.856 0.192 7.58 31.7 8.01
7/2/2021 7:00:00 AM 19.89 67.802 0.19 7.59 29.68 8.04
7/2/2021 7:15:00 AM 19.87 67.766 0.19 7.6 29.02 8.08
7/2/2021 7:30:00 AM 19.87 67.766 0.19 7.61 26.54 8.13
7/2/2021 7:45:00 AM 19.87 67.766 0.191 7.64 23.34 8.19
7/2/2021 8:00:00 AM 19.88 67.784 0.193 7.66 21.73 8.24
7/2/2021 8:15:00 AM 19.88 67.784 0.195 7.68 19.62 8.28
7/2/2021 8:30:00 AM 19.89 67.802 0.198 7.7 17.31 8.3
7/2/2021 8:45:00 AM 19.89 67.802 0.2 7.69 16.38 8.31
7/2/2021 9:00:00 AM 19.89 67.802 0.202 7.73 16.89 8.33
7/2/2021 9:15:00 AM 19.9 67.82 0.203 7.74 14.83 8.36
7/2/2021 9:30:00 AM 19.93 67.874 0.204 7.76 15.18 8.41
7/2/2021 9:45:00 AM 19.96 67.92799 0.204 7.76 16.92 8.47
7/2/2021 10:00:00 AM 20.01 68.018 0.205 7.8 16.26 8.54
7/2/2021 10:15:00 AM 20.05 68.09 0.205 7.81 18.96 8.58
7/2/2021 10:30:00 AM 20.09 68.162 0.205 7.84 18.38 8.63
7/2/2021 10:45:00 AM 20.14 68.252 0.205 7.85 20.84 8.66
7/2/2021 11:00:00 AM 20.19 68.342 0.205 7.86 20.56 8.69
7/2/2021 11:15:00 AM 20.25 68.45 0.205 7.88 21.77 8.7
7/2/2021 11:30:00 AM 20.32 68.576 0.205 7.89 20.55 8.73
7/2/2021 11:45:00 AM 20.39 68.702 0.205 7.92 21.94 8.77
7/2/2021 12:00:00 PM 20.46 68.828 0.205 7.94 23.75 8.79
7/2/2021 12:15:00 PM 20.54 68.972 0.205 7.96 22.5 8.82
7/2/2021 12:30:00 PM 20.68 69.224 0.205 7.98 23.81 8.85
7/2/2021 12:45:00 PM 20.98 69.764 0.206 8.05 23.21 8.92
7/2/2021 1:00:00 PM 21.34 70.412 0.206 8.12 23.65 9.01
7/2/2021 1:15:00 PM 21.72 71.096 0.206 8.18 23.02 9.05
7/2/2021 1:30:00 PM 22.05 71.69 0.207 8.22 24.51 9.02
7/2/2021 1:45:00 PM 22.39 72.302 0.207 8.26 24.43 9
7/2/2021 2:00:00 PM 22.64 72.752 0.207 8.29 23.14 8.99
7/2/2021 2:15:00 PM 22.89 73.202 0.208 8.31 25.41 8.98
7/2/2021 2:30:00 PM 23.08 73.544 0.208 8.32 24.65 8.94
7/2/2021 2:45:00 PM 23.14 73.652 0.208 8.31 23.03 8.85
7/2/2021 3:00:00 PM 23.2 73.76 0.209 8.29 22.46 8.81
7/2/2021 3:15:00 PM 23.17 73.706 0.209 8.26 22.1 8.73
7/2/2021 3:30:00 PM 23.13 73.634 0.209 8.22 21.08 8.65
7/2/2021 3:45:00 PM 23.15 73.67 0.209 8.2 18.68 8.62
7/2/2021 4:00:00 PM 23.17 73.706 0.209 8.2 18.88 8.59
7/2/2021 4:15:00 PM 23.03 73.454 0.21 8.16 18.98 8.53
7/2/2021 4:30:00 PM 22.97 73.346 0.21 8.12 16.51 8.44
7/2/2021 4:45:00 PM 22.84 73.112 0.21 8.05 15.26 8.28
7/2/2021 5:00:00 PM 22.7 72.86 0.21 7.99 14.89 8.14
7/2/2021 5:15:00 PM 22.58 72.644 0.21 7.93 13.69 8.01
7/2/2021 5:30:00 PM 22.43 72.374 0.21 7.89 13.19 7.9
7/2/2021 5:45:00 PM 22.25 72.05 0.21 7.83 12.66 7.84
7/2/2021 6:00:00 PM 22.07 71.726 0.209 7.76 11.52 7.8
7/2/2021 6:15:00 PM 21.88 71.384 0.208 7.76 13.81 7.78
7/2/2021 6:30:00 PM 21.7 71.06 0.207 7.74 10.91 7.79
7/2/2021 6:45:00 PM 21.53 70.754 0.206 7.72 10.16 7.78
7/2/2021 7:00:00 PM 21.4 70.52 0.205 7.7 13.55 7.79
7/2/2021 7:15:00 PM 21.28 70.304 0.204 7.7 10.14 7.82
7/2/2021 7:30:00 PM 21.18 70.124 0.203 7.7 10.18 7.83
7/2/2021 7:45:00 PM 21.11 69.998 0.202 7.7 9.73 7.86
7/2/2021 8:00:00 PM 21.06 69.908 0.203 7.7 9.35 7.84
7/2/2021 8:15:00 PM 21.02 69.836 0.203 7.7 9.16 7.83
7/2/2021 8:30:00 PM 20.98 69.764 0.203 7.7 9.8 7.8
7/2/2021 8:45:00 PM 20.93 69.674 0.204 7.69 10.47 7.78
7/2/2021 9:00:00 PM 20.88 69.584 0.204 7.69 9.37 7.76
7/2/2021 9:15:00 PM 20.83 69.494 0.205 7.69 8.92 7.74
7/2/2021 9:30:00 PM 20.79 69.422 0.206 7.68 8.61 7.72
7/2/2021 9:45:00 PM 20.75 69.35 0.207 7.68 8.52 7.71
7/2/2021 10:00:00 PM 20.71 69.278 0.207 7.68 8.19 7.71
7/2/2021 10:15:00 PM 20.68 69.224 0.207 7.67 8.03 7.71
7/2/2021 10:30:00 PM 20.65 69.17 0.207 7.67 7.49 7.71
7/2/2021 10:45:00 PM 20.61 69.098 0.206 7.66 7.26 7.7
7/2/2021 11:00:00 PM 20.58 69.044 0.207 7.66 7.12 7.71
7/2/2021 11:15:00 PM 20.54 68.972 0.207 7.66 7.2 7.71
7/2/2021 11:30:00 PM 20.51 68.918 0.207 7.66 7.16 7.71
7/2/2021 11:45:00 PM 20.47 68.846 0.207 7.65 6.84 7.71
7/3/2021 12:00:00 AM 20.44 68.792 0.208 7.65 7.18 7.72
7/3/2021 12:15:00 AM 20.41 68.738 0.208 7.65 6.92 7.72
7/3/2021 12:30:00 AM 20.38 68.684 0.208 7.65 6.32 7.73
7/3/2021 12:45:00 AM 20.34 68.612 0.208 7.65 6.45 7.71
7/3/2021 1:00:00 AM 20.3 68.54 0.208 7.64 6.44 7.74
7/3/2021 1:15:00 AM 20.27 68.486 0.208 7.64 6.67 7.75
7/3/2021 1:30:00 AM 20.23 68.414 0.208 7.64 6.11 7.75
7/3/2021 1:45:00 AM 20.19 68.342 0.209 7.64 6.23 7.76
7/3/2021 2:00:00 AM 20.15 68.27 0.209 7.64 5.94 7.78
7/3/2021 2:15:00 AM 20.11 68.198 0.209 7.63 6.16 7.77
7/3/2021 2:30:00 AM 20.07 68.126 0.209 7.63 5.92 7.78
7/3/2021 2:45:00 AM 20.02 68.036 0.209 7.6 5.89 7.79
7/3/2021 3:00:00 AM 19.98 67.964 0.209 7.63 6.15 7.79
7/3/2021 3:15:00 AM 19.94 67.892 0.209 7.62 6.1 7.8
7/3/2021 3:30:00 AM 19.9 67.82 0.209 7.62 5.62 7.81
7/3/2021 3:45:00 AM 19.86 67.748 0.209 7.62 5.67 7.82
7/3/2021 4:00:00 AM 19.82 67.676 0.209 7.62 5.53 7.83
7/3/2021 4:15:00 AM 19.78 67.604 0.209 7.62 5.7 7.84
7/3/2021 4:30:00 AM 19.74 67.532 0.209 7.62 5.57 7.85
7/3/2021 4:45:00 AM 19.7 67.46 0.209 7.62 5.7 7.88
7/3/2021 5:00:00 AM 19.65 67.37 0.208 7.63 14.38 7.99
7/3/2021 5:15:00 AM 19.64 67.352 0.208 7.63 12.47 8.01
7/3/2021 5:30:00 AM 19.6 67.28 0.209 7.63 14.27 8.06
7/3/2021 5:45:00 AM 19.54 67.172 0.206 7.65 11.17 8.13
7/3/2021 6:00:00 AM 19.5 67.1 0.202 7.65 10.12 8.15
7/3/2021 6:15:00 AM 19.47 67.046 0.199 7.64 10.34 8.17
7/3/2021 6:30:00 AM 19.46 67.028 0.197 7.67 10.87 8.19
7/3/2021 6:45:00 AM 19.46 67.028 0.196 7.68 9.28 8.21
7/3/2021 7:00:00 AM 19.46 67.028 0.195 7.69 9.3 8.24
7/3/2021 7:15:00 AM 19.45 67.01 0.196 7.7 8.74 8.27
7/3/2021 7:30:00 AM 19.43 66.974 0.196 7.71 8.59 8.32
7/3/2021 7:45:00 AM 19.4 66.92 0.197 7.71 8.89 8.37
7/3/2021 8:00:00 AM 19.37 66.866 0.198 7.72 8.46 8.41
7/3/2021 8:15:00 AM 19.38 66.884 0.198 7.75 8.05 8.47
7/3/2021 8:30:00 AM 19.36 66.848 0.198 7.76 8.65 8.55
7/3/2021 8:45:00 AM 19.34 66.812 0.198 7.75 8.12 8.56
7/3/2021 9:00:00 AM 19.35 66.83 0.197 7.79 8.41 8.62
7/3/2021 9:15:00 AM 19.35 66.83 0.196 7.8 8.04 8.68
7/3/2021 9:30:00 AM 19.35 66.83 0.196 7.81 7.86 8.69
7/3/2021 9:45:00 AM 19.37 66.866 0.195 7.82 8.2 8.73
7/3/2021 10:00:00 AM 19.45 67.01 0.194 7.87 8.29 8.84
7/3/2021 10:15:00 AM 19.5 67.1 0.194 7.9 8.4 8.92
7/3/2021 10:30:00 AM 19.56 67.208 0.193 7.94 8.21 9
7/3/2021 10:45:00 AM 19.64 67.352 0.193 7.96 8 9.06
7/3/2021 11:00:00 AM 19.64 67.352 0.192 7.97 8.58 9.01
7/3/2021 11:15:00 AM 19.58 67.244 0.19 7.93 7.97 8.91
7/3/2021 11:30:00 AM 19.57 67.226 0.189 7.9 8.29 8.85
7/3/2021 11:45:00 AM 19.69 67.442 0.188 7.92 8.39 8.93
7/3/2021 12:00:00 PM 19.8 67.64 0.188 7.98 8.33 9.05
7/3/2021 12:15:00 PM 20 68 0.188 8.07 8.3 9.17
7/3/2021 12:30:00 PM 20.17 68.306 0.188 8.12 8.27 9.28
7/3/2021 12:45:00 PM 20.13 68.234 0.188 8.09 8.79 9.2
7/3/2021 1:00:00 PM 20.16 68.288 0.187 8.05 8.28 9.13
7/3/2021 1:15:00 PM 20.23 68.414 0.187 8.08 8.14 9.14
7/3/2021 1:30:00 PM 20.39 68.702 0.187 8.13 8.02 9.22
7/3/2021 1:45:00 PM 20.58 69.044 0.187 8.18 7.9 9.3
7/3/2021 2:00:00 PM 20.68 69.224 0.187 8.21 7.84 9.34
7/3/2021 2:15:00 PM 20.75 69.35 0.187 8.21 7.6 9.33
7/3/2021 2:30:00 PM 20.74 69.332 0.187 8.2 7.85 9.29
7/3/2021 2:45:00 PM 20.8 69.44 0.187 8.2 7.67 9.25
7/3/2021 3:00:00 PM 20.86 69.548 0.187 8.21 7.88 9.25
7/3/2021 3:15:00 PM 20.89 69.602 0.187 8.21 8.13 9.26
7/3/2021 3:30:00 PM 20.9 69.62 0.187 8.21 9.3 9.26
7/3/2021 3:45:00 PM 20.92 69.656 0.187 8.2 8.17 9.25
7/3/2021 4:00:00 PM 20.96 69.728 0.187 8.21 8.75 9.24
7/3/2021 4:15:00 PM 21.01 69.818 0.187 8.21 9.08 9.22
7/3/2021 4:30:00 PM 21.02 69.836 0.188 8.2 9.14 9.18
7/3/2021 4:45:00 PM 21.01 69.818 0.188 8.18 9.65 9.1
7/3/2021 5:00:00 PM 21 69.8 0.189 8.14 9.8 9
7/3/2021 5:15:00 PM 21 69.8 0.19 8.11 10.03 8.9
7/3/2021 5:30:00 PM 20.99 69.782 0.191 8.06 10.87 8.78
7/3/2021 5:45:00 PM 20.98 69.764 0.192 8.01 11.29 8.68
7/3/2021 6:00:00 PM 20.94 69.692 0.193 7.97 12.71 8.6
7/3/2021 6:15:00 PM 20.94 69.692 0.196 7.94 12.49 8.54
7/3/2021 6:30:00 PM 20.94 69.692 0.2 7.93 12.19 8.51
7/3/2021 6:45:00 PM 20.95 69.71 0.204 7.92 12.46 8.5
7/3/2021 7:00:00 PM 20.9 69.62 0.207 7.91 12.15 8.48
7/3/2021 7:15:00 PM 20.85 69.53 0.208 7.85 12.59 8.41
7/3/2021 7:30:00 PM 20.81 69.458 0.208 7.85 13.26 8.35
7/3/2021 7:45:00 PM 20.75 69.35 0.207 7.82 14.37 8.29
7/3/2021 8:00:00 PM 20.68 69.224 0.206 7.79 14.53 8.25
7/3/2021 8:15:00 PM 20.59 69.062 0.204 7.77 15.22 8.22
7/3/2021 8:30:00 PM 20.49 68.882 0.202 7.73 15.54 8.19
7/3/2021 8:45:00 PM 20.38 68.684 0.199 7.71 17.46 8.17
7/3/2021 9:00:00 PM 20.27 68.486 0.196 7.69 16.71 8.16
7/3/2021 9:15:00 PM 20.17 68.306 0.193 7.67 17.15 8.14
7/3/2021 9:30:00 PM 20.07 68.126 0.191 7.65 17.82 8.14
7/3/2021 9:45:00 PM 19.98 67.964 0.189 7.64 16.98 8.13
7/3/2021 10:00:00 PM 19.89 67.802 0.187 7.63 17.6 8.13
7/3/2021 10:15:00 PM 19.82 67.676 0.186 7.62 17.2 8.13
7/3/2021 10:30:00 PM 19.76 67.568 0.186 7.62 16.74 8.13
7/3/2021 10:45:00 PM 19.7 67.46 0.185 7.62 16.57 8.13
7/3/2021 11:00:00 PM 19.64 67.352 0.185 7.61 15.63 8.14
7/3/2021 11:15:00 PM 19.59 67.262 0.184 7.6 15.63 8.14
7/3/2021 11:30:00 PM 19.53 67.154 0.184 7.6 15.83 8.14
7/3/2021 11:45:00 PM 19.47 67.046 0.184 7.59 14.87 8.13
7/4/2021 12:00:00 AM 19.41 66.938 0.183 7.59 15.37 8.15
7/4/2021 12:15:00 AM 19.36 66.848 0.183 7.59 14.75 8.16
7/4/2021 12:30:00 AM 19.3 66.74 0.182 7.58 14.13 8.16
7/4/2021 12:45:00 AM 19.23 66.614 0.181 7.57 14.49 8.17
7/4/2021 1:00:00 AM 19.17 66.506 0.181 7.56 13.88 8.18
7/4/2021 1:15:00 AM 19.1 66.38 0.18 7.56 14.2 8.19
7/4/2021 1:30:00 AM 19.03 66.254 0.179 7.55 13.66 8.19
7/4/2021 1:45:00 AM 18.97 66.146 0.178 7.55 13.15 8.21
7/4/2021 2:00:00 AM 18.91 66.038 0.178 7.52 13.58 8.21
7/4/2021 2:15:00 AM 18.84 65.912 0.177 7.54 12.63 8.21
7/4/2021 2:30:00 AM 18.77 65.786 0.177 7.53 12.45 8.22
7/4/2021 2:45:00 AM 18.7 65.66 0.176 7.52 12.38 8.25
7/4/2021 3:00:00 AM 18.63 65.534 0.176 7.52 12.41 8.25
7/4/2021 3:15:00 AM 18.56 65.408 0.175 7.52 12.34 8.26
7/4/2021 3:30:00 AM 18.5 65.3 0.175 7.51 11.63 8.27
7/4/2021 3:45:00 AM 18.44 65.192 0.175 7.51 11.3 8.28
7/4/2021 4:00:00 AM 18.38 65.084 0.174 7.51 11.42 8.29
7/4/2021 4:15:00 AM 18.34 65.012 0.174 7.51 10.93 8.3
7/4/2021 4:30:00 AM 18.28 64.904 0.174 7.51 10.97 8.31
7/4/2021 4:45:00 AM 18.23 64.814 0.173 7.5 11.4 8.32
7/4/2021 5:00:00 AM 18.19 64.742 0.173 7.5 11.08 8.32
7/4/2021 5:15:00 AM 18.14 64.652 0.173 7.5 10.51 8.33
7/4/2021 5:30:00 AM 18.08 64.544 0.173 7.5 10.83 8.34
7/4/2021 5:45:00 AM 18.03 64.454 0.173 7.49 10.03 8.35
7/4/2021 6:00:00 AM 17.97 64.346 0.173 7.49 9.72 8.37
7/4/2021 6:15:00 AM 17.92 64.256 0.173 7.49 9.42 8.39
7/4/2021 6:30:00 AM 17.88 64.184 0.173 7.49 9.51 8.44
7/4/2021 6:45:00 AM 17.82 64.076 0.172 7.5 9.57 8.48
7/4/2021 7:00:00 AM 17.8 64.04 0.173 7.51 9.2 8.53
7/4/2021 7:15:00 AM 17.79 64.022 0.173 7.53 8.98 8.61
7/4/2021 7:30:00 AM 17.8 64.04 0.172 7.56 8.65 8.7
7/4/2021 7:45:00 AM 17.82 64.076 0.172 7.59 8.76 8.79
7/4/2021 8:00:00 AM 17.84 64.112 0.173 7.61 8.26 8.86
7/4/2021 8:15:00 AM 17.9 64.22 0.172 7.64 7.97 8.95
7/4/2021 8:30:00 AM 17.95 64.31 0.173 7.66 7.84 8.98
7/4/2021 8:45:00 AM 18 64.4 0.173 7.68 7.62 9
7/4/2021 9:00:00 AM 18.08 64.544 0.173 7.7 7.5 9.01
7/4/2021 9:15:00 AM 18.15 64.67 0.173 7.73 7.21 9.07
7/4/2021 9:30:00 AM 18.19 64.742 0.173 7.74 7.38 9.11
7/4/2021 9:45:00 AM 18.32 64.976 0.173 7.78 7.2 9.19
7/4/2021 10:00:00 AM 18.51 65.318 0.173 7.83 6.86 9.28
7/4/2021 10:15:00 AM 18.75 65.75 0.173 7.9 6.85 9.37
7/4/2021 10:30:00 AM 18.99 66.182 0.173 7.95 6.47 9.41
7/4/2021 10:45:00 AM 19.2 66.56 0.173 7.99 6.46 9.47
7/4/2021 11:00:00 AM 19.47 67.046 0.173 8.04 6.16 9.51
7/4/2021 11:15:00 AM 19.7 67.46 0.173 8.08 6.43 9.53
7/4/2021 11:30:00 AM 19.82 67.676 0.174 8.1 6.25 9.49
7/4/2021 11:45:00 AM 20.04 68.07201 0.174 8.14 6.01 9.52
7/4/2021 12:00:00 PM 20.32 68.576 0.174 8.17 6.24 9.54
7/4/2021 12:15:00 PM 20.61 69.098 0.174 8.22 6.09 9.54
7/4/2021 12:30:00 PM 20.91 69.638 0.174 8.28 5.94 9.56
7/4/2021 12:45:00 PM 21.17 70.106 0.174 8.32 5.91 9.57
7/4/2021 1:00:00 PM 21.46 70.628 0.175 8.36 5.74 9.55
7/4/2021 1:15:00 PM 21.75 71.15 0.175 8.4 5.43 9.53
7/4/2021 1:30:00 PM 21.98 71.564 0.175 8.42 5.41 9.51
7/4/2021 1:45:00 PM 22.23 72.014 0.175 8.45 5.34 9.51
7/4/2021 2:00:00 PM 22.43 72.374 0.175 8.48 5.21 9.49
7/4/2021 2:15:00 PM 22.6 72.68 0.175 8.49 5.44 9.45
7/4/2021 2:30:00 PM 22.61 72.698 0.176 8.46 5.11 9.35
7/4/2021 2:45:00 PM 22.66 72.788 0.176 8.44 5.11 9.29
7/4/2021 3:00:00 PM 22.66 72.788 0.176 8.41 5.17 9.25
7/4/2021 3:15:00 PM 22.58 72.644 0.176 8.35 5.18 9.15
7/4/2021 3:30:00 PM 22.63 72.734 0.176 8.33 4.94 9.11
7/4/2021 3:45:00 PM 22.58 72.644 0.176 8.28 5 9.04
7/4/2021 4:00:00 PM 22.53 72.554 0.176 8.23 4.96 8.98
7/4/2021 4:15:00 PM 22.47 72.446 0.176 8.17 4.95 8.92
7/4/2021 4:30:00 PM 22.38 72.284 0.177 8.13 5.06 8.82
7/4/2021 4:45:00 PM 22.31 72.158 0.177 8.07 5.09 8.75
7/4/2021 5:00:00 PM 22.26 72.068 0.177 8.06 4.83 8.68
7/4/2021 5:15:00 PM 22.2 71.96 0.177 8.03 4.81 8.59
7/4/2021 5:30:00 PM 22.15 71.87 0.177 8 4.9 8.52
7/4/2021 5:45:00 PM 22.11 71.798 0.177 7.97 4.84 8.46
7/4/2021 6:00:00 PM 22.09 71.762 0.177 7.95 4.77 8.39
7/4/2021 6:15:00 PM 22.07 71.726 0.177 7.93 4.7 8.35
7/4/2021 6:30:00 PM 22.06 71.708 0.177 7.91 4.87 8.29
7/4/2021 6:45:00 PM 22.03 71.654 0.177 7.9 4.77 8.23
7/4/2021 7:00:00 PM 22.01 71.618 0.177 7.87 4.69 8.18
7/4/2021 7:15:00 PM 21.98 71.564 0.178 7.84 4.46 8.14
7/4/2021 7:30:00 PM 21.94 71.492 0.177 7.84 4.59 8.09
7/4/2021 7:45:00 PM 21.89 71.402 0.178 7.81 4.63 8.05
7/4/2021 8:00:00 PM 21.84 71.312 0.178 7.79 4.42 8.01
7/4/2021 8:15:00 PM 21.76 71.168 0.178 7.76 4.61 7.97
7/4/2021 8:30:00 PM 21.69 71.042 0.178 7.75 4.51 7.93
7/4/2021 8:45:00 PM 21.61 70.898 0.178 7.72 4.58 7.88
7/4/2021 9:00:00 PM 21.53 70.754 0.178 7.7 4.48 7.83
7/4/2021 9:15:00 PM 21.44 70.592 0.178 7.68 4.57 7.8
7/4/2021 9:30:00 PM 21.36 70.448 0.178 7.66 4.57 7.76
7/4/2021 9:45:00 PM 21.27 70.286 0.179 7.65 4.41 7.74
7/4/2021 10:00:00 PM 21.18 70.124 0.179 7.62 4.62 7.72
7/4/2021 10:15:00 PM 21.09 69.962 0.179 7.59 4.72 7.71
7/4/2021 10:30:00 PM 20.99 69.782 0.179 7.6 4.58 7.71
7/4/2021 10:45:00 PM 20.89 69.602 0.179 7.59 4.4 7.71
7/4/2021 11:00:00 PM 20.79 69.422 0.179 7.59 4.6 7.71
7/4/2021 11:15:00 PM 20.69 69.242 0.179 7.58 4.53 7.74
7/4/2021 11:30:00 PM 20.6 69.08 0.179 7.57 4.72 7.72
7/4/2021 11:45:00 PM 20.5 68.9 0.179 7.57 4.72 7.76
7/5/2021 12:00:00 AM 20.41 68.738 0.179 7.56 4.52 7.77
7/5/2021 12:15:00 AM 20.32 68.576 0.179 7.55 4.62 7.78
7/5/2021 12:30:00 AM 20.22 68.396 0.179 7.54 4.3 7.81
7/5/2021 12:45:00 AM 20.13 68.234 0.179 7.55 4.54 7.81
7/5/2021 1:00:00 AM 20.04 68.07201 0.18 7.54 4.5 7.83
7/5/2021 1:15:00 AM 19.95 67.91 0.18 7.53 4.36 7.83
7/5/2021 1:30:00 AM 19.86 67.748 0.18 7.53 4.42 7.84
7/5/2021 1:45:00 AM 19.77 67.586 0.18 7.53 4.19 7.87
7/5/2021 2:00:00 AM 19.69 67.442 0.18 7.53 4.39 7.88
7/5/2021 2:15:00 AM 19.61 67.298 0.18 7.52 4.2 7.89
7/5/2021 2:30:00 AM 19.54 67.172 0.18 7.52 4.28 7.91
7/5/2021 2:45:00 AM 19.45 67.01 0.18 7.52 4.26 7.92
7/5/2021 3:00:00 AM 19.38 66.884 0.18 7.51 4.3 7.93
7/5/2021 3:15:00 AM 19.3 66.74 0.18 7.51 4.36 7.95
7/5/2021 3:30:00 AM 19.22 66.596 0.18 7.51 4.17 7.96
7/5/2021 3:45:00 AM 19.16 66.488 0.18 7.51 4.32 7.98
7/5/2021 4:00:00 AM 19.08 66.344 0.181 7.51 4.56 7.99
7/5/2021 4:15:00 AM 19.01 66.218 0.181 7.5 4.19 8
7/5/2021 4:30:00 AM 18.94 66.092 0.181 7.5 4.2 8.01
7/5/2021 4:45:00 AM 18.87 65.966 0.181 7.5 4.18 8.03
7/5/2021 5:00:00 AM 18.8 65.84 0.181 7.49 4.28 8.04
7/5/2021 5:15:00 AM 18.73 65.714 0.181 7.49 4.14 8.04
7/5/2021 5:30:00 AM 18.67 65.606 0.181 7.49 4.35 8.06
7/5/2021 5:45:00 AM 18.61 65.498 0.181 7.49 4.11 8.08
7/5/2021 6:00:00 AM 18.56 65.408 0.182 7.5 3.97 8.1
7/5/2021 6:15:00 AM 18.51 65.318 0.182 7.5 3.89 8.15
7/5/2021 6:30:00 AM 18.47 65.246 0.182 7.51 3.94 8.2
7/5/2021 6:45:00 AM 18.43 65.174 0.182 7.52 3.85 8.26
7/5/2021 7:00:00 AM 18.4 65.12 0.182 7.54 4.04 8.38
7/5/2021 7:15:00 AM 18.39 65.102 0.182 7.56 4.09 8.5
7/5/2021 7:30:00 AM 18.38 65.084 0.182 7.6 3.92 8.62
7/5/2021 7:45:00 AM 18.37 65.066 0.182 7.61 3.94 8.69
7/5/2021 8:00:00 AM 18.37 65.066 0.182 7.63 3.79 8.78
7/5/2021 8:15:00 AM 18.39 65.102 0.182 7.67 3.81 8.9
7/5/2021 8:30:00 AM 18.42 65.156 0.182 7.71 3.69 9.02
7/5/2021 8:45:00 AM 18.54 65.372 0.182 7.77 3.8 9.16
7/5/2021 9:00:00 AM 18.64 65.552 0.182 7.82 3.88 9.27
7/5/2021 9:15:00 AM 18.74 65.732 0.182 7.86 3.82 9.35
7/5/2021 9:30:00 AM 18.84 65.912 0.182 7.9 3.84 9.44
7/5/2021 9:45:00 AM 18.98 66.164 0.182 7.95 3.64 9.52
7/5/2021 10:00:00 AM 19.15 66.47 0.182 8 3.6 9.59
7/5/2021 10:15:00 AM 19.34 66.812 0.182 8.05 3.6 9.67
7/5/2021 10:30:00 AM 19.55 67.19 0.182 8.13 3.67 9.75
7/5/2021 10:45:00 AM 19.79 67.622 0.182 8.19 3.74 9.82
7/5/2021 11:00:00 AM 20.04 68.07201 0.182 8.26 3.59 9.88
7/5/2021 11:15:00 AM 20.33 68.594 0.182 8.33 3.57 9.94
7/5/2021 11:30:00 AM 20.66 69.188 0.182 8.41 3.6 10
7/5/2021 11:45:00 AM 21.03 69.854 0.182 8.5 3.46 10.02
7/5/2021 12:00:00 PM 21.4 70.52 0.182 8.58 3.43 10.06
7/5/2021 12:15:00 PM 21.81 71.258 0.182 8.64 3.59 10.07
7/5/2021 12:30:00 PM 22.2 71.96 0.182 8.7 3.39 10.07
7/5/2021 12:45:00 PM 22.56 72.608 0.183 8.77 3.57 10.07
7/5/2021 1:00:00 PM 22.9 73.22 0.183 8.84 3.46 10.06
7/5/2021 1:15:00 PM 23.21 73.778 0.183 8.86 3.43 10.04
7/5/2021 1:30:00 PM 23.5 74.3 0.183 8.9 3.45 10.01
7/5/2021 1:45:00 PM 23.75 74.75 0.183 8.94 3.27 9.98
7/5/2021 2:00:00 PM 23.98 75.164 0.183 8.95 3.27 9.96
7/5/2021 2:15:00 PM 24.2 75.56 0.183 8.97 3.4 9.92
7/5/2021 2:30:00 PM 24.39 75.902 0.183 8.96 3.25 9.87
7/5/2021 2:45:00 PM 24.53 76.154 0.183 8.99 3.2 9.83
7/5/2021 3:00:00 PM 24.62 76.316 0.184 8.97 3.27 9.76
7/5/2021 3:15:00 PM 24.68 76.424 0.184 8.96 3.41 9.7
7/5/2021 3:30:00 PM 24.7 76.46 0.184 8.94 3.29 9.64
7/5/2021 3:45:00 PM 24.68 76.424 0.184 8.9 3.29 9.55
7/5/2021 4:00:00 PM 24.65 76.37 0.184 8.87 3.39 9.5
7/5/2021 4:15:00 PM 24.58 76.244 0.184 8.83 3.45 9.42
7/5/2021 4:30:00 PM 24.51 76.118 0.184 8.77 3.19 9.31
7/5/2021 4:45:00 PM 24.42 75.956 0.184 8.72 3.38 9.26
7/5/2021 5:00:00 PM 24.32 75.776 0.184 8.66 3.23 9.18
7/5/2021 5:15:00 PM 24.25 75.65 0.184 8.6 3.31 9.08
7/5/2021 5:30:00 PM 24.16 75.488 0.185 8.55 3.21 9.01
7/5/2021 5:45:00 PM 24.08 75.344 0.185 8.5 3.23 8.93
7/5/2021 6:00:00 PM 24.01 75.218 0.185 8.44 3.18 8.85
7/5/2021 6:15:00 PM 23.94 75.092 0.185 8.46 3.33 8.76
7/5/2021 6:30:00 PM 23.87 74.966 0.185 8.37 3.74 8.68
7/5/2021 6:45:00 PM 23.8 74.84 0.185 8.34 3.19 8.59
7/5/2021 7:00:00 PM 23.74 74.732 0.186 8.29 3.38 8.5
7/5/2021 7:15:00 PM 23.68 74.624 0.186 8.22 3.81 8.41
7/5/2021 7:30:00 PM 23.6 74.48 0.186 8.13 3.38 8.29
7/5/2021 7:45:00 PM 23.53 74.354 0.186 8.1 3.46 8.19
7/5/2021 8:00:00 PM 23.45 74.21 0.186 8.03 3.37 8.08
7/5/2021 8:15:00 PM 23.37 74.066 0.187 7.98 3.26 7.95
7/5/2021 8:30:00 PM 23.29 73.922 0.187 7.92 3.38 7.83
7/5/2021 8:45:00 PM 23.2 73.76 0.187 7.87 3.52 7.69
7/5/2021 9:00:00 PM 23.12 73.616 0.187 7.81 3.63 7.57
7/5/2021 9:15:00 PM 23.03 73.454 0.187 7.79 3.54 7.48
7/5/2021 9:30:00 PM 22.95 73.31 0.187 7.76 3.44 7.39
7/5/2021 9:45:00 PM 22.87 73.166 0.188 7.73 3.4 7.33
7/5/2021 10:00:00 PM 22.79 73.022 0.188 7.71 3.47 7.26
7/5/2021 10:15:00 PM 22.72 72.896 0.188 7.69 3.42 7.24
7/5/2021 10:30:00 PM 22.65 72.77 0.188 7.68 3.48 7.23
7/5/2021 10:45:00 PM 22.58 72.644 0.188 7.67 3.63 7.22
7/5/2021 11:00:00 PM 22.51 72.518 0.188 7.66 3.36 7.21
7/5/2021 11:15:00 PM 22.45 72.41 0.188 7.65 3.51 7.2
7/5/2021 11:30:00 PM 22.38 72.284 0.188 7.64 3.48 7.2
7/5/2021 11:45:00 PM 22.32 72.176 0.188 7.63 3.43 7.2
7/6/2021 12:00:00 AM 22.27 72.086 0.188 7.62 3.45 7.2
7/6/2021 12:15:00 AM 22.21 71.978 0.188 7.62 3.26 7.2
7/6/2021 12:30:00 AM 22.15 71.87 0.188 7.62 3.49 7.21
7/6/2021 12:45:00 AM 22.1 71.78 0.188 7.61 3.33 7.21
7/6/2021 1:00:00 AM 22.05 71.69 0.189 7.61 3.35 7.22
7/6/2021 1:15:00 AM 22 71.6 0.189 7.61 3.33 7.21
7/6/2021 1:30:00 AM 21.95 71.51 0.189 7.6 3.28 7.23
7/6/2021 1:45:00 AM 21.9 71.42 0.189 7.61 3.23 7.24
7/6/2021 2:00:00 AM 21.85 71.33 0.189 7.6 3.35 7.25
7/6/2021 2:15:00 AM 21.81 71.258 0.189 7.6 3.24 7.25
7/6/2021 2:30:00 AM 21.76 71.168 0.189 7.6 3.33 7.25
7/6/2021 2:45:00 AM 21.72 71.096 0.189 7.59 3.22 7.24
7/6/2021 3:00:00 AM 21.67 71.006 0.189 7.59 3.31 7.26
7/6/2021 3:15:00 AM 21.63 70.934 0.189 7.59 3.3 7.27
7/6/2021 3:30:00 AM 21.58 70.844 0.19 7.58 3.98 7.29
7/6/2021 3:45:00 AM 21.53 70.754 0.19 7.58 3.37 7.29
7/6/2021 4:00:00 AM 21.48 70.664 0.19 7.58 3.45 7.3
7/6/2021 4:15:00 AM 21.43 70.574 0.19 7.57 3.25 7.3
7/6/2021 4:30:00 AM 21.38 70.484 0.19 7.57 3.49 7.32
7/6/2021 4:45:00 AM 21.33 70.394 0.19 7.57 3.45 7.33
7/6/2021 5:00:00 AM 21.29 70.32201 0.19 7.55 3.71 7.33
7/6/2021 5:15:00 AM 21.24 70.232 0.19 7.54 3.65 7.34
7/6/2021 5:30:00 AM 21.19 70.142 0.191 7.54 3.63 7.34
7/6/2021 5:45:00 AM 21.13 70.034 0.191 7.53 3.66 7.35
7/6/2021 6:00:00 AM 21.09 69.962 0.191 7.54 3.49 7.37
7/6/2021 6:15:00 AM 21.05 69.89 0.191 7.53 3.55 7.41
7/6/2021 6:30:00 AM 21.01 69.818 0.191 7.53 3.24 7.46
7/6/2021 6:45:00 AM 20.99 69.782 0.191 7.54 3.44 7.55
7/6/2021 7:00:00 AM 20.98 69.764 0.191 7.56 3.65 7.65
7/6/2021 7:15:00 AM 20.96 69.728 0.191 7.57 3.43 7.71
7/6/2021 7:30:00 AM 20.95 69.71 0.191 7.59 3.36 7.85
7/6/2021 7:45:00 AM 20.96 69.728 0.192 7.62 3.35 7.97
7/6/2021 8:00:00 AM 20.97 69.746 0.192 7.62 3.47 8.07
7/6/2021 8:15:00 AM 21.03 69.854 0.192 7.68 3.28 8.23
7/6/2021 8:30:00 AM 21.06 69.908 0.192 7.71 3.51 8.34
7/6/2021 8:45:00 AM 21.11 69.998 0.192 7.73 3.88 8.42
7/6/2021 9:00:00 AM 21.27 70.286 0.192 7.8 3.6 8.61
7/6/2021 9:15:00 AM 21.39 70.502 0.192 7.85 3.51 8.74
7/6/2021 9:30:00 AM 21.5 70.7 0.192 7.89 3.25 8.87
7/6/2021 9:45:00 AM 21.62 70.916 0.192 7.94 3.35 9
7/6/2021 10:00:00 AM 21.71 71.078 0.192 7.99 3.66 9.13
7/6/2021 10:15:00 AM 21.88 71.384 0.192 8.06 3.38 9.24
7/6/2021 10:30:00 AM 22.13 71.834 0.192 8.19 3.47 9.41
7/6/2021 10:45:00 AM 22.33 72.194 0.192 8.25 3.45 9.52
7/6/2021 11:00:00 AM 22.5 72.5 0.192 8.34 3.66 9.6
7/6/2021 11:15:00 AM 22.73 72.914 0.192 8.42 3.32 9.69
7/6/2021 11:30:00 AM 23.01 73.418 0.192 8.54 3.19 9.76
7/6/2021 11:45:00 AM 23.3 73.94 0.191 8.64 3.25 9.83
7/6/2021 12:00:00 PM 23.57 74.426 0.192 8.71 3.2 9.85
7/6/2021 12:15:00 PM 23.84 74.912 0.192 8.79 3.18 9.89
7/6/2021 12:30:00 PM 24.11 75.398 0.192 8.86 3.35 9.91
7/6/2021 12:45:00 PM 24.39 75.902 0.192 8.93 3.22 9.92
7/6/2021 1:00:00 PM 24.72 76.496 0.192 8.98 3.02 9.92
7/6/2021 1:15:00 PM 25.06 77.108 0.192 9.03 3.15 9.92
7/6/2021 1:30:00 PM 25.34 77.612 0.192 9.08 3.18 9.9
7/6/2021 1:45:00 PM 25.58 78.044 0.192 9.11 2.99 9.87
7/6/2021 2:00:00 PM 25.81 78.458 0.193 9.14 3.23 9.86
7/6/2021 2:15:00 PM 25.97 78.746 0.192 9.16 3.06 9.77
7/6/2021 2:30:00 PM 25.82 78.476 0.191 9.11 3.58 9.45
7/6/2021 2:45:00 PM 25.59 78.062 0.189 8.96 4.62 9.03
7/6/2021 3:00:00 PM 25.5 77.9 0.19 8.87 4.17 8.83
7/6/2021 3:15:00 PM 25.37 77.666 0.19 8.8 3.61 8.66
7/6/2021 3:30:00 PM 25.19 77.342 0.189 8.7 3.68 8.5
7/6/2021 3:45:00 PM 25 77 0.188 8.56 4.06 8.41
7/6/2021 4:00:00 PM 24.85 76.73 0.188 8.44 4.78 8.41
7/6/2021 4:15:00 PM 24.76 76.568 0.188 8.46 4.41 8.56
7/6/2021 4:30:00 PM 24.74 76.532 0.189 8.52 4.43 8.76
7/6/2021 4:45:00 PM 24.7 76.46 0.189 8.59 4.44 8.9
7/6/2021 5:00:00 PM 24.59 76.262 0.189 8.62 3.92 8.97
7/6/2021 5:15:00 PM 24.46 76.028 0.19 8.57 4.37 8.96
7/6/2021 5:30:00 PM 24.35 75.83 0.191 8.51 3.62 8.92
7/6/2021 5:45:00 PM 24.23 75.614 0.19 8.46 3.72 8.74
7/6/2021 6:00:00 PM 24.09 75.362 0.188 8.33 4.62 8.52
7/6/2021 6:15:00 PM 23.98 75.164 0.188 8.23 4.39 8.35
7/6/2021 6:30:00 PM 23.91 75.038 0.187 8.16 5.97 8.22
7/6/2021 6:45:00 PM 23.84 74.912 0.185 8.09 5.74 8.16
7/6/2021 7:00:00 PM 23.76 74.768 0.183 8.03 6.36 8.1
7/6/2021 7:15:00 PM 23.69 74.642 0.182 7.98 9.59 8.04
7/6/2021 7:30:00 PM 23.63 74.534 0.183 7.94 7.75 8
7/6/2021 7:45:00 PM 23.57 74.426 0.184 7.93 8.08 7.97
7/6/2021 8:00:00 PM 23.49 74.282 0.184 7.88 9.42 7.86
7/6/2021 8:15:00 PM 23.39 74.102 0.185 7.83 8.43 7.73
7/6/2021 8:30:00 PM 23.3 73.94 0.187 7.8 6.27 7.6
7/6/2021 8:45:00 PM 23.24 73.832 0.189 7.77 5.27 7.52
7/6/2021 9:00:00 PM 23.19 73.742 0.19 7.75 5.08 7.42
7/6/2021 9:15:00 PM 23.14 73.652 0.19 7.73 5.24 7.33
7/6/2021 9:30:00 PM 23.08 73.544 0.191 7.71 5.09 7.25
7/6/2021 9:45:00 PM 23.02 73.436 0.191 7.69 4.81 7.19
7/6/2021 10:00:00 PM 22.96 73.328 0.191 7.66 4.96 7.14
7/6/2021 10:15:00 PM 22.89 73.202 0.191 7.65 5.49 7.1
7/6/2021 10:30:00 PM 22.82 73.076 0.192 7.62 4.77 7.09
7/6/2021 10:45:00 PM 22.75 72.95 0.192 7.62 4.49 7.08
7/6/2021 11:00:00 PM 22.68 72.824 0.192 7.6 4.45 7.05
7/6/2021 11:15:00 PM 22.61 72.698 0.193 7.6 4.43 7.06
7/6/2021 11:30:00 PM 22.55 72.59 0.193 7.59 4.16 7.04
7/6/2021 11:45:00 PM 22.49 72.482 0.193 7.58 4.16 7.05
7/7/2021 12:00:00 AM 22.44 72.392 0.194 7.58 4.11 7.06
7/7/2021 12:15:00 AM 22.38 72.284 0.194 7.58 4.03 7.05
7/7/2021 12:30:00 AM 22.33 72.194 0.194 7.58 3.84 7.06
7/7/2021 12:45:00 AM 22.28 72.104 0.194 7.58 3.82 7.05
7/7/2021 1:00:00 AM 22.24 72.032 0.194 7.58 3.66 7.05
7/7/2021 1:15:00 AM 22.19 71.942 0.194 7.58 3.72 7.06
7/7/2021 1:30:00 AM 22.15 71.87 0.195 7.56 3.61 7.07
7/7/2021 1:45:00 AM 22.11 71.798 0.195 7.56 3.67 7.06
7/7/2021 2:00:00 AM 22.07 71.726 0.195 7.56 3.47 7.08
7/7/2021 2:15:00 AM 22.03 71.654 0.196 7.56 3.69 7.09
7/7/2021 2:30:00 AM 21.98 71.564 0.196 7.54 3.72 7.1
7/7/2021 2:45:00 AM 21.93 71.474 0.196 7.55 3.6 7.1
7/7/2021 3:00:00 AM 21.87 71.366 0.196 7.55 3.89 7.12
7/7/2021 3:15:00 AM 21.83 71.294 0.197 7.55 3.51 7.12
7/7/2021 3:30:00 AM 21.78 71.204 0.197 7.55 3.78 7.14
7/7/2021 3:45:00 AM 21.73 71.114 0.197 7.55 3.48 7.15
7/7/2021 4:00:00 AM 21.69 71.042 0.197 7.55 3.66 7.18
7/7/2021 4:15:00 AM 21.64 70.952 0.197 7.55 3.69 7.17
7/7/2021 4:30:00 AM 21.58 70.844 0.197 7.54 3.67 7.19
7/7/2021 4:45:00 AM 21.54 70.772 0.198 7.54 4.36 7.2
7/7/2021 5:00:00 AM 21.49 70.682 0.197 7.54 4.12 7.22
7/7/2021 5:15:00 AM 21.46 70.628 0.198 7.54 3.88 7.23
7/7/2021 5:30:00 AM 21.42 70.556 0.198 7.54 3.74 7.25
7/7/2021 5:45:00 AM 21.38 70.484 0.198 7.54 3.68 7.27
7/7/2021 6:00:00 AM 21.34 70.412 0.198 7.55 3.75 7.3
7/7/2021 6:15:00 AM 21.32 70.376 0.198 7.56 3.85 7.32
7/7/2021 6:30:00 AM 21.3 70.34 0.198 7.56 3.77 7.4
7/7/2021 6:45:00 AM 21.29 70.32201 0.198 7.58 3.75 7.47
7/7/2021 7:00:00 AM 21.29 70.32201 0.198 7.59 3.91 7.57
7/7/2021 7:15:00 AM 21.29 70.32201 0.199 7.61 3.81 7.67
7/7/2021 7:30:00 AM 21.29 70.32201 0.199 7.64 3.95 7.77
7/7/2021 7:45:00 AM 21.32 70.376 0.199 7.67 3.66 7.92
7/7/2021 8:00:00 AM 21.37 70.466 0.199 7.71 3.47 8.08
7/7/2021 8:15:00 AM 21.42 70.556 0.199 7.73 3.35 8.2
7/7/2021 8:30:00 AM 21.46 70.628 0.199 7.77 3.36 8.34
7/7/2021 8:45:00 AM 21.56 70.808 0.199 7.82 3.4 8.5
7/7/2021 9:00:00 AM 21.67 71.006 0.199 7.87 3.27 8.62
7/7/2021 9:15:00 AM 21.78 71.204 0.199 7.91 3.34 8.72
7/7/2021 9:30:00 AM 21.9 71.42 0.199 7.94 3.33 8.79
7/7/2021 9:45:00 AM 22.02 71.636 0.199 7.98 3.14 8.89
7/7/2021 10:00:00 AM 22.18 71.924 0.199 8.02 3.2 8.97
7/7/2021 10:15:00 AM 22.36 72.248 0.199 8.08 3.41 9.09
7/7/2021 10:30:00 AM 22.59 72.662 0.199 8.15 3.42 9.2
7/7/2021 10:45:00 AM 22.81 73.058 0.199 8.21 3.12 9.29
7/7/2021 11:00:00 AM 23.06 73.508 0.198 8.3 3.11 9.39
7/7/2021 11:15:00 AM 23.3 73.94 0.198 8.36 3.08 9.47
7/7/2021 11:30:00 AM 23.58 74.444 0.198 8.44 3.02 9.54
7/7/2021 11:45:00 AM 23.88 74.984 0.198 8.52 3.07 9.6
7/7/2021 12:00:00 PM 24.21 75.578 0.198 8.62 3.07 9.66
7/7/2021 12:15:00 PM 24.5 76.1 0.198 8.69 2.96 9.68
7/7/2021 12:30:00 PM 24.82 76.676 0.198 8.76 3.12 9.69
7/7/2021 12:45:00 PM 25.2 77.36 0.198 8.84 3.01 9.7
7/7/2021 1:00:00 PM 25.59 78.062 0.198 8.93 3.09 9.7
7/7/2021 1:15:00 PM 25.91 78.638 0.198 8.98 2.98 9.68
7/7/2021 1:30:00 PM 26.24 79.232 0.198 9.03 2.89 9.67
7/7/2021 1:45:00 PM 26.54 79.772 0.198 9.09 2.84 9.65
7/7/2021 2:00:00 PM 26.81 80.258 0.198 9.12 2.93 9.62
7/7/2021 2:15:00 PM 27.05 80.69 0.198 9.15 2.91 9.58
7/7/2021 2:30:00 PM 27.22 80.996 0.198 9.17 2.99 9.52
7/7/2021 2:45:00 PM 27.4 81.32 0.199 9.19 2.87 9.5
7/7/2021 3:00:00 PM 27.48 81.464 0.199 9.19 2.79 9.42
7/7/2021 3:15:00 PM 27.52 81.536 0.199 9.19 2.85 9.37
7/7/2021 3:30:00 PM 27.52 81.536 0.199 9.17 2.8 9.31
7/7/2021 3:45:00 PM 27.51 81.518 0.199 9.16 2.92 9.27
7/7/2021 4:00:00 PM 27.45 81.41 0.199 9.13 3.22 9.21
7/7/2021 4:15:00 PM 27.37 81.266 0.199 9.09 3.74 9.12
7/7/2021 4:30:00 PM 27.28 81.104 0.199 9.03 2.86 9.05
7/7/2021 4:45:00 PM 27.14 80.852 0.199 8.99 3 8.93
7/7/2021 5:00:00 PM 27 80.6 0.199 8.93 3.01 8.86
7/7/2021 5:15:00 PM 26.87 80.366 0.199 8.87 2.93 8.77
7/7/2021 5:30:00 PM 26.76 80.168 0.2 8.85 3.11 8.69
7/7/2021 5:45:00 PM 26.63 79.934 0.2 8.8 3.52 8.59
7/7/2021 6:00:00 PM 26.51 79.718 0.2 8.74 3.08 8.5
7/7/2021 6:15:00 PM 26.37 79.466 0.2 8.65 3.09 8.43
7/7/2021 6:30:00 PM 26.22 79.196 0.201 8.56 3.98 8.31
7/7/2021 6:45:00 PM 26.07 78.926 0.201 8.48 3.09 8.23
7/7/2021 7:00:00 PM 25.95 78.71 0.201 8.41 3.07 8.12
7/7/2021 7:15:00 PM 25.8 78.44 0.201 8.32 2.91 7.99
7/7/2021 7:30:00 PM 25.65 78.17 0.201 8.23 3.1 7.82
7/7/2021 7:45:00 PM 25.48 77.864 0.202 8.14 3.34 7.7
7/7/2021 8:00:00 PM 25.35 77.63 0.202 8.07 3.04 7.58
7/7/2021 8:15:00 PM 25.22 77.396 0.202 8.02 3.17 7.46
7/7/2021 8:30:00 PM 25.08 77.144 0.203 7.96 3.33 7.31
7/7/2021 8:45:00 PM 24.95 76.91 0.203 7.91 3.43 7.19
7/7/2021 9:00:00 PM 24.81 76.658 0.203 7.87 3.13 7.06
7/7/2021 9:15:00 PM 24.56 76.208 0.2 7.82 3.33 7.07
7/7/2021 9:30:00 PM 24.28 75.704 0.197 7.75 5.44 7.1
7/7/2021 9:45:00 PM 24.18 75.524 0.198 7.73 4.58 7.02
7/7/2021 10:00:00 PM 24.01 75.218 0.197 7.74 4.79 6.98
7/7/2021 10:15:00 PM 23.8 74.84 0.194 7.7 5.1 7
7/7/2021 10:30:00 PM 23.6 74.48 0.191 7.67 5.05 6.99
7/7/2021 10:45:00 PM 23.45 74.21 0.189 7.64 6.32 6.95
7/7/2021 11:00:00 PM 23.3 73.94 0.188 7.62 6.98 6.92
7/7/2021 11:15:00 PM 23.17 73.706 0.187 7.61 8.86 6.91
7/7/2021 11:30:00 PM 23.01 73.418 0.187 7.59 13.78 6.9
7/7/2021 11:45:00 PM 22.88 73.184 0.189 7.59 10.87 6.9
7/8/2021 12:00:00 AM 22.77 72.986 0.19 7.59 11.53 6.9
7/8/2021 12:15:00 AM 22.7 72.86 0.191 7.6 9.39 6.91
7/8/2021 12:30:00 AM 22.65 72.77 0.192 7.61 8.47 6.94
7/8/2021 12:45:00 AM 22.61 72.698 0.193 7.62 7.5 6.95
7/8/2021 1:00:00 AM 22.58 72.644 0.194 7.7 6.7 6.97
7/8/2021 1:15:00 AM 22.56 72.608 0.195 7.7 6.03 6.98
7/8/2021 1:30:00 AM 22.53 72.554 0.196 7.7 5.64 6.98
7/8/2021 1:45:00 AM 22.5 72.5 0.196 7.7 5.73 7
7/8/2021 2:00:00 AM 22.46 72.42799 0.196 7.7 5.61 7.04
7/8/2021 2:15:00 AM 22.43 72.374 0.196 7.69 5.43 7.04
7/8/2021 2:30:00 AM 22.39 72.302 0.196 7.69 5.31 7.04
7/8/2021 2:45:00 AM 22.36 72.248 0.195 7.68 5.26 7.07
7/8/2021 3:00:00 AM 22.32 72.176 0.195 7.68 5.14 7.07
7/8/2021 3:15:00 AM 22.28 72.104 0.195 7.67 5.07 7.08
7/8/2021 3:30:00 AM 22.24 72.032 0.195 7.67 4.9 7.09
7/8/2021 3:45:00 AM 22.2 71.96 0.196 7.67 4.94 7.13
7/8/2021 4:00:00 AM 22.18 71.924 0.196 7.7 6.1 7.28
7/8/2021 4:15:00 AM 22.21 71.978 0.198 7.73 5.95 7.35
7/8/2021 4:30:00 AM 22.22 71.996 0.199 7.72 5.73 7.39
7/8/2021 4:45:00 AM 22.22 71.996 0.2 7.75 6.05 7.41
7/8/2021 5:00:00 AM 22.19 71.942 0.2 7.74 6.81 7.44
7/8/2021 5:15:00 AM 22.12 71.816 0.202 7.73 7.73 7.46
7/8/2021 5:30:00 AM 22.03 71.654 0.207 7.7 6.94 7.49
7/8/2021 5:45:00 AM 21.94 71.492 0.211 7.7 7.18 7.52
7/8/2021 6:00:00 AM 21.88 71.384 0.214 7.7 7.31 7.55
7/8/2021 6:15:00 AM 21.87 71.366 0.216 7.71 7.5 7.58
7/8/2021 6:30:00 AM 21.87 71.366 0.217 7.71 7.38 7.62
7/8/2021 6:45:00 AM 21.85 71.33 0.218 7.75 6.83 7.67
7/8/2021 7:00:00 AM 21.81 71.258 0.219 7.76 6.94 7.72
7/8/2021 7:15:00 AM 21.73 71.114 0.22 7.76 7.39 7.8
7/8/2021 7:30:00 AM 21.65 70.97 0.22 7.76 7.76 7.89
7/8/2021 7:45:00 AM 21.57 70.826 0.219 7.76 8.27 7.97
7/8/2021 8:00:00 AM 21.51 70.718 0.218 7.77 9.54 8.08
7/8/2021 8:15:00 AM 21.46 70.628 0.217 7.78 9.13 8.16
7/8/2021 8:30:00 AM 21.45 70.61 0.215 7.8 8.92 8.22
7/8/2021 8:45:00 AM 21.46 70.628 0.212 7.82 8.78 8.26
7/8/2021 9:00:00 AM 21.5 70.7 0.209 7.85 8.47 8.28
7/8/2021 9:15:00 AM 21.54 70.772 0.207 7.86 8 8.32
7/8/2021 9:30:00 AM 21.6 70.88 0.205 7.89 7.89 8.37
7/8/2021 9:45:00 AM 21.65 70.97 0.203 7.91 7.57 8.45
7/8/2021 10:00:00 AM 21.71 71.078 0.202 7.94 7.49 8.53
7/8/2021 10:15:00 AM 21.75 71.15 0.202 7.95 7.06 8.56
7/8/2021 10:30:00 AM 21.82 71.276 0.202 7.97 6.99 8.59
7/8/2021 10:45:00 AM 21.9 71.42 0.202 8.01 6.98 8.68
7/8/2021 11:00:00 AM 22.01 71.618 0.202 8.06 6.52 8.76
7/8/2021 11:15:00 AM 22.11 71.798 0.202 8.1 6.6 8.85
7/8/2021 11:30:00 AM 22.17 71.906 0.203 8.12 6.51 8.88
7/8/2021 11:45:00 AM 22.25 72.05 0.204 8.14 6.56 8.89
7/8/2021 12:00:00 PM 22.41 72.338 0.204 8.18 6.79 8.95
7/8/2021 12:15:00 PM 22.52 72.536 0.205 8.22 6.15 9
7/8/2021 12:30:00 PM 22.54 72.57201 0.205 8.21 6.15 8.95
7/8/2021 12:45:00 PM 22.52 72.536 0.206 8.16 6.28 8.82
7/8/2021 1:00:00 PM 22.53 72.554 0.206 8.11 6.51 8.69
7/8/2021 1:15:00 PM 22.59 72.662 0.206 8.13 6.32 8.68
7/8/2021 1:30:00 PM 22.68 72.824 0.206 8.17 6.02 8.8
7/8/2021 1:45:00 PM 22.73 72.914 0.206 8.22 5.89 8.91
7/8/2021 2:00:00 PM 22.73 72.914 0.205 8.21 5.79 8.89
7/8/2021 2:15:00 PM 22.7 72.86 0.205 8.16 5.88 8.79
7/8/2021 2:30:00 PM 22.68 72.824 0.204 8.12 5.75 8.66
7/8/2021 2:45:00 PM 22.67 72.806 0.204 8.09 5.64 8.55
7/8/2021 3:00:00 PM 22.65 72.77 0.204 8.05 5.64 8.47
7/8/2021 3:15:00 PM 22.66 72.788 0.203 8.04 5.77 8.46
7/8/2021 3:30:00 PM 22.68 72.824 0.202 8.06 5.51 8.51
7/8/2021 3:45:00 PM 22.76 72.968 0.202 8.11 5.58 8.63
7/8/2021 4:00:00 PM 22.78 73.004 0.201 8.12 5.41 8.72
7/8/2021 4:15:00 PM 22.81 73.058 0.201 8.16 5.45 8.79
7/8/2021 4:30:00 PM 22.82 73.076 0.2 8.16 5.23 8.77
7/8/2021 4:45:00 PM 22.83 73.094 0.2 8.16 5.39 8.74
7/8/2021 5:00:00 PM 22.85 73.13 0.199 8.15 5.22 8.69
7/8/2021 5:15:00 PM 22.87 73.166 0.199 8.13 5.16 8.63
7/8/2021 5:30:00 PM 22.85 73.13 0.199 8.1 5.11 8.54
7/8/2021 5:45:00 PM 22.85 73.13 0.198 8.09 5.03 8.48
7/8/2021 6:00:00 PM 22.82 73.076 0.198 8.05 5.12 8.35
7/8/2021 6:15:00 PM 22.77 72.986 0.198 7.99 4.94 8.22
7/8/2021 6:30:00 PM 22.71 72.878 0.198 7.95 4.87 8.08
7/8/2021 6:45:00 PM 22.66 72.788 0.198 7.91 4.87 8
7/8/2021 7:00:00 PM 22.6 72.68 0.198 7.88 4.86 7.89
7/8/2021 7:15:00 PM 22.54 72.57201 0.197 7.85 4.9 7.83
7/8/2021 7:30:00 PM 22.45 72.41 0.194 7.83 5.29 7.79
7/8/2021 7:45:00 PM 22.38 72.284 0.192 7.8 6.2 7.76
7/8/2021 8:00:00 PM 22.33 72.194 0.19 7.78 6.1 7.77
7/8/2021 8:15:00 PM 22.28 72.104 0.19 7.76 7.06 7.71
7/8/2021 8:30:00 PM 22.23 72.014 0.19 7.74 7.96 7.67
7/8/2021 8:45:00 PM 22.18 71.924 0.19 7.72 8.4 7.62
7/8/2021 9:00:00 PM 22.12 71.816 0.191 7.72 9.32 7.6
7/8/2021 9:15:00 PM 22.08 71.744 0.192 7.71 8.44 7.57
7/8/2021 9:30:00 PM 22.05 71.69 0.192 7.7 7.72 7.55
7/8/2021 9:45:00 PM 22.02 71.636 0.192 7.69 6.84 7.53
7/8/2021 10:00:00 PM 21.98 71.564 0.193 7.69 6.51 7.53
7/8/2021 10:15:00 PM 21.95 71.51 0.193 7.67 6.15 7.52
7/8/2021 10:30:00 PM 21.92 71.456 0.193 7.68 5.82 7.49
7/8/2021 10:45:00 PM 21.88 71.384 0.193 7.67 5.53 7.51
7/8/2021 11:00:00 PM 21.84 71.312 0.194 7.67 5.28 7.51
7/8/2021 11:15:00 PM 21.8 71.24 0.194 7.67 5.24 7.51
7/8/2021 11:30:00 PM 21.76 71.168 0.194 7.64 5.27 7.52
7/8/2021 11:45:00 PM 21.73 71.114 0.194 7.67 4.97 7.53
7/9/2021 12:00:00 AM 21.69 71.042 0.195 7.67 4.88 7.53
7/9/2021 12:15:00 AM 21.66 70.988 0.195 7.67 5.18 7.53
7/9/2021 12:30:00 AM 21.62 70.916 0.195 7.67 5.02 7.53
7/9/2021 12:45:00 AM 21.58 70.844 0.195 7.66 5.18 7.54
7/9/2021 1:00:00 AM 21.54 70.772 0.195 7.66 5.19 7.54
7/9/2021 1:15:00 AM 21.49 70.682 0.195 7.66 5.27 7.55
7/9/2021 1:30:00 AM 21.45 70.61 0.195 7.66 5.21 7.56
7/9/2021 1:45:00 AM 21.41 70.538 0.195 7.66 5.28 7.57
7/9/2021 2:00:00 AM 21.36 70.448 0.196 7.66 5.23 7.57
7/9/2021 2:15:00 AM 21.32 70.376 0.196 7.66 4.85 7.59
7/9/2021 2:30:00 AM 21.28 70.304 0.196 7.66 4.74 7.58
7/9/2021 2:45:00 AM 21.23 70.214 0.196 7.66 4.74 7.6
7/9/2021 3:00:00 AM 21.19 70.142 0.196 7.66 4.68 7.61
7/9/2021 3:15:00 AM 21.15 70.07 0.196 7.66 4.61 7.62
7/9/2021 3:30:00 AM 21.11 69.998 0.196 7.66 4.5 7.62
7/9/2021 3:45:00 AM 21.08 69.944 0.196 7.67 4.88 7.63
7/9/2021 4:00:00 AM 21.05 69.89 0.197 7.67 4.59 7.64
7/9/2021 4:15:00 AM 21.01 69.818 0.197 7.68 4.41 7.65
7/9/2021 4:30:00 AM 20.97 69.746 0.197 7.67 4.34 7.65
7/9/2021 4:45:00 AM 20.93 69.674 0.197 7.68 4.57 7.66
7/9/2021 5:00:00 AM 20.89 69.602 0.197 7.68 4.62 7.68
7/9/2021 5:15:00 AM 20.85 69.53 0.198 7.68 4.46 7.67
7/9/2021 5:30:00 AM 20.82 69.476 0.197 7.68 4.59 7.69
7/9/2021 5:45:00 AM 20.79 69.422 0.197 7.68 4.48 7.69
7/9/2021 6:00:00 AM 20.77 69.386 0.197 7.68 4.4 7.7
7/9/2021 6:15:00 AM 20.74 69.332 0.197 7.68 4.44 7.72
7/9/2021 6:30:00 AM 20.72 69.296 0.197 7.68 4.42 7.75
7/9/2021 6:45:00 AM 20.7 69.26 0.197 7.69 4.16 7.79
7/9/2021 7:00:00 AM 20.69 69.242 0.197 7.7 4.14 7.85
7/9/2021 7:15:00 AM 20.69 69.242 0.197 7.72 4.27 7.93
7/9/2021 7:30:00 AM 20.7 69.26 0.197 7.74 4.19 8.03
7/9/2021 7:45:00 AM 20.71 69.278 0.197 7.76 4.17 8.12
7/9/2021 8:00:00 AM 20.74 69.332 0.197 7.79 4.03 8.23
7/9/2021 8:15:00 AM 20.79 69.422 0.197 7.82 4.1 8.37
7/9/2021 8:30:00 AM 20.8 69.44 0.197 7.83 4.19 8.41
7/9/2021 8:45:00 AM 20.83 69.494 0.197 7.86 4.19 8.5
7/9/2021 9:00:00 AM 20.87 69.566 0.196 7.88 4.13 8.54
7/9/2021 9:15:00 AM 20.91 69.638 0.196 7.89 3.95 8.61
7/9/2021 9:30:00 AM 21.03 69.854 0.196 7.96 4.02 8.77
7/9/2021 9:45:00 AM 21.07 69.926 0.196 7.97 4.01 8.82
7/9/2021 10:00:00 AM 21.26 70.268 0.196 8.05 4.02 9
7/9/2021 10:15:00 AM 21.3 70.34 0.196 8.07 3.82 9.02
7/9/2021 10:30:00 AM 21.51 70.718 0.196 8.15 3.93 9.15
7/9/2021 10:45:00 AM 21.74 71.132 0.196 8.21 3.84 9.23
7/9/2021 11:00:00 AM 21.91 71.438 0.196 8.26 3.86 9.26
7/9/2021 11:15:00 AM 22.14 71.852 0.196 8.31 3.9 9.32
7/9/2021 11:30:00 AM 22.19 71.942 0.196 8.3 3.88 9.29
7/9/2021 11:45:00 AM 22.37 72.266 0.196 8.36 3.68 9.33
7/9/2021 12:00:00 PM 22.39 72.302 0.196 8.37 3.64 9.28
7/9/2021 12:15:00 PM 22.46 72.42799 0.196 8.38 3.79 9.27
7/9/2021 12:30:00 PM 22.61 72.698 0.196 8.41 3.79 9.28
7/9/2021 12:45:00 PM 22.68 72.824 0.196 8.41 3.58 9.27
7/9/2021 1:00:00 PM 22.8 73.04 0.196 8.44 3.61 9.33
7/9/2021 1:15:00 PM 22.89 73.202 0.196 8.47 3.58 9.3
7/9/2021 1:30:00 PM 22.93 73.274 0.196 8.48 3.54 9.3
7/9/2021 1:45:00 PM 23 73.4 0.196 8.48 3.64 9.3
7/9/2021 2:00:00 PM 23.18 73.724 0.197 8.52 3.54 9.31
7/9/2021 2:15:00 PM 23.4 74.12 0.197 8.57 3.69 9.34
7/9/2021 2:30:00 PM 23.58 74.444 0.197 8.58 3.46 9.34
7/9/2021 2:45:00 PM 23.72 74.696 0.197 8.62 3.57 9.31
7/9/2021 3:00:00 PM 23.61 74.498 0.195 8.54 3.6 9.02
7/9/2021 3:15:00 PM 23.34 74.012 0.189 8.33 5.41 8.64
7/9/2021 3:30:00 PM 23.13 73.634 0.186 8.15 8.68 8.35
7/9/2021 3:45:00 PM 22.98 73.364 0.183 8.02 9.26 8.25
7/9/2021 4:00:00 PM 22.88 73.184 0.181 7.98 14.61 8.21
7/9/2021 4:15:00 PM 22.73 72.914 0.178 7.94 28.19 8.2
7/9/2021 4:30:00 PM 22.7 72.86 0.179 7.9 28.43 8.26
7/9/2021 4:45:00 PM 22.7 72.86 0.18 7.95 19.76 8.38
7/9/2021 5:00:00 PM 22.72 72.896 0.181 7.99 13.22 8.41
7/9/2021 5:15:00 PM 22.7 72.86 0.181 7.99 11.23 8.45
7/9/2021 5:30:00 PM 22.68 72.824 0.181 7.98 10.39 8.41
7/9/2021 5:45:00 PM 22.68 72.824 0.182 7.96 9.41 8.36
7/9/2021 6:00:00 PM 22.71 72.878 0.183 7.97 8.14 8.3
7/9/2021 6:15:00 PM 22.7 72.86 0.183 7.95 7.49 8.23
7/9/2021 6:30:00 PM 22.69 72.842 0.184 7.95 6.59 8.19
7/9/2021 6:45:00 PM 22.69 72.842 0.185 7.94 6.09 8.16
7/9/2021 7:00:00 PM 22.7 72.86 0.186 7.93 6.36 8.1
7/9/2021 7:15:00 PM 22.66 72.788 0.187 7.9 6.01 8.04
7/9/2021 7:30:00 PM 22.63 72.734 0.188 7.88 6.28 7.97
7/9/2021 7:45:00 PM 22.58 72.644 0.189 7.86 6.63 7.92
7/9/2021 8:00:00 PM 22.53 72.554 0.189 7.84 7.69 7.87
7/9/2021 8:15:00 PM 22.48 72.464 0.189 7.81 7.93 7.81
7/9/2021 8:30:00 PM 22.42 72.356 0.19 7.79 9.06 7.75
7/9/2021 8:45:00 PM 22.35 72.23 0.19 7.76 8.95 7.68
7/9/2021 9:00:00 PM 22.27 72.086 0.19 7.74 8.6 7.61
7/9/2021 9:15:00 PM 22.21 71.978 0.19 7.72 9.23 7.56
7/9/2021 9:30:00 PM 22.14 71.852 0.19 7.7 8.1 7.52
7/9/2021 9:45:00 PM 22.06 71.708 0.19 7.69 8.36 7.5
7/9/2021 10:00:00 PM 21.98 71.564 0.19 7.67 7.15 7.48
7/9/2021 10:15:00 PM 21.9 71.42 0.19 7.66 7.06 7.48
7/9/2021 10:30:00 PM 21.84 71.312 0.191 7.66 6.6 7.49
7/9/2021 10:45:00 PM 21.78 71.204 0.191 7.65 6.79 7.48
7/9/2021 11:00:00 PM 21.72 71.096 0.192 7.66 6.33 7.5
7/9/2021 11:15:00 PM 21.66 70.988 0.193 7.65 6.2 7.52
7/9/2021 11:30:00 PM 21.61 70.898 0.193 7.65 6.14 7.52
7/9/2021 11:45:00 PM 21.55 70.79 0.194 7.65 6.13 7.54
7/10/2021 12:00:00 AM 21.5 70.7 0.195 7.65 5.84 7.55
7/10/2021 12:15:00 AM 21.45 70.61 0.195 7.65 6.01 7.55
7/10/2021 12:30:00 AM 21.4 70.52 0.195 7.65 5.65 7.57
7/10/2021 12:45:00 AM 21.35 70.43 0.196 7.65 5.53 7.59
7/10/2021 1:00:00 AM 21.3 70.34 0.197 7.65 5.29 7.59
7/10/2021 1:15:00 AM 21.25 70.25 0.197 7.65 5.37 7.59
7/10/2021 1:30:00 AM 21.2 70.16 0.198 7.65 5.75 7.6
7/10/2021 1:45:00 AM 21.15 70.07 0.198 7.64 5.22 7.6
7/10/2021 2:00:00 AM 21.1 69.98 0.198 7.64 5.3 7.63
7/10/2021 2:15:00 AM 21.06 69.908 0.199 7.64 4.96 7.62
7/10/2021 2:30:00 AM 21.01 69.818 0.199 7.64 5.08 7.63
7/10/2021 2:45:00 AM 20.97 69.746 0.199 7.63 5.01 7.64
7/10/2021 3:00:00 AM 20.93 69.674 0.199 7.63 5.14 7.65
7/10/2021 3:15:00 AM 20.88 69.584 0.198 7.63 5.38 7.65
7/10/2021 3:30:00 AM 20.84 69.512 0.198 7.63 5.29 7.67
7/10/2021 3:45:00 AM 20.78 69.404 0.198 7.62 5.01 7.67
7/10/2021 4:00:00 AM 20.72 69.296 0.198 7.62 5.2 7.66
7/10/2021 4:15:00 AM 20.66 69.188 0.198 7.61 5.14 7.68
7/10/2021 4:30:00 AM 20.6 69.08 0.198 7.6 4.87 7.7
7/10/2021 4:45:00 AM 20.56 69.008 0.198 7.6 4.84 7.7
7/10/2021 5:00:00 AM 20.52 68.936 0.198 7.6 5.12 7.7
7/10/2021 5:15:00 AM 20.47 68.846 0.198 7.6 4.82 7.72
7/10/2021 5:30:00 AM 20.43 68.774 0.199 7.6 4.85 7.71
7/10/2021 5:45:00 AM 20.39 68.702 0.199 7.6 4.86 7.74
7/10/2021 6:00:00 AM 20.35 68.63 0.199 7.6 4.45 7.73
7/10/2021 6:15:00 AM 20.32 68.576 0.199 7.61 4.64 7.76
7/10/2021 6:30:00 AM 20.29 68.522 0.199 7.61 4.39 7.78
7/10/2021 6:45:00 AM 20.27 68.486 0.2 7.62 4.31 7.8
7/10/2021 7:00:00 AM 20.25 68.45 0.2 7.59 4.31 7.8
7/10/2021 7:15:00 AM 20.23 68.414 0.2 7.61 4.31 7.87
7/10/2021 7:30:00 AM 20.23 68.414 0.201 7.64 4.31 7.96
7/10/2021 7:45:00 AM 20.23 68.414 0.201 7.66 4.28 8.05
7/10/2021 8:00:00 AM 20.24 68.432 0.2 7.68 4.37 8.16
7/10/2021 8:15:00 AM 20.25 68.45 0.2 7.71 4.12 8.28
7/10/2021 8:30:00 AM 20.3 68.54 0.201 7.74 4.1 8.43
7/10/2021 8:45:00 AM 20.34 68.612 0.201 7.77 4.09 8.58
7/10/2021 9:00:00 AM 20.36 68.648 0.201 7.8 3.99 8.69
7/10/2021 9:15:00 AM 20.37 68.666 0.2 7.81 3.97 8.74
7/10/2021 9:30:00 AM 20.39 68.702 0.2 7.84 4.13 8.78
7/10/2021 9:45:00 AM 20.43 68.774 0.2 7.84 3.96 8.83
7/10/2021 10:00:00 AM 20.5 68.9 0.201 7.88 4.02 8.93
7/10/2021 10:15:00 AM 20.61 69.098 0.201 7.93 3.81 9.08
7/10/2021 10:30:00 AM 20.6 69.08 0.2 7.93 3.94 9.11
7/10/2021 10:45:00 AM 20.68 69.224 0.201 7.98 3.99 9.21
7/10/2021 11:00:00 AM 20.92 69.656 0.201 8.05 3.84 9.3
7/10/2021 11:15:00 AM 20.99 69.782 0.2 8.07 4.07 9.32
7/10/2021 11:30:00 AM 21.29 70.32201 0.201 8.16 3.71 9.43
7/10/2021 11:45:00 AM 21.39 70.502 0.201 8.16 3.67 9.38
7/10/2021 12:00:00 PM 21.7 71.06 0.201 8.21 3.98 9.45
7/10/2021 12:15:00 PM 22.09 71.762 0.201 8.29 3.7 9.5
7/10/2021 12:30:00 PM 22.43 72.374 0.201 8.34 3.68 9.54
7/10/2021 12:45:00 PM 22.67 72.806 0.201 8.38 3.63 9.55
7/10/2021 1:00:00 PM 22.93 73.274 0.201 8.4 3.55 9.54
7/10/2021 1:15:00 PM 23.27 73.886 0.202 8.45 3.53 9.55
7/10/2021 1:30:00 PM 23.53 74.354 0.202 8.49 3.53 9.54
7/10/2021 1:45:00 PM 23.83 74.894 0.202 8.53 3.51 9.54
7/10/2021 2:00:00 PM 23.95 75.11 0.202 8.54 3.48 9.46
7/10/2021 2:15:00 PM 23.94 75.092 0.202 8.53 3.55 9.42
7/10/2021 2:30:00 PM 23.82 74.876 0.202 8.48 3.6 9.36
7/10/2021 2:45:00 PM 23.69 74.642 0.202 8.41 3.55 9.31
7/10/2021 3:00:00 PM 23.57 74.426 0.203 8.39 3.63 9.29
7/10/2021 3:15:00 PM 23.42 74.156 0.202 8.34 3.41 9.23
7/10/2021 3:30:00 PM 23.31 73.958 0.203 8.32 3.44 9.22
7/10/2021 3:45:00 PM 23.3 73.94 0.203 8.33 3.48 9.23
7/10/2021 4:00:00 PM 23.27 73.886 0.203 8.34 3.45 9.17
7/10/2021 4:15:00 PM 23.25 73.85 0.203 8.31 3.48 9.13
7/10/2021 4:30:00 PM 23.24 73.832 0.203 8.3 3.64 9.07
7/10/2021 4:45:00 PM 23.18 73.724 0.203 8.29 3.45 9.08
7/10/2021 5:00:00 PM 23.14 73.652 0.203 8.28 3.5 9.07
7/10/2021 5:15:00 PM 23.12 73.616 0.204 8.29 3.53 9.1
7/10/2021 5:30:00 PM 23.08 73.544 0.203 8.28 3.59 9.07
7/10/2021 5:45:00 PM 23.06 73.508 0.203 8.28 3.58 9.05
7/10/2021 6:00:00 PM 23.02 73.436 0.203 8.26 3.63 8.98
7/10/2021 6:15:00 PM 23.01 73.418 0.203 8.23 3.58 8.87
7/10/2021 6:30:00 PM 23.02 73.436 0.204 8.21 3.45 8.76
7/10/2021 6:45:00 PM 23.01 73.418 0.204 8.17 3.62 8.63
7/10/2021 7:00:00 PM 22.95 73.31 0.204 8.11 3.63 8.46
7/10/2021 7:15:00 PM 22.9 73.22 0.204 8.06 3.57 8.32
7/10/2021 7:30:00 PM 22.84 73.112 0.204 8.01 3.6 8.18
7/10/2021 7:45:00 PM 22.75 72.95 0.204 7.96 3.6 8.05
7/10/2021 8:00:00 PM 22.66 72.788 0.204 7.92 3.54 7.92
7/10/2021 8:15:00 PM 22.57 72.626 0.205 7.88 4.25 7.83
7/10/2021 8:30:00 PM 22.49 72.482 0.205 7.85 4.24 7.75
7/10/2021 8:45:00 PM 22.41 72.338 0.205 7.83 3.84 7.67
7/10/2021 9:00:00 PM 22.32 72.176 0.205 7.8 3.68 7.62
7/10/2021 9:15:00 PM 22.22 71.996 0.205 7.78 4.19 7.57
7/10/2021 9:30:00 PM 22.13 71.834 0.205 7.76 3.61 7.53
7/10/2021 9:45:00 PM 22.02 71.636 0.205 7.74 3.64 7.49
7/10/2021 10:00:00 PM 21.92 71.456 0.205 7.71 3.62 7.47
7/10/2021 10:15:00 PM 21.82 71.276 0.205 7.7 3.94 7.46
7/10/2021 10:30:00 PM 21.71 71.078 0.205 7.69 3.74 7.45
7/10/2021 10:45:00 PM 21.61 70.898 0.205 7.68 4.02 7.43
7/10/2021 11:00:00 PM 21.52 70.736 0.205 7.67 3.63 7.45
7/10/2021 11:15:00 PM 21.42 70.556 0.205 7.67 3.97 7.46
7/10/2021 11:30:00 PM 21.32 70.376 0.205 7.66 3.6 7.47
7/10/2021 11:45:00 PM 21.23 70.214 0.204 7.65 3.59 7.48
7/11/2021 12:00:00 AM 21.14 70.052 0.205 7.65 3.6 7.5
7/11/2021 12:15:00 AM 21.05 69.89 0.205 7.64 3.53 7.51
7/11/2021 12:30:00 AM 20.96 69.728 0.205 7.63 3.55 7.52
7/11/2021 12:45:00 AM 20.87 69.566 0.205 7.63 3.77 7.53
7/11/2021 1:00:00 AM 20.79 69.422 0.205 7.62 3.7 7.54
7/11/2021 1:15:00 AM 20.7 69.26 0.205 7.62 3.86 7.55
7/11/2021 1:30:00 AM 20.62 69.116 0.205 7.62 3.69 7.56
7/11/2021 1:45:00 AM 20.53 68.954 0.205 7.61 3.68 7.58
7/11/2021 2:00:00 AM 20.45 68.81 0.205 7.6 3.59 7.6
7/11/2021 2:15:00 AM 20.37 68.666 0.205 7.61 3.45 7.6
7/11/2021 2:30:00 AM 20.29 68.522 0.205 7.61 3.54 7.62
7/11/2021 2:45:00 AM 20.22 68.396 0.205 7.6 3.56 7.64
7/11/2021 3:00:00 AM 20.15 68.27 0.205 7.6 3.54 7.65
7/11/2021 3:15:00 AM 20.08 68.144 0.205 7.6 3.51 7.67
7/11/2021 3:30:00 AM 20 68 0.205 7.57 3.56 7.68
7/11/2021 3:45:00 AM 19.94 67.892 0.205 7.59 3.41 7.69
7/11/2021 4:00:00 AM 19.88 67.784 0.206 7.6 3.59 7.69
7/11/2021 4:15:00 AM 19.82 67.676 0.205 7.59 3.77 7.71
7/11/2021 4:30:00 AM 19.77 67.586 0.206 7.59 4.3 7.73
7/11/2021 4:45:00 AM 19.72 67.496 0.206 7.59 3.57 7.75
7/11/2021 5:00:00 AM 19.66 67.388 0.206 7.59 3.74 7.74
7/11/2021 5:15:00 AM 19.61 67.298 0.206 7.59 3.7 7.76
7/11/2021 5:30:00 AM 19.57 67.226 0.206 7.56 3.8 7.76
7/11/2021 5:45:00 AM 19.53 67.154 0.206 7.59 3.59 7.78
7/11/2021 6:00:00 AM 19.49 67.082 0.206 7.59 3.44 7.79
7/11/2021 6:15:00 AM 19.46 67.028 0.207 7.59 3.5 7.81
7/11/2021 6:30:00 AM 19.44 66.992 0.207 7.6 3.45 7.84
7/11/2021 6:45:00 AM 19.42 66.956 0.207 7.61 3.53 7.88
7/11/2021 7:00:00 AM 19.41 66.938 0.207 7.62 3.53 7.94
7/11/2021 7:15:00 AM 19.4 66.92 0.207 7.63 3.43 8.04
7/11/2021 7:30:00 AM 19.39 66.902 0.207 7.65 3.74 8.11
7/11/2021 7:45:00 AM 19.4 66.92 0.207 7.66 3.59 8.22
7/11/2021 8:00:00 AM 19.41 66.938 0.207 7.7 3.5 8.33
7/11/2021 8:15:00 AM 19.43 66.974 0.207 7.72 3.83 8.46
7/11/2021 8:30:00 AM 19.44 66.992 0.207 7.73 3.53 8.54
7/11/2021 8:45:00 AM 19.46 67.028 0.207 7.76 3.53 8.64
7/11/2021 9:00:00 AM 19.5 67.1 0.207 7.8 3.5 8.78
7/11/2021 9:15:00 AM 19.54 67.172 0.207 7.82 3.44 8.9
7/11/2021 9:30:00 AM 19.58 67.244 0.207 7.85 3.41 8.99
7/11/2021 9:45:00 AM 19.61 67.298 0.207 7.87 3.44 9.06
7/11/2021 10:00:00 AM 19.67 67.406 0.207 7.91 3.3 9.17
7/11/2021 10:15:00 AM 19.73 67.514 0.207 7.93 3.23 9.22
7/11/2021 10:30:00 AM 19.81 67.658 0.207 7.97 3.36 9.33
7/11/2021 10:45:00 AM 19.89 67.802 0.207 8.01 3.25 9.42
7/11/2021 11:00:00 AM 19.97 67.946 0.207 8.05 3.36 9.51
7/11/2021 11:15:00 AM 20.04 68.07201 0.207 8.06 3.39 9.54
7/11/2021 11:30:00 AM 20.1 68.18 0.207 8.1 3.33 9.55
7/11/2021 11:45:00 AM 20.14 68.252 0.207 8.11 3.25 9.54
7/11/2021 12:00:00 PM 20.16 68.288 0.207 8.09 3.24 9.45
7/11/2021 12:15:00 PM 20.16 68.288 0.208 8.05 3.28 9.31
7/11/2021 12:30:00 PM 20.17 68.306 0.208 8.02 3.42 9.17
7/11/2021 12:45:00 PM 20.18 68.324 0.208 7.99 3.24 9.06
7/11/2021 1:00:00 PM 20.19 68.342 0.208 7.97 3.3 8.97
7/11/2021 1:15:00 PM 20.18 68.324 0.208 7.94 3.29 8.86
7/11/2021 1:30:00 PM 20.17 68.306 0.207 7.92 3.37 8.82
7/11/2021 1:45:00 PM 20.2 68.36 0.207 7.93 3.4 8.88
7/11/2021 2:00:00 PM 20.22 68.396 0.207 7.95 3.35 8.95
7/11/2021 2:15:00 PM 20.2 68.36 0.207 7.93 3.26 8.92
7/11/2021 2:30:00 PM 20.19 68.342 0.207 7.92 3.39 8.93
7/11/2021 2:45:00 PM 20.18 68.324 0.207 7.91 3.32 8.89
7/11/2021 3:00:00 PM 20.16 68.288 0.207 7.9 3.3 8.85
7/11/2021 3:15:00 PM 20.14 68.252 0.207 7.89 3.33 8.77
7/11/2021 3:30:00 PM 20.12 68.216 0.206 7.87 3.46 8.71
7/11/2021 3:45:00 PM 20.1 68.18 0.205 7.85 3.64 8.64
7/11/2021 4:00:00 PM 20.08 68.144 0.206 7.84 3.46 8.58
7/11/2021 4:15:00 PM 20.07 68.126 0.206 7.83 3.5 8.56
7/11/2021 4:30:00 PM 20.06 68.108 0.206 7.81 3.52 8.55
7/11/2021 4:45:00 PM 20.04 68.07201 0.206 7.81 3.57 8.52
7/11/2021 5:00:00 PM 20.02 68.036 0.206 7.8 3.43 8.48
7/11/2021 5:15:00 PM 20.01 68.018 0.206 7.8 3.82 8.45
7/11/2021 5:30:00 PM 19.99 67.982 0.206 7.79 3.62 8.42
7/11/2021 5:45:00 PM 19.97 67.946 0.205 7.79 4.01 8.39
7/11/2021 6:00:00 PM 19.94 67.892 0.205 7.78 3.6 8.37
7/11/2021 6:15:00 PM 19.92 67.856 0.203 7.77 3.88 8.32
7/11/2021 6:30:00 PM 19.89 67.802 0.202 7.74 4.21 8.31
7/11/2021 6:45:00 PM 19.87 67.766 0.2 7.75 4.6 8.27
7/11/2021 7:00:00 PM 19.84 67.712 0.199 7.73 5.02 8.24
7/11/2021 7:15:00 PM 19.81 67.658 0.197 7.72 6.94 8.21
7/11/2021 7:30:00 PM 19.75 67.55 0.196 7.7 9.87 8.17
7/11/2021 7:45:00 PM 19.71 67.478 0.197 7.69 9.27 8.13
7/11/2021 8:00:00 PM 19.68 67.424 0.194 7.7 8.59 8.15
7/11/2021 8:15:00 PM 19.64 67.352 0.191 7.69 9.81 8.15
7/11/2021 8:30:00 PM 19.59 67.262 0.187 7.67 9.53 8.15
7/11/2021 8:45:00 PM 19.52 67.136 0.182 7.63 14.94 8.12
7/11/2021 9:00:00 PM 19.45 67.01 0.177 7.58 27.13 8.06
7/11/2021 9:15:00 PM 19.39 66.902 0.172 7.53 37.73 8.02
7/11/2021 9:30:00 PM 19.34 66.812 0.168 7.5 41.09 8.02
7/11/2021 9:45:00 PM 19.33 66.794 0.169 7.51 26.15 8.04
7/11/2021 10:00:00 PM 19.29 66.722 0.167 7.48 25.43 8.09
7/11/2021 10:15:00 PM 19.26 66.668 0.166 7.5 40.63 8.16
7/11/2021 10:30:00 PM 19.15 66.47 0.163 7.47 46.56 8.22
7/11/2021 10:45:00 PM 19.03 66.254 0.162 7.43 60.15 8.25
7/11/2021 11:00:00 PM 18.94 66.092 0.161 7.4 74.01 8.28
7/11/2021 11:15:00 PM 18.84 65.912 0.159 7.37 74.7 8.32
7/11/2021 11:30:00 PM 18.75 65.75 0.161 7.37 58.52 8.34
7/11/2021 11:45:00 PM 18.66 65.588 0.157 7.36 78.93 8.36
7/12/2021 12:00:00 AM 18.59 65.462 0.152 7.33 80.29 8.37
7/12/2021 12:15:00 AM 18.52 65.336 0.152 7.32 87.07 8.39
7/12/2021 12:30:00 AM 18.49 65.282 0.157 7.35 89.5 8.39
7/12/2021 12:45:00 AM 18.49 65.282 0.164 7.39 70.77 8.4
7/12/2021 1:00:00 AM 18.46 65.228 0.169 7.4 94.57 8.42
7/12/2021 1:15:00 AM 18.4 65.12 0.17 7.39 78.44 8.43
7/12/2021 1:30:00 AM 18.35 65.03 0.167 7.39 104.69 8.44
7/12/2021 1:45:00 AM 18.31 64.958 0.163 7.38 94.68 8.46
7/12/2021 2:00:00 AM 18.27 64.886 0.16 7.38 84.75 8.47
7/12/2021 2:15:00 AM 18.24 64.832 0.159 7.37 76.2 8.48
7/12/2021 2:30:00 AM 18.2 64.76 0.158 7.37 72.35 8.48
7/12/2021 2:45:00 AM 18.17 64.706 0.157 7.36 98.18 8.49
7/12/2021 3:00:00 AM 18.15 64.67 0.156 7.36 53.65 8.5
7/12/2021 3:15:00 AM 18.12 64.616 0.156 7.35 57.05 8.51
7/12/2021 3:30:00 AM 18.09 64.562 0.155 7.36 52.59 8.52
7/12/2021 3:45:00 AM 18.07 64.526 0.153 7.36 47.77 8.53
7/12/2021 4:00:00 AM 18.05 64.49 0.152 7.36 46.09 8.53
7/12/2021 4:15:00 AM 18.04 64.472 0.152 7.38 44.38 8.54
7/12/2021 4:30:00 AM 18.04 64.472 0.152 7.38 37.58 8.54
7/12/2021 4:45:00 AM 18.04 64.472 0.152 7.38 36.27 8.54
7/12/2021 5:00:00 AM 18.04 64.472 0.152 7.39 37.66 8.54
7/12/2021 5:15:00 AM 18.04 64.472 0.152 7.39 34.14 8.53
7/12/2021 5:30:00 AM 18.04 64.472 0.152 7.4 45.14 8.53
7/12/2021 5:45:00 AM 18.04 64.472 0.152 7.4 30.83 8.53
7/12/2021 6:00:00 AM 18.05 64.49 0.153 7.4 30.48 8.52
7/12/2021 6:15:00 AM 18.05 64.49 0.153 7.4 26.12 8.52
7/12/2021 6:30:00 AM 18.06 64.508 0.153 7.39 27.84 8.52
7/12/2021 6:45:00 AM 18.07 64.526 0.154 7.41 23.37 8.51
7/12/2021 7:00:00 AM 18.09 64.562 0.154 7.4 26.02 8.53
7/12/2021 7:15:00 AM 18.1 64.58 0.155 7.4 24.16 8.54
7/12/2021 7:30:00 AM 18.12 64.616 0.156 7.42 22.58 8.54
7/12/2021 7:45:00 AM 18.13 64.634 0.157 7.42 21.78 8.56
7/12/2021 8:00:00 AM 18.14 64.652 0.157 7.43 21.9 8.56
7/12/2021 8:15:00 AM 18.18 64.724 0.158 7.44 19.46 8.59
7/12/2021 8:30:00 AM 18.2 64.76 0.158 7.44 19.43 8.62
7/12/2021 8:45:00 AM 18.23 64.814 0.158 7.46 17.49 8.64
7/12/2021 9:00:00 AM 18.26 64.868 0.159 7.46 18.03 8.65
7/12/2021 9:15:00 AM 18.29 64.922 0.159 7.46 17 8.65
7/12/2021 9:30:00 AM 18.31 64.958 0.159 7.47 15.68 8.66
7/12/2021 9:45:00 AM 18.35 65.03 0.159 7.48 15.76 8.69
7/12/2021 10:00:00 AM 18.39 65.102 0.159 7.5 14.92 8.73
7/12/2021 10:15:00 AM 18.46 65.228 0.159 7.51 15.14 8.77
7/12/2021 10:30:00 AM 18.55 65.39 0.16 7.54 15.08 8.83
7/12/2021 10:45:00 AM 18.74 65.732 0.16 7.57 14.25 8.92
7/12/2021 11:00:00 AM 18.82 65.876 0.16 7.6 13.99 8.93
7/12/2021 11:15:00 AM 19.01 66.218 0.16 7.63 13.45 8.96
7/12/2021 11:30:00 AM 19.07 66.326 0.16 7.62 14.14 8.98
7/12/2021 11:45:00 AM 19.26 66.668 0.16 7.65 13.32 9
7/12/2021 12:00:00 PM 19.59 67.262 0.16 7.7 13.32 9.05
7/12/2021 12:15:00 PM 19.86 67.748 0.16 7.73 13 9.04
7/12/2021 12:30:00 PM 20.13 68.234 0.16 7.76 13.04 9.04
7/12/2021 12:45:00 PM 20.21 68.378 0.16 7.75 13.04 9.02
7/12/2021 1:00:00 PM 20.35 68.63 0.16 7.75 12.85 9.02
7/12/2021 1:15:00 PM 20.64 69.152 0.16 7.8 12.57 9.03
7/12/2021 1:30:00 PM 20.93 69.674 0.16 7.83 12.57 9.02
7/12/2021 1:45:00 PM 21.03 69.854 0.161 7.82 12.48 8.97
7/12/2021 2:00:00 PM 21.06 69.908 0.16 7.8 12.68 8.91
7/12/2021 2:15:00 PM 21.06 69.908 0.161 7.78 12.44 8.89
7/12/2021 2:30:00 PM 21.12 70.016 0.161 7.77 12.67 8.83
7/12/2021 2:45:00 PM 21.17 70.106 0.161 7.76 11.91 8.75
7/12/2021 3:00:00 PM 21.21 70.17799 0.161 7.74 11.93 8.68
7/12/2021 3:15:00 PM 21.28 70.304 0.161 7.75 11.57 8.67
7/12/2021 3:30:00 PM 21.32 70.376 0.161 7.75 12 8.65
7/12/2021 3:45:00 PM 21.38 70.484 0.161 7.76 11.8 8.65
7/12/2021 4:00:00 PM 21.44 70.592 0.161 7.76 11.15 8.64
7/12/2021 4:15:00 PM 21.53 70.754 0.161 7.77 11 8.66
7/12/2021 4:30:00 PM 21.64 70.952 0.162 7.79 10.98 8.67
7/12/2021 4:45:00 PM 21.67 71.006 0.162 7.79 10.98 8.63
7/12/2021 5:00:00 PM 21.71 71.078 0.162 7.78 10.76 8.59
7/12/2021 5:15:00 PM 21.74 71.132 0.162 7.78 10.28 8.55
7/12/2021 5:30:00 PM 21.71 71.078 0.162 7.74 10.56 8.47
7/12/2021 5:45:00 PM 21.71 71.078 0.162 7.73 10.29 8.45
7/12/2021 6:00:00 PM 21.68 71.024 0.163 7.7 10.03 8.34
7/12/2021 6:15:00 PM 21.65 70.97 0.163 7.67 9.75 8.23
7/12/2021 6:30:00 PM 21.62 70.916 0.163 7.65 9.99 8.13
7/12/2021 6:45:00 PM 21.58 70.844 0.163 7.63 9.69 8.07
7/12/2021 7:00:00 PM 21.54 70.772 0.164 7.61 9.33 8.01
7/12/2021 7:15:00 PM 21.5 70.7 0.164 7.6 9.17 7.97
7/12/2021 7:30:00 PM 21.48 70.664 0.163 7.59 9.23 7.97
7/12/2021 7:45:00 PM 21.46 70.628 0.163 7.59 8.93 7.96
7/12/2021 8:00:00 PM 21.43 70.574 0.163 7.59 8.96 7.96
7/12/2021 8:15:00 PM 21.41 70.538 0.164 7.58 9.03 7.94
7/12/2021 8:30:00 PM 21.39 70.502 0.163 7.58 8.8 7.93
7/12/2021 8:45:00 PM 21.36 70.448 0.164 7.57 8.64 7.91
7/12/2021 9:00:00 PM 21.32 70.376 0.164 7.56 8.7 7.89
7/12/2021 9:15:00 PM 21.29 70.32201 0.165 7.56 8.07 7.87
7/12/2021 9:30:00 PM 21.25 70.25 0.165 7.54 8.31 7.87
7/12/2021 9:45:00 PM 21.21 70.17799 0.165 7.54 8.2 7.86
7/12/2021 10:00:00 PM 21.17 70.106 0.165 7.53 8.29 7.85
7/12/2021 10:15:00 PM 21.13 70.034 0.166 7.52 8.23 7.86
7/12/2021 10:30:00 PM 21.08 69.944 0.166 7.52 8.04 7.86
7/12/2021 10:45:00 PM 21.03 69.854 0.167 7.52 8.15 7.86
7/12/2021 11:00:00 PM 20.98 69.764 0.167 7.52 7.92 7.87
7/12/2021 11:15:00 PM 20.93 69.674 0.167 7.51 7.72 7.88
7/12/2021 11:30:00 PM 20.88 69.584 0.167 7.51 7.58 7.88
7/12/2021 11:45:00 PM 20.83 69.494 0.168 7.51 7.25 7.88
7/13/2021 12:00:00 AM 20.78 69.404 0.168 7.51 7.61 7.89
7/13/2021 12:15:00 AM 20.74 69.332 0.168 7.5 7.17 7.9
7/13/2021 12:30:00 AM 20.7 69.26 0.168 7.5 7.09 7.9
7/13/2021 12:45:00 AM 20.65 69.17 0.168 7.5 6.9 7.91
7/13/2021 1:00:00 AM 20.61 69.098 0.169 7.5 7.66 7.92
7/13/2021 1:15:00 AM 20.57 69.026 0.169 7.49 7.26 7.92
7/13/2021 1:30:00 AM 20.54 68.972 0.169 7.49 7.14 7.93
7/13/2021 1:45:00 AM 20.5 68.9 0.169 7.5 6.73 7.94
7/13/2021 2:00:00 AM 20.47 68.846 0.17 7.5 6.85 7.95
7/13/2021 2:15:00 AM 20.43 68.774 0.17 7.5 6.6 7.95
7/13/2021 2:30:00 AM 20.39 68.702 0.17 7.5 6.37 7.96
7/13/2021 2:45:00 AM 20.35 68.63 0.17 7.51 6.32 7.97
7/13/2021 3:00:00 AM 20.31 68.558 0.171 7.51 6.6 7.98
7/13/2021 3:15:00 AM 20.27 68.486 0.171 7.51 6.25 7.99
7/13/2021 3:30:00 AM 20.23 68.414 0.171 7.51 6.39 7.99
7/13/2021 3:45:00 AM 20.19 68.342 0.172 7.51 7.64 8
7/13/2021 4:00:00 AM 20.15 68.27 0.172 7.51 6.2 8.01
7/13/2021 4:15:00 AM 20.11 68.198 0.172 7.51 6.24 8.02
7/13/2021 4:30:00 AM 20.07 68.126 0.172 7.51 6.23 8.02
7/13/2021 4:45:00 AM 20.03 68.054 0.172 7.5 6.22 8.03
7/13/2021 5:00:00 AM 19.99 67.982 0.173 7.49 6.52 8.03
7/13/2021 5:15:00 AM 19.95 67.91 0.173 7.49 6.14 8.04
7/13/2021 5:30:00 AM 19.9 67.82 0.173 7.49 6.39 8.05
7/13/2021 5:45:00 AM 19.85 67.73 0.174 7.49 5.91 8.06
7/13/2021 6:00:00 AM 19.81 67.658 0.174 7.49 6.41 8.08
7/13/2021 6:15:00 AM 19.78 67.604 0.174 7.49 5.99 8.1
7/13/2021 6:30:00 AM 19.75 67.55 0.175 7.5 6.04 8.12
7/13/2021 6:45:00 AM 19.72 67.496 0.175 7.5 5.94 8.16
7/13/2021 7:00:00 AM 19.7 67.46 0.175 7.51 5.92 8.21
7/13/2021 7:15:00 AM 19.7 67.46 0.175 7.52 5.67 8.27
7/13/2021 7:30:00 AM 19.69 67.442 0.176 7.54 5.41 8.34
7/13/2021 7:45:00 AM 19.71 67.478 0.176 7.56 5.55 8.42
7/13/2021 8:00:00 AM 19.71 67.478 0.176 7.57 5.46 8.47
7/13/2021 8:15:00 AM 19.77 67.586 0.176 7.59 5.25 8.57
7/13/2021 8:30:00 AM 19.78 67.604 0.176 7.61 5.09 8.61
7/13/2021 8:45:00 AM 19.85 67.73 0.176 7.64 4.94 8.69
7/13/2021 9:00:00 AM 19.88 67.784 0.177 7.65 5.1 8.73
7/13/2021 9:15:00 AM 19.97 67.946 0.177 7.69 5.01 8.8
7/13/2021 9:30:00 AM 20.06 68.108 0.177 7.71 5.07 8.89
7/13/2021 9:45:00 AM 20.12 68.216 0.177 7.74 4.96 8.96
7/13/2021 10:00:00 AM 20.21 68.378 0.177 7.77 5.13 9.01
7/13/2021 10:15:00 AM 20.34 68.612 0.177 7.8 4.74 9.07
7/13/2021 10:30:00 AM 20.41 68.738 0.178 7.77 5.21 9.06
7/13/2021 10:45:00 AM 20.5 68.9 0.178 7.82 4.77 9.04
7/13/2021 11:00:00 AM 20.58 69.044 0.178 7.82 4.87 9.07
7/13/2021 11:15:00 AM 20.61 69.098 0.178 7.82 4.6 9.04
7/13/2021 11:30:00 AM 20.66 69.188 0.178 7.82 4.64 9.02
7/13/2021 11:45:00 AM 20.78 69.404 0.179 7.83 4.72 9.1
7/13/2021 12:00:00 PM 20.99 69.782 0.179 7.91 4.88 9.22
7/13/2021 12:15:00 PM 21.17 70.106 0.179 7.95 4.65 9.28
7/13/2021 12:30:00 PM 21.36 70.448 0.179 7.99 4.54 9.34
7/13/2021 12:45:00 PM 21.56 70.808 0.179 8.03 4.35 9.35
7/13/2021 1:00:00 PM 21.76 71.168 0.179 8.05 4.37 9.35
7/13/2021 1:15:00 PM 22.02 71.636 0.18 8.09 4.37 9.32
7/13/2021 1:30:00 PM 22.34 72.212 0.18 8.13 4.37 9.31
7/13/2021 1:45:00 PM 22.6 72.68 0.18 8.15 4.37 9.24
7/13/2021 2:00:00 PM 22.75 72.95 0.18 8.14 4.43 9.17
7/13/2021 2:15:00 PM 22.9 73.22 0.181 8.14 4.35 9.08
7/13/2021 2:30:00 PM 23.06 73.508 0.181 8.14 4.32 9.06
7/13/2021 2:45:00 PM 23.26 73.868 0.181 8.16 4.36 9.02
7/13/2021 3:00:00 PM 23.22 73.796 0.181 8.13 4.33 8.92
7/13/2021 3:15:00 PM 23.24 73.832 0.181 8.1 4.2 8.8
7/13/2021 3:30:00 PM 23.26 73.868 0.181 8.08 4.16 8.81
7/13/2021 3:45:00 PM 23.37 74.066 0.182 8.11 4.13 8.87
7/13/2021 4:00:00 PM 23.44 74.192 0.182 8.13 4.2 8.89
7/13/2021 4:15:00 PM 23.45 74.21 0.182 8.12 4.27 8.84
7/13/2021 4:30:00 PM 23.41 74.138 0.182 8.06 4.14 8.69
7/13/2021 4:45:00 PM 23.4 74.12 0.182 8.02 4.16 8.52
7/13/2021 5:00:00 PM 23.4 74.12 0.183 7.99 4.26 8.39
7/13/2021 5:15:00 PM 23.44 74.192 0.183 7.99 5.52 8.39
7/13/2021 5:30:00 PM 23.46 74.228 0.183 7.98 4.05 8.38
7/13/2021 5:45:00 PM 23.49 74.282 0.183 7.96 4.15 8.39
7/13/2021 6:00:00 PM 23.49 74.282 0.183 7.98 4.1 8.34
7/13/2021 6:15:00 PM 23.46 74.228 0.183 7.96 3.96 8.3
7/13/2021 6:30:00 PM 23.4 74.12 0.183 7.93 4.21 8.2
7/13/2021 6:45:00 PM 23.36 74.048 0.184 7.89 4.23 8.11
7/13/2021 7:00:00 PM 23.34 74.012 0.184 7.88 3.92 8.03
7/13/2021 7:15:00 PM 23.3 73.94 0.184 7.85 4.13 7.96
7/13/2021 7:30:00 PM 23.26 73.868 0.184 7.81 4.08 7.89
7/13/2021 7:45:00 PM 23.23 73.814 0.184 7.82 4.16 7.86
7/13/2021 8:00:00 PM 23.19 73.742 0.185 7.81 3.86 7.82
7/13/2021 8:15:00 PM 23.14 73.652 0.185 7.77 4.09 7.75
7/13/2021 8:30:00 PM 23.08 73.544 0.185 7.77 4.1 7.69
7/13/2021 8:45:00 PM 23.02 73.436 0.185 7.75 4.3 7.63
7/13/2021 9:00:00 PM 22.95 73.31 0.185 7.73 3.99 7.59
7/13/2021 9:15:00 PM 22.72 72.896 0.179 7.68 6.38 7.67
7/13/2021 9:30:00 PM 22.59 72.662 0.174 7.68 10.47 7.67
7/13/2021 9:45:00 PM 22.47 72.446 0.172 7.65 15.31 7.61
7/13/2021 10:00:00 PM 22.38 72.284 0.171 7.63 24.61 7.52
7/13/2021 10:15:00 PM 22.26 72.068 0.168 7.61 59.86 7.52
7/13/2021 10:30:00 PM 22.16 71.888 0.167 7.59 23.21 7.53
7/13/2021 10:45:00 PM 22.1 71.78 0.167 7.56 14.24 7.52
7/13/2021 11:00:00 PM 22.03 71.654 0.167 7.59 11.72 7.53
7/13/2021 11:15:00 PM 21.97 71.546 0.168 7.58 10.24 7.56
7/13/2021 11:30:00 PM 21.92 71.456 0.169 7.58 9.69 7.59
7/13/2021 11:45:00 PM 21.88 71.384 0.169 7.59 9.34 7.63
7/14/2021 12:00:00 AM 21.85 71.33 0.169 7.6 15.29 7.7
7/14/2021 12:15:00 AM 21.8 71.24 0.165 7.6 26.54 7.73
7/14/2021 12:30:00 AM 21.89 71.402 0.165 7.64 24.82 7.73
7/14/2021 12:45:00 AM 22.02 71.636 0.162 7.69 20.5 7.72
7/14/2021 1:00:00 AM 22.03 71.654 0.158 7.66 20.77 7.74
7/14/2021 1:15:00 AM 21.91 71.438 0.154 7.59 23.23 7.76
7/14/2021 1:30:00 AM 21.74 71.132 0.151 7.56 31.04 7.78
7/14/2021 1:45:00 AM 21.57 70.826 0.148 7.51 59.82 7.8
7/14/2021 2:00:00 AM 21.4 70.52 0.144 7.47 115.7 7.81
7/14/2021 2:15:00 AM 21.22 70.196 0.141 7.45 179.18 7.82
7/14/2021 2:30:00 AM 21.06 69.908 0.138 7.41 145.98 7.85
7/14/2021 2:45:00 AM 20.92 69.656 0.138 7.41 170.29 7.88
7/14/2021 3:00:00 AM 20.79 69.422 0.139 7.39 128.65 7.91
7/14/2021 3:15:00 AM 20.67 69.206 0.14 7.39 105.16 7.94
7/14/2021 3:30:00 AM 20.56 69.008 0.141 7.37 90.55 7.97
7/14/2021 3:45:00 AM 20.45 68.81 0.141 7.39 71.18 7.99
7/14/2021 4:00:00 AM 20.34 68.612 0.142 7.39 60.78 8.02
7/14/2021 4:15:00 AM 20.24 68.432 0.142 7.38 47.1 8.04
7/14/2021 4:30:00 AM 20.15 68.27 0.142 7.39 48.68 8.06
7/14/2021 4:45:00 AM 20.07 68.126 0.142 7.39 37.59 8.08
7/14/2021 5:00:00 AM 20 68 0.142 7.38 36.65 8.1
7/14/2021 5:15:00 AM 19.93 67.874 0.142 7.4 46.07 8.11
7/14/2021 5:30:00 AM 19.88 67.784 0.143 7.37 31.68 8.12
7/14/2021 5:45:00 AM 19.83 67.694 0.144 7.4 34.22 8.14
7/14/2021 6:00:00 AM 19.78 67.604 0.144 7.41 33.07 8.15
7/14/2021 6:15:00 AM 19.74 67.532 0.145 7.42 27.83 8.16
7/14/2021 6:30:00 AM 19.7 67.46 0.145 7.39 28.99 8.18
7/14/2021 6:45:00 AM 19.66 67.388 0.145 7.43 27.04 8.2
7/14/2021 7:00:00 AM 19.63 67.334 0.145 7.43 26.75 8.23
7/14/2021 7:15:00 AM 19.61 67.298 0.145 7.44 24.41 8.26
7/14/2021 7:30:00 AM 19.6 67.28 0.145 7.41 21.65 8.29
7/14/2021 7:45:00 AM 19.6 67.28 0.145 7.42 22.1 8.31
7/14/2021 8:00:00 AM 19.59 67.262 0.145 7.46 21.76 8.33
7/14/2021 8:15:00 AM 19.6 67.28 0.145 7.48 20.25 8.36
7/14/2021 8:30:00 AM 19.6 67.28 0.145 7.48 18.74 8.38
7/14/2021 8:45:00 AM 19.62 67.316 0.145 7.49 17.85 8.41
7/14/2021 9:00:00 AM 19.69 67.442 0.145 7.53 18.17 8.47
7/14/2021 9:15:00 AM 19.72 67.496 0.145 7.53 17.13 8.52
7/14/2021 9:30:00 AM 19.75 67.55 0.145 7.52 15.89 8.54
7/14/2021 9:45:00 AM 19.82 67.676 0.146 7.56 15.18 8.58
7/14/2021 10:00:00 AM 19.88 67.784 0.146 7.57 14.72 8.61
7/14/2021 10:15:00 AM 20.01 68.018 0.147 7.61 14.29 8.68
7/14/2021 10:30:00 AM 20.08 68.144 0.147 7.62 13.42 8.72
7/14/2021 10:45:00 AM 20.17 68.306 0.148 7.64 13.26 8.71
7/14/2021 11:00:00 AM 20.21 68.378 0.149 7.63 12.8 8.67
7/14/2021 11:15:00 AM 20.23 68.414 0.149 7.62 12.02 8.65
7/14/2021 11:30:00 AM 20.36 68.648 0.15 7.66 11.78 8.74
7/14/2021 11:45:00 AM 20.48 68.864 0.15 7.67 11.39 8.83
7/14/2021 12:00:00 PM 20.64 69.152 0.151 7.72 11.68 8.88
7/14/2021 12:15:00 PM 20.92 69.656 0.151 7.77 11.02 8.94
7/14/2021 12:30:00 PM 21.24 70.232 0.151 7.82 10.71 8.97
7/14/2021 12:45:00 PM 21.54 70.772 0.152 7.86 10.28 8.98
7/14/2021 1:00:00 PM 21.6 70.88 0.152 7.85 9.75 8.94
7/14/2021 1:15:00 PM 21.61 70.898 0.153 7.82 9.95 8.9
7/14/2021 1:30:00 PM 21.74 71.132 0.153 7.84 9.65 8.89
7/14/2021 1:45:00 PM 21.96 71.528 0.154 7.85 9.32 8.91
7/14/2021 2:00:00 PM 22.11 71.798 0.154 7.91 9.31 8.94
7/14/2021 2:15:00 PM 22.11 71.798 0.154 7.88 8.97 8.86
7/14/2021 2:30:00 PM 22 71.6 0.155 7.81 9.19 8.63
7/14/2021 2:45:00 PM 21.89 71.402 0.154 7.74 9.01 8.46
7/14/2021 3:00:00 PM 21.85 71.33 0.154 7.72 8.98 8.47
7/14/2021 3:15:00 PM 21.89 71.402 0.154 7.76 8.95 8.58
7/14/2021 3:30:00 PM 21.87 71.366 0.155 7.75 9.04 8.53
7/14/2021 3:45:00 PM 21.99 71.582 0.155 7.77 8.77 8.53
7/14/2021 4:00:00 PM 22.03 71.654 0.155 7.76 8.82 8.54
7/14/2021 4:15:00 PM 22 71.6 0.156 7.76 8.44 8.47
7/14/2021 4:30:00 PM 21.99 71.582 0.156 7.75 8.27 8.43
7/14/2021 4:45:00 PM 21.97 71.546 0.156 7.74 8.22 8.45
7/14/2021 5:00:00 PM 21.99 71.582 0.156 7.76 8.77 8.49
7/14/2021 5:15:00 PM 21.99 71.582 0.156 7.77 14.44 8.5
7/14/2021 5:30:00 PM 22.09 71.762 0.162 7.75 41.21 8.28
7/14/2021 5:45:00 PM 22.07 71.726 0.183 7.74 123.96 8.13
7/14/2021 6:00:00 PM 21.91 71.438 0.174 7.66 227.28 8
7/14/2021 6:15:00 PM 21.75 71.15 0.156 7.57 343.26 7.97
7/14/2021 6:30:00 PM 21.61 70.898 0.144 7.5 324.93 7.99
7/14/2021 6:45:00 PM 21.56 70.808 0.138 7.5 376.86 8.02
7/14/2021 7:00:00 PM 21.64 70.952 0.136 7.56 205.32 8.05
7/14/2021 7:15:00 PM 21.67 71.006 0.134 7.59 160.19 8.05
7/14/2021 7:30:00 PM 21.6 70.88 0.133 7.54 136.17 8.03
7/14/2021 7:45:00 PM 21.47 70.646 0.13 7.52 160.67 8.04
7/14/2021 8:00:00 PM 21.32 70.376 0.125 7.47 123.94 8.05
7/14/2021 8:15:00 PM 21.23 70.214 0.12 7.46 112 8.05
7/14/2021 8:30:00 PM 21.17 70.106 0.117 7.45 101.92 8.04
7/14/2021 8:45:00 PM 21.1 69.98 0.114 7.43 111.29 8.05
7/14/2021 9:00:00 PM 21.01 69.818 0.112 7.41 99.88 8.06
7/14/2021 9:15:00 PM 20.91 69.638 0.111 7.38 89.29 8.06
7/14/2021 9:30:00 PM 20.82 69.476 0.11 7.37 92.43 8.07
7/14/2021 9:45:00 PM 20.73 69.314 0.111 7.36 87.79 8.09
7/14/2021 10:00:00 PM 20.66 69.188 0.111 7.35 79.67 8.09
7/14/2021 10:15:00 PM 20.59 69.062 0.112 7.36 75.32 8.09
7/14/2021 10:30:00 PM 20.52 68.936 0.112 7.35 76.59 8.1
7/14/2021 10:45:00 PM 20.44 68.792 0.112 7.34 69.12 8.11
7/14/2021 11:00:00 PM 20.37 68.666 0.113 7.34 93.8 8.12
7/14/2021 11:15:00 PM 20.3 68.54 0.113 7.33 105.74 8.13
7/14/2021 11:30:00 PM 20.23 68.414 0.113 7.33 62.46 8.14
7/14/2021 11:45:00 PM 20.17 68.306 0.114 7.29 88.72 8.15
7/15/2021 12:00:00 AM 20.1 68.18 0.114 7.33 73.94 8.16
7/15/2021 12:15:00 AM 20.04 68.07201 0.114 7.33 67.91 8.17
7/15/2021 12:30:00 AM 19.98 67.964 0.115 7.32 104.44 8.18
7/15/2021 12:45:00 AM 19.93 67.874 0.115 7.32 89.94 8.18
7/15/2021 1:00:00 AM 19.88 67.784 0.116 7.32 64.53 8.19
7/15/2021 1:15:00 AM 19.82 67.676 0.116 7.32 62.78 8.2
7/15/2021 1:30:00 AM 19.77 67.586 0.117 7.31 62.18 8.21
7/15/2021 1:45:00 AM 19.72 67.496 0.117 7.32 77.3 8.22
7/15/2021 2:00:00 AM 19.67 67.406 0.118 7.32 56.52 8.23
7/15/2021 2:15:00 AM 19.63 67.334 0.118 7.32 49.35 8.23
7/15/2021 2:30:00 AM 19.59 67.262 0.119 7.3 75.53 8.24
7/15/2021 2:45:00 AM 19.55 67.19 0.119 7.32 43.85 8.25
7/15/2021 3:00:00 AM 19.52 67.136 0.12 7.33 42.55 8.25
7/15/2021 3:15:00 AM 19.48 67.064 0.12 7.33 40.22 8.26
7/15/2021 3:30:00 AM 19.45 67.01 0.121 7.33 34.77 8.27
7/15/2021 3:45:00 AM 19.41 66.938 0.122 7.34 33.09 8.27
7/15/2021 4:00:00 AM 19.38 66.884 0.122 7.34 40.56 8.28
7/15/2021 4:15:00 AM 19.35 66.83 0.123 7.34 41.98 8.29
7/15/2021 4:30:00 AM 19.31 66.758 0.124 7.34 39.38 8.29
7/15/2021 4:45:00 AM 19.28 66.704 0.124 7.34 41.24 8.3
7/15/2021 5:00:00 AM 19.24 66.632 0.125 7.34 34.55 8.3
7/15/2021 5:15:00 AM 19.21 66.578 0.125 7.34 31.7 8.31
7/15/2021 5:30:00 AM 19.18 66.524 0.126 7.35 35.32 8.31
7/15/2021 5:45:00 AM 19.15 66.47 0.127 7.35 28.28 8.32
7/15/2021 6:00:00 AM 19.12 66.416 0.127 7.36 26.88 8.33
7/15/2021 6:15:00 AM 19.1 66.38 0.128 7.35 25.99 8.33
7/15/2021 6:30:00 AM 19.07 66.326 0.128 7.35 22.02 8.35
7/15/2021 6:45:00 AM 19.06 66.308 0.129 7.36 29.31 8.37
7/15/2021 7:00:00 AM 19.05 66.29 0.129 7.37 22.39 8.38
7/15/2021 7:15:00 AM 19.04 66.272 0.13 7.38 21.04 8.4
7/15/2021 7:30:00 AM 19.03 66.254 0.13 7.39 20.08 8.42
7/15/2021 7:45:00 AM 19.04 66.272 0.131 7.4 19.26 8.45
7/15/2021 8:00:00 AM 19.04 66.272 0.132 7.4 18.36 8.48
7/15/2021 8:15:00 AM 19.06 66.308 0.132 7.42 18.21 8.53
7/15/2021 8:30:00 AM 19.09 66.362 0.132 7.44 17.56 8.57
7/15/2021 8:45:00 AM 19.13 66.434 0.133 7.46 16.88 8.63
7/15/2021 9:00:00 AM 19.18 66.524 0.133 7.48 16.63 8.67
7/15/2021 9:15:00 AM 19.25 66.65 0.134 7.47 15.67 8.72
7/15/2021 9:30:00 AM 19.32 66.776 0.134 7.51 15.44 8.74
7/15/2021 9:45:00 AM 19.39 66.902 0.135 7.53 15.01 8.76
7/15/2021 10:00:00 AM 19.5 67.1 0.135 7.57 14.03 8.79
7/15/2021 10:15:00 AM 19.64 67.352 0.136 7.59 13.53 8.84
7/15/2021 10:30:00 AM 19.81 67.658 0.136 7.63 13.55 8.87
7/15/2021 10:45:00 AM 20 68 0.137 7.65 13.07 8.92
7/15/2021 11:00:00 AM 20.21 68.378 0.137 7.69 12.8 8.96
7/15/2021 11:15:00 AM 20.39 68.702 0.137 7.7 12.49 8.97
7/15/2021 11:30:00 AM 20.57 69.026 0.138 7.74 11.86 8.99
7/15/2021 11:45:00 AM 20.75 69.35 0.138 7.75 12.17 8.98
7/15/2021 12:00:00 PM 20.89 69.602 0.139 7.77 11.47 8.97
7/15/2021 12:15:00 PM 21.06 69.908 0.139 7.76 11.61 8.98
7/15/2021 12:30:00 PM 21.27 70.286 0.14 7.81 10.85 8.99
7/15/2021 12:45:00 PM 21.38 70.484 0.14 7.81 10.86 8.95
7/15/2021 1:00:00 PM 21.55 70.79 0.14 7.82 10.64 8.95
7/15/2021 1:15:00 PM 21.74 71.132 0.141 7.86 10.94 8.98
7/15/2021 1:30:00 PM 21.92 71.456 0.141 7.89 10.35 8.98
7/15/2021 1:45:00 PM 22.11 71.798 0.142 7.91 10.07 8.96
7/15/2021 2:00:00 PM 22.29 72.122 0.142 7.92 10.2 8.94
7/15/2021 2:15:00 PM 22.42 72.356 0.142 7.92 9.67 8.9
7/15/2021 2:30:00 PM 22.55 72.59 0.143 7.93 9.4 8.87
7/15/2021 2:45:00 PM 22.58 72.644 0.143 7.9 9.44 8.8
7/15/2021 3:00:00 PM 22.67 72.806 0.143 7.91 8.93 8.77
7/15/2021 3:15:00 PM 22.77 72.986 0.144 7.93 9.18 8.74
7/15/2021 3:30:00 PM 22.87 73.166 0.144 7.92 8.89 8.7
7/15/2021 3:45:00 PM 22.95 73.31 0.144 7.92 8.8 8.67
7/15/2021 4:00:00 PM 23.01 73.418 0.145 7.91 9.08 8.62
7/15/2021 4:15:00 PM 23.09 73.562 0.145 7.92 8.83 8.58
7/15/2021 4:30:00 PM 23.14 73.652 0.145 7.88 8.69 8.51
7/15/2021 4:45:00 PM 23.19 73.742 0.145 7.9 8.88 8.44
7/15/2021 5:00:00 PM 23.24 73.832 0.146 7.89 9.07 8.39
7/15/2021 5:15:00 PM 23.29 73.922 0.146 7.89 9.12 8.34
7/15/2021 5:30:00 PM 23.32 73.976 0.146 7.88 9.04 8.29
7/15/2021 5:45:00 PM 23.32 73.976 0.147 7.84 9.36 8.24
7/15/2021 6:00:00 PM 23.32 73.976 0.147 7.85 9.31 8.19
7/15/2021 6:15:00 PM 23.3 73.94 0.147 7.82 9.75 8.13
7/15/2021 6:30:00 PM 23.27 73.886 0.147 7.8 9 8.07
7/15/2021 6:45:00 PM 23.23 73.814 0.148 7.78 8.74 8
7/15/2021 7:00:00 PM 23.23 73.814 0.148 7.77 8.55 8.01
7/15/2021 7:15:00 PM 23.2 73.76 0.148 7.75 8.36 8.01
7/15/2021 7:30:00 PM 23.17 73.706 0.148 7.76 8.71 8
7/15/2021 7:45:00 PM 23.14 73.652 0.149 7.74 8.1 7.97
7/15/2021 8:00:00 PM 23.1 73.58 0.149 7.73 8.05 7.91
7/15/2021 8:15:00 PM 23.05 73.49 0.149 7.71 7.85 7.84
7/15/2021 8:30:00 PM 22.99 73.382 0.15 7.69 7.68 7.77
7/15/2021 8:45:00 PM 22.92 73.256 0.15 7.66 7.57 7.72
7/15/2021 9:00:00 PM 22.86 73.148 0.15 7.65 7.59 7.68
7/15/2021 9:15:00 PM 22.79 73.022 0.15 7.63 7.69 7.65
7/15/2021 9:30:00 PM 22.73 72.914 0.151 7.63 7.4 7.62
7/15/2021 9:45:00 PM 22.68 72.824 0.151 7.62 7.41 7.62
7/15/2021 10:00:00 PM 22.62 72.716 0.151 7.61 7.39 7.61
7/15/2021 10:15:00 PM 22.57 72.626 0.151 7.61 7.18 7.61
7/15/2021 10:30:00 PM 22.51 72.518 0.152 7.6 7.5 7.61
7/15/2021 10:45:00 PM 22.45 72.41 0.152 7.57 7.16 7.61
7/15/2021 11:00:00 PM 22.38 72.284 0.152 7.59 7.6 7.61
7/15/2021 11:15:00 PM 22.32 72.176 0.152 7.59 7.07 7.61
7/15/2021 11:30:00 PM 22.26 72.068 0.153 7.58 7.02 7.62
7/15/2021 11:45:00 PM 22.19 71.942 0.153 7.58 7.06 7.62
7/16/2021 12:00:00 AM 22.11 71.798 0.153 7.57 7.03 7.63
7/16/2021 12:15:00 AM 22.04 71.672 0.153 7.56 6.83 7.63
7/16/2021 12:30:00 AM 21.97 71.546 0.154 7.56 6.81 7.65
7/16/2021 12:45:00 AM 21.89 71.402 0.154 7.53 6.61 7.64
7/16/2021 1:00:00 AM 21.81 71.258 0.154 7.55 6.83 7.67
7/16/2021 1:15:00 AM 21.73 71.114 0.154 7.55 6.78 7.69
7/16/2021 1:30:00 AM 21.65 70.97 0.154 7.51 6.47 7.7
7/16/2021 1:45:00 AM 21.57 70.826 0.154 7.54 6.49 7.72
7/16/2021 2:00:00 AM 21.48 70.664 0.155 7.53 6.55 7.73
7/16/2021 2:15:00 AM 21.4 70.52 0.155 7.53 6.4 7.74
7/16/2021 2:30:00 AM 21.32 70.376 0.155 7.53 6.62 7.74
7/16/2021 2:45:00 AM 21.24 70.232 0.156 7.52 6.68 7.76
7/16/2021 3:00:00 AM 21.17 70.106 0.156 7.52 6.42 7.75
7/16/2021 3:15:00 AM 21.09 69.962 0.156 7.52 6.47 7.79
7/16/2021 3:30:00 AM 21.02 69.836 0.156 7.52 6.74 7.81
7/16/2021 3:45:00 AM 20.95 69.71 0.156 7.52 6.37 7.83
7/16/2021 4:00:00 AM 20.88 69.584 0.157 7.49 6.36 7.83
7/16/2021 4:15:00 AM 20.81 69.458 0.157 7.52 6.47 7.84
7/16/2021 4:30:00 AM 20.74 69.332 0.157 7.51 6.41 7.86
7/16/2021 4:45:00 AM 20.68 69.224 0.157 7.51 6.69 7.87
7/16/2021 5:00:00 AM 20.62 69.116 0.158 7.51 6.41 7.88
7/16/2021 5:15:00 AM 20.56 69.008 0.158 7.5 6.45 7.89
7/16/2021 5:30:00 AM 20.5 68.9 0.158 7.51 6.7 7.91
7/16/2021 5:45:00 AM 20.44 68.792 0.159 7.47 6.39 7.91
7/16/2021 6:00:00 AM 20.38 68.684 0.159 7.51 6.19 7.92
7/16/2021 6:15:00 AM 20.32 68.576 0.159 7.5 6.06 7.96
7/16/2021 6:30:00 AM 20.28 68.504 0.16 7.51 6.2 7.98
7/16/2021 6:45:00 AM 20.23 68.414 0.16 7.52 5.88 8.03
7/16/2021 7:00:00 AM 20.19 68.342 0.161 7.53 5.9 8.08
7/16/2021 7:15:00 AM 20.16 68.288 0.161 7.54 5.94 8.14
7/16/2021 7:30:00 AM 20.14 68.252 0.161 7.55 5.5 8.2
7/16/2021 7:45:00 AM 20.14 68.252 0.162 7.57 5.48 8.26
7/16/2021 8:00:00 AM 20.16 68.288 0.162 7.56 5.64 8.34
7/16/2021 8:15:00 AM 20.18 68.324 0.162 7.6 5.51 8.41
7/16/2021 8:30:00 AM 20.2 68.36 0.162 7.62 5.29 8.49
7/16/2021 8:45:00 AM 20.27 68.486 0.162 7.65 5.19 8.6
7/16/2021 9:00:00 AM 20.31 68.558 0.162 7.68 5.25 8.69
7/16/2021 9:15:00 AM 20.36 68.648 0.162 7.71 5.38 8.76
7/16/2021 9:30:00 AM 20.41 68.738 0.162 7.74 5.29 8.82
7/16/2021 9:45:00 AM 20.54 68.972 0.162 7.78 5.21 8.91
7/16/2021 10:00:00 AM 20.68 69.224 0.163 7.82 4.97 8.97
7/16/2021 10:15:00 AM 20.82 69.476 0.163 7.86 5.41 9.05
7/16/2021 10:30:00 AM 20.94 69.692 0.163 7.9 5.07 9.1
7/16/2021 10:45:00 AM 21